<?xml version="1.0" encoding="UTF-8" standalone="no" ?><gpx xmlns="http://www.topografix.com/GPX/1/1" xmlns:gpxx="http://www.garmin.com/xmlschemas/GpxExtensions/v3" xmlns:gpxtrkx="http://www.garmin.com/xmlschemas/TrackStatsExtension/v1" xmlns:wptx1="http://www.garmin.com/xmlschemas/WaypointExtension/v1" xmlns:gpxtpx="http://www.garmin.com/xmlschemas/TrackPointExtension/v1" creator="GPSMAP 64st" version="1.1" xmlns:xsi="http://www.w3.org/2001/XMLSchema-instance" xsi:schemaLocation="http://www.topografix.com/GPX/1/1 http://www.topografix.com/GPX/1/1/gpx.xsd http://www.garmin.com/xmlschemas/GpxExtensions/v3 http://www8.garmin.com/xmlschemas/GpxExtensionsv3.xsd http://www.garmin.com/xmlschemas/TrackStatsExtension/v1 http://www8.garmin.com/xmlschemas/TrackStatsExtension.xsd http://www.garmin.com/xmlschemas/WaypointExtension/v1 http://www8.garmin.com/xmlschemas/WaypointExtensionv1.xsd http://www.garmin.com/xmlschemas/TrackPointExtension/v1 http://www.garmin.com/xmlschemas/TrackPointExtensionv1.xsd"><metadata><link href="http://www.garmin.com"><text>Garmin International</text></link><time>2026-08-22T17:44:48Z</time></metadata>
<trk><name>2026-08-22 Монахов Божок</name>
<trkseg><trkpt lat="59.3508373853" lon="34.7004524991"><ele>158.83</ele><time>2026-08-22T10:47:02Z</time></trkpt><trkpt lat="59.3507855851" lon="34.7001821827"><ele>157.56</ele><time>2026-08-22T10:47:16Z</time></trkpt><trkpt lat="59.3507499620" lon="34.6999567095"><ele>156.15</ele><time>2026-08-22T10:47:27Z</time></trkpt><trkpt lat="59.3507460225" lon="34.6998836193"><ele>155.70</ele><time>2026-08-22T10:47:30Z</time></trkpt><trkpt lat="59.3507477827" lon="34.6998624969"><ele>155.53</ele><time>2026-08-22T10:47:31Z</time></trkpt><trkpt lat="59.3507466931" lon="34.6998393629"><ele>155.36</ele><time>2026-08-22T10:47:32Z</time></trkpt><trkpt lat="59.3507251516" lon="34.6997983754"><ele>155.20</ele><time>2026-08-22T10:47:34Z</time></trkpt><trkpt lat="59.3507162668" lon="34.6997765824"><ele>155.12</ele><time>2026-08-22T10:47:35Z</time></trkpt><trkpt lat="59.3506996706" lon="34.6997578908"><ele>155.04</ele><time>2026-08-22T10:47:36Z</time></trkpt><trkpt lat="59.3506881874" lon="34.6997344214"><ele>155.08</ele><time>2026-08-22T10:47:37Z</time></trkpt><trkpt lat="59.3506826553" lon="34.6997117065"><ele>155.04</ele><time>2026-08-22T10:47:38Z</time></trkpt><trkpt lat="59.3506749440" lon="34.6996881533"><ele>155.15</ele><time>2026-08-22T10:47:39Z</time></trkpt><trkpt lat="59.3506674841" lon="34.6996636782"><ele>155.13</ele><time>2026-08-22T10:47:40Z</time></trkpt><trkpt lat="59.3506576773" lon="34.6996419691"><ele>155.01</ele><time>2026-08-22T10:47:41Z</time></trkpt><trkpt lat="59.3506496307" lon="34.6996195056"><ele>155.02</ele><time>2026-08-22T10:47:42Z</time></trkpt><trkpt lat="59.3506421708" lon="34.6995981317"><ele>155.07</ele><time>2026-08-22T10:47:43Z</time></trkpt><trkpt lat="59.3506017700" lon="34.6993786935"><ele>155.03</ele><time>2026-08-22T10:47:53Z</time></trkpt><trkpt lat="59.3506040331" lon="34.6993512847"><ele>155.43</ele><time>2026-08-22T10:47:54Z</time></trkpt><trkpt lat="59.3506023567" lon="34.6993262228"><ele>155.58</ele><time>2026-08-22T10:47:55Z</time></trkpt><trkpt lat="59.3505987525" lon="34.6993051842"><ele>155.64</ele><time>2026-08-22T10:47:56Z</time></trkpt><trkpt lat="59.3505966570" lon="34.6992828045"><ele>155.73</ele><time>2026-08-22T10:47:57Z</time></trkpt><trkpt lat="59.3505952321" lon="34.6992604248"><ele>155.77</ele><time>2026-08-22T10:47:58Z</time></trkpt><trkpt lat="59.3505526520" lon="34.6989576705"><ele>156.51</ele><time>2026-08-22T10:48:11Z</time></trkpt><trkpt lat="59.3505066354" lon="34.6986969095"><ele>156.45</ele><time>2026-08-22T10:48:23Z</time></trkpt><trkpt lat="59.3504720181" lon="34.6985089872"><ele>155.91</ele><time>2026-08-22T10:48:32Z</time></trkpt><trkpt lat="59.3504679948" lon="34.6984886192"><ele>155.80</ele><time>2026-08-22T10:48:33Z</time></trkpt><trkpt lat="59.3504623789" lon="34.6984696761"><ele>155.67</ele><time>2026-08-22T10:48:34Z</time></trkpt><trkpt lat="59.3504138477" lon="34.6982062329"><ele>154.63</ele><time>2026-08-22T10:48:46Z</time></trkpt><trkpt lat="59.3503745366" lon="34.6978689451"><ele>154.13</ele><time>2026-08-22T10:49:00Z</time></trkpt><trkpt lat="59.3503244128" lon="34.6975250356"><ele>152.86</ele><time>2026-08-22T10:49:15Z</time></trkpt><trkpt lat="59.3502901308" lon="34.6972130612"><ele>153.98</ele><time>2026-08-22T10:49:28Z</time></trkpt><trkpt lat="59.3502264284" lon="34.6969326865"><ele>154.29</ele><time>2026-08-22T10:49:41Z</time></trkpt><trkpt lat="59.3501842674" lon="34.6967844106"><ele>153.98</ele><time>2026-08-22T10:49:51Z</time></trkpt><trkpt lat="59.3501217384" lon="34.6965947282"><ele>153.55</ele><time>2026-08-22T10:50:02Z</time></trkpt><trkpt lat="59.3501168769" lon="34.6965774614"><ele>153.60</ele><time>2026-08-22T10:50:03Z</time></trkpt><trkpt lat="59.3501029629" lon="34.6965101548"><ele>154.56</ele><time>2026-08-22T10:50:12Z</time></trkpt><trkpt lat="59.3500913959" lon="34.6964731906"><ele>154.76</ele><time>2026-08-22T10:50:14Z</time></trkpt><trkpt lat="59.3500856124" lon="34.6964513976"><ele>154.69</ele><time>2026-08-22T10:50:15Z</time></trkpt><trkpt lat="59.3500789907" lon="34.6964290179"><ele>154.80</ele><time>2026-08-22T10:50:16Z</time></trkpt><trkpt lat="59.3500224967" lon="34.6961187199"><ele>155.11</ele><time>2026-08-22T10:50:30Z</time></trkpt><trkpt lat="59.3500131927" lon="34.6960532572"><ele>155.62</ele><time>2026-08-22T10:50:33Z</time></trkpt><trkpt lat="59.3500121031" lon="34.6960304584"><ele>155.79</ele><time>2026-08-22T10:50:34Z</time></trkpt><trkpt lat="59.3500109296" lon="34.6960062347"><ele>155.87</ele><time>2026-08-22T10:50:35Z</time></trkpt><trkpt lat="59.3499996979" lon="34.6957630757"><ele>156.31</ele><time>2026-08-22T10:50:47Z</time></trkpt><trkpt lat="59.3500095885" lon="34.6955169830"><ele>156.83</ele><time>2026-08-22T10:51:00Z</time></trkpt><trkpt lat="59.3499815930" lon="34.6953041665"><ele>156.86</ele><time>2026-08-22T10:51:13Z</time></trkpt><trkpt lat="59.3499898911" lon="34.6951011568"><ele>157.34</ele><time>2026-08-22T10:51:27Z</time></trkpt><trkpt lat="59.3500145338" lon="34.6950690541"><ele>157.27</ele><time>2026-08-22T10:51:32Z</time></trkpt><trkpt lat="59.3500245083" lon="34.6950613428"><ele>157.21</ele><time>2026-08-22T10:51:33Z</time></trkpt><trkpt lat="59.3500285316" lon="34.6950667910"><ele>157.37</ele><time>2026-08-22T10:51:44Z</time></trkpt><trkpt lat="59.3500099238" lon="34.6950936131"><ele>157.54</ele><time>2026-08-22T10:51:46Z</time></trkpt><trkpt lat="59.3499786593" lon="34.6950577386"><ele>157.52</ele><time>2026-08-22T10:51:51Z</time></trkpt><trkpt lat="59.3499758933" lon="34.6950329281"><ele>157.43</ele><time>2026-08-22T10:51:52Z</time></trkpt><trkpt lat="59.3499644101" lon="34.6947530564"><ele>157.30</ele><time>2026-08-22T10:52:05Z</time></trkpt><trkpt lat="59.3499565311" lon="34.6947047766"><ele>157.54</ele><time>2026-08-22T10:52:13Z</time></trkpt><trkpt lat="59.3499379233" lon="34.6944796387"><ele>158.44</ele><time>2026-08-22T10:52:24Z</time></trkpt><trkpt lat="59.3499137834" lon="34.6941141877"><ele>158.25</ele><time>2026-08-22T10:52:39Z</time></trkpt><trkpt lat="59.3498872127" lon="34.6937934123"><ele>157.37</ele><time>2026-08-22T10:52:53Z</time></trkpt><trkpt lat="59.3498455547" lon="34.6935051586"><ele>156.18</ele><time>2026-08-22T10:53:06Z</time></trkpt><trkpt lat="59.3498065788" lon="34.6932077687"><ele>155.70</ele><time>2026-08-22T10:53:19Z</time></trkpt><trkpt lat="59.3497811817" lon="34.6930133086"><ele>155.58</ele><time>2026-08-22T10:53:27Z</time></trkpt><trkpt lat="59.3497787509" lon="34.6929908451"><ele>155.51</ele><time>2026-08-22T10:53:28Z</time></trkpt><trkpt lat="59.3497759849" lon="34.6929668728"><ele>155.53</ele><time>2026-08-22T10:53:29Z</time></trkpt><trkpt lat="59.3497737218" lon="34.6929434873"><ele>155.50</ele><time>2026-08-22T10:53:30Z</time></trkpt><trkpt lat="59.3497635797" lon="34.6928756777"><ele>155.60</ele><time>2026-08-22T10:53:39Z</time></trkpt><trkpt lat="59.3497614004" lon="34.6928548068"><ele>155.75</ele><time>2026-08-22T10:53:40Z</time></trkpt><trkpt lat="59.3497601431" lon="34.6928326786"><ele>155.80</ele><time>2026-08-22T10:53:41Z</time></trkpt><trkpt lat="59.3497595564" lon="34.6928097960"><ele>155.87</ele><time>2026-08-22T10:53:42Z</time></trkpt><trkpt lat="59.3497582152" lon="34.6927864105"><ele>155.94</ele><time>2026-08-22T10:53:43Z</time></trkpt><trkpt lat="59.3497570418" lon="34.6927643660"><ele>156.04</ele><time>2026-08-22T10:53:44Z</time></trkpt><trkpt lat="59.3497563712" lon="34.6927446686"><ele>156.06</ele><time>2026-08-22T10:53:45Z</time></trkpt><trkpt lat="59.3497466482" lon="34.6925939620"><ele>156.51</ele><time>2026-08-22T10:53:56Z</time></trkpt><trkpt lat="59.3497459777" lon="34.6925590932"><ele>156.65</ele><time>2026-08-22T10:54:00Z</time></trkpt><trkpt lat="59.3497456424" lon="34.6925378870"><ele>156.70</ele><time>2026-08-22T10:54:01Z</time></trkpt><trkpt lat="59.3497453071" lon="34.6925150044"><ele>156.76</ele><time>2026-08-22T10:54:02Z</time></trkpt><trkpt lat="59.3497591373" lon="34.6921628807"><ele>157.46</ele><time>2026-08-22T10:54:18Z</time></trkpt><trkpt lat="59.3497652560" lon="34.6918868646"><ele>158.23</ele><time>2026-08-22T10:54:31Z</time></trkpt><trkpt lat="59.3497471511" lon="34.6915976051"><ele>158.01</ele><time>2026-08-22T10:54:46Z</time></trkpt><trkpt lat="59.3497385178" lon="34.6915551927"><ele>157.91</ele><time>2026-08-22T10:54:48Z</time></trkpt><trkpt lat="59.3497355841" lon="34.6915350761"><ele>157.86</ele><time>2026-08-22T10:54:49Z</time></trkpt><trkpt lat="59.3497333210" lon="34.6914380975"><ele>157.70</ele><time>2026-08-22T10:54:54Z</time></trkpt><trkpt lat="59.3497342430" lon="34.6914143767"><ele>157.63</ele><time>2026-08-22T10:54:55Z</time></trkpt><trkpt lat="59.3497348297" lon="34.6913913265"><ele>157.54</ele><time>2026-08-22T10:54:56Z</time></trkpt><trkpt lat="59.3497288786" lon="34.6913693659"><ele>157.44</ele><time>2026-08-22T10:54:57Z</time></trkpt><trkpt lat="59.3497295491" lon="34.6913467348"><ele>157.30</ele><time>2026-08-22T10:54:58Z</time></trkpt><trkpt lat="59.3497288786" lon="34.6913206670"><ele>157.22</ele><time>2026-08-22T10:54:59Z</time></trkpt><trkpt lat="59.3497249391" lon="34.6912915818"><ele>157.04</ele><time>2026-08-22T10:55:00Z</time></trkpt><trkpt lat="59.3497069180" lon="34.6909960359"><ele>157.43</ele><time>2026-08-22T10:55:12Z</time></trkpt><trkpt lat="59.3496707920" lon="34.6906947065"><ele>158.29</ele><time>2026-08-22T10:55:26Z</time></trkpt><trkpt lat="59.3496634997" lon="34.6906241309"><ele>158.25</ele><time>2026-08-22T10:55:30Z</time></trkpt><trkpt lat="59.3496603984" lon="34.6906080376"><ele>158.20</ele><time>2026-08-22T10:55:31Z</time></trkpt><trkpt lat="59.3496566266" lon="34.6905880887"><ele>158.19</ele><time>2026-08-22T10:55:32Z</time></trkpt><trkpt lat="59.3496521842" lon="34.6905701514"><ele>158.20</ele><time>2026-08-22T10:55:33Z</time></trkpt><trkpt lat="59.3495777529" lon="34.6903396491"><ele>157.39</ele><time>2026-08-22T10:55:46Z</time></trkpt><trkpt lat="59.3495288026" lon="34.6902153455"><ele>156.70</ele><time>2026-08-22T10:55:53Z</time></trkpt><trkpt lat="59.3494443130" lon="34.6899187099"><ele>156.09</ele><time>2026-08-22T10:56:07Z</time></trkpt><trkpt lat="59.3494243640" lon="34.6898196358"><ele>155.97</ele><time>2026-08-22T10:56:12Z</time></trkpt><trkpt lat="59.3494165689" lon="34.6898062248"><ele>156.07</ele><time>2026-08-22T10:56:13Z</time></trkpt><trkpt lat="59.3493791018" lon="34.6897743735"><ele>156.61</ele><time>2026-08-22T10:56:22Z</time></trkpt><trkpt lat="59.3493927643" lon="34.6897830069"><ele>156.66</ele><time>2026-08-22T10:56:25Z</time></trkpt><trkpt lat="59.3494172394" lon="34.6897519939"><ele>156.41</ele><time>2026-08-22T10:56:28Z</time></trkpt><trkpt lat="59.3494006433" lon="34.6894380078"><ele>157.37</ele><time>2026-08-22T10:56:41Z</time></trkpt><trkpt lat="59.3493628409" lon="34.6891818568"><ele>157.80</ele><time>2026-08-22T10:56:54Z</time></trkpt><trkpt lat="59.3493642658" lon="34.6891537774"><ele>157.78</ele><time>2026-08-22T10:56:58Z</time></trkpt><trkpt lat="59.3493333366" lon="34.6889749076"><ele>157.89</ele><time>2026-08-22T10:57:07Z</time></trkpt><trkpt lat="59.3493135553" lon="34.6886784397"><ele>156.58</ele><time>2026-08-22T10:57:21Z</time></trkpt><trkpt lat="59.3492882419" lon="34.6883875038"><ele>157.30</ele><time>2026-08-22T10:57:34Z</time></trkpt><trkpt lat="59.3493053410" lon="34.6881637070"><ele>157.37</ele><time>2026-08-22T10:57:46Z</time></trkpt><trkpt lat="59.3493137229" lon="34.6880351286"><ele>157.82</ele><time>2026-08-22T10:57:54Z</time></trkpt><trkpt lat="59.3493253738" lon="34.6879403293"><ele>156.92</ele><time>2026-08-22T10:58:07Z</time></trkpt><trkpt lat="59.3493157346" lon="34.6879466157"><ele>156.89</ele><time>2026-08-22T10:58:08Z</time></trkpt><trkpt lat="59.3492865656" lon="34.6878862660"><ele>156.62</ele><time>2026-08-22T10:58:15Z</time></trkpt><trkpt lat="59.3492687959" lon="34.6877569333"><ele>156.34</ele><time>2026-08-22T10:58:21Z</time></trkpt><trkpt lat="59.3492596596" lon="34.6875208151"><ele>153.01</ele><time>2026-08-22T10:58:33Z</time></trkpt><trkpt lat="59.3492655270" lon="34.6872924920"><ele>148.98</ele><time>2026-08-22T10:58:45Z</time></trkpt><trkpt lat="59.3492608331" lon="34.6869776677"><ele>146.98</ele><time>2026-08-22T10:58:59Z</time></trkpt><trkpt lat="59.3492559716" lon="34.6866639331"><ele>149.24</ele><time>2026-08-22T10:59:11Z</time></trkpt><trkpt lat="59.3492621742" lon="34.6864791960"><ele>150.76</ele><time>2026-08-22T10:59:21Z</time></trkpt><trkpt lat="59.3492086139" lon="34.6864251327"><ele>151.21</ele><time>2026-08-22T10:59:31Z</time></trkpt><trkpt lat="59.3491149880" lon="34.6864234563"><ele>150.78</ele><time>2026-08-22T10:59:40Z</time></trkpt><trkpt lat="59.3490093760" lon="34.6863846481"><ele>151.39</ele><time>2026-08-22T10:59:56Z</time></trkpt><trkpt lat="59.3489577435" lon="34.6863039304"><ele>156.64</ele><time>2026-08-22T11:00:15Z</time></trkpt><trkpt lat="59.3488866650" lon="34.6861952171"><ele>158.72</ele><time>2026-08-22T11:00:29Z</time></trkpt><trkpt lat="59.3488578312" lon="34.6860587597"><ele>159.04</ele><time>2026-08-22T11:00:45Z</time></trkpt><trkpt lat="59.3487709109" lon="34.6857958194"><ele>157.25</ele><time>2026-08-22T11:00:58Z</time></trkpt><trkpt lat="59.3486879300" lon="34.6856215596"><ele>156.53</ele><time>2026-08-22T11:01:12Z</time></trkpt><trkpt lat="59.3486326095" lon="34.6854905505"><ele>156.52</ele><time>2026-08-22T11:01:22Z</time></trkpt><trkpt lat="59.3485756963" lon="34.6853125188"><ele>156.25</ele><time>2026-08-22T11:01:35Z</time></trkpt><trkpt lat="59.3484800588" lon="34.6851898916"><ele>155.87</ele><time>2026-08-22T11:01:47Z</time></trkpt><trkpt lat="59.3484572601" lon="34.6851848625"><ele>155.77</ele><time>2026-08-22T11:01:49Z</time></trkpt><trkpt lat="59.3483841699" lon="34.6851993632"><ele>155.42</ele><time>2026-08-22T11:02:00Z</time></trkpt><trkpt lat="59.3483508099" lon="34.6851748880"><ele>156.11</ele><time>2026-08-22T11:02:15Z</time></trkpt><trkpt lat="59.3482094072" lon="34.6851009596"><ele>154.75</ele><time>2026-08-22T11:02:30Z</time></trkpt><trkpt lat="59.3481097464" lon="34.6850524284"><ele>153.65</ele><time>2026-08-22T11:02:42Z</time></trkpt><trkpt lat="59.3480157852" lon="34.6849748120"><ele>152.76</ele><time>2026-08-22T11:02:54Z</time></trkpt><trkpt lat="59.3479341455" lon="34.6848241054"><ele>149.59</ele><time>2026-08-22T11:03:06Z</time></trkpt><trkpt lat="59.3479049765" lon="34.6847602352"><ele>148.74</ele><time>2026-08-22T11:03:12Z</time></trkpt><trkpt lat="59.3478324730" lon="34.6846907493"><ele>149.38</ele><time>2026-08-22T11:03:26Z</time></trkpt><trkpt lat="59.3477054872" lon="34.6845804434"><ele>149.98</ele><time>2026-08-22T11:03:38Z</time></trkpt><trkpt lat="59.3475989532" lon="34.6845412999"><ele>148.89</ele><time>2026-08-22T11:03:49Z</time></trkpt><trkpt lat="59.3474923354" lon="34.6844278928"><ele>146.57</ele><time>2026-08-22T11:04:04Z</time></trkpt><trkpt lat="59.3473871425" lon="34.6843882464"><ele>144.88</ele><time>2026-08-22T11:04:17Z</time></trkpt><trkpt lat="59.3472775072" lon="34.6845568065"><ele>145.93</ele><time>2026-08-22T11:04:31Z</time></trkpt><trkpt lat="59.3471901678" lon="34.6846904978"><ele>148.44</ele><time>2026-08-22T11:04:45Z</time></trkpt><trkpt lat="59.3471230287" lon="34.6849228442"><ele>148.61</ele><time>2026-08-22T11:05:00Z</time></trkpt><trkpt lat="59.3470973801" lon="34.6851262730"><ele>147.67</ele><time>2026-08-22T11:05:11Z</time></trkpt><trkpt lat="59.3470922671" lon="34.6852832660"><ele>147.78</ele><time>2026-08-22T11:05:22Z</time></trkpt><trkpt lat="59.3470715638" lon="34.6855527442"><ele>148.47</ele><time>2026-08-22T11:05:39Z</time></trkpt><trkpt lat="59.3470959552" lon="34.6857590228"><ele>148.07</ele><time>2026-08-22T11:05:51Z</time></trkpt><trkpt lat="59.3470774312" lon="34.6858733520"><ele>148.80</ele><time>2026-08-22T11:05:59Z</time></trkpt><trkpt lat="59.3469973840" lon="34.6860734280"><ele>149.03</ele><time>2026-08-22T11:06:13Z</time></trkpt><trkpt lat="59.3469317537" lon="34.6861611027"><ele>152.73</ele><time>2026-08-22T11:06:26Z</time></trkpt><trkpt lat="59.3468671292" lon="34.6863568202"><ele>153.25</ele><time>2026-08-22T11:06:42Z</time></trkpt><trkpt lat="59.3467787839" lon="34.6865301579"><ele>153.82</ele><time>2026-08-22T11:06:57Z</time></trkpt><trkpt lat="59.3466907740" lon="34.6867392864"><ele>154.02</ele><time>2026-08-22T11:07:13Z</time></trkpt><trkpt lat="59.3466397282" lon="34.6868918370"><ele>153.57</ele><time>2026-08-22T11:07:21Z</time></trkpt><trkpt lat="59.3466131575" lon="34.6869479120"><ele>153.65</ele><time>2026-08-22T11:07:24Z</time></trkpt><trkpt lat="59.3465326075" lon="34.6870519314"><ele>153.72</ele><time>2026-08-22T11:07:37Z</time></trkpt><trkpt lat="59.3464891892" lon="34.6869445592"><ele>152.50</ele><time>2026-08-22T11:07:52Z</time></trkpt><trkpt lat="59.3465513829" lon="34.6867757477"><ele>148.34</ele><time>2026-08-22T11:08:05Z</time></trkpt><trkpt lat="59.3465922866" lon="34.6866262145"><ele>145.24</ele><time>2026-08-22T11:08:15Z</time></trkpt><trkpt lat="59.3466145825" lon="34.6863859892"><ele>141.89</ele><time>2026-08-22T11:08:29Z</time></trkpt><trkpt lat="59.3465696555" lon="34.6862255596"><ele>141.23</ele><time>2026-08-22T11:08:38Z</time></trkpt><trkpt lat="59.3465410732" lon="34.6861183550"><ele>142.32</ele><time>2026-08-22T11:08:44Z</time></trkpt><trkpt lat="59.3464923743" lon="34.6860073786"><ele>142.84</ele><time>2026-08-22T11:08:54Z</time></trkpt><trkpt lat="59.3464545719" lon="34.6858164389"><ele>145.00</ele><time>2026-08-22T11:09:08Z</time></trkpt><trkpt lat="59.3464512192" lon="34.6856065560"><ele>145.44</ele><time>2026-08-22T11:09:19Z</time></trkpt><trkpt lat="59.3463733513" lon="34.6853484772"><ele>145.93</ele><time>2026-08-22T11:09:36Z</time></trkpt><trkpt lat="59.3464352936" lon="34.6851240937"><ele>146.02</ele><time>2026-08-22T11:09:49Z</time></trkpt><trkpt lat="59.3464646302" lon="34.6848814376"><ele>144.64</ele><time>2026-08-22T11:10:01Z</time></trkpt><trkpt lat="59.3465127423" lon="34.6846684534"><ele>144.77</ele><time>2026-08-22T11:10:13Z</time></trkpt><trkpt lat="59.3464708328" lon="34.6844851412"><ele>146.73</ele><time>2026-08-22T11:10:24Z</time></trkpt><trkpt lat="59.3465179391" lon="34.6843671240"><ele>147.04</ele><time>2026-08-22T11:10:35Z</time></trkpt><trkpt lat="59.3466087990" lon="34.6841603424"><ele>147.70</ele><time>2026-08-22T11:10:49Z</time></trkpt><trkpt lat="59.3466869183" lon="34.6840542275"><ele>146.91</ele><time>2026-08-22T11:11:03Z</time></trkpt><trkpt lat="59.3467334379" lon="34.6840053611"><ele>144.19</ele><time>2026-08-22T11:11:17Z</time></trkpt><trkpt lat="59.3467693124" lon="34.6838552412"><ele>146.33</ele><time>2026-08-22T11:11:37Z</time></trkpt><trkpt lat="59.3468845636" lon="34.6836480405"><ele>148.18</ele><time>2026-08-22T11:11:54Z</time></trkpt><trkpt lat="59.3469843082" lon="34.6834937297"><ele>151.63</ele><time>2026-08-22T11:12:09Z</time></trkpt><trkpt lat="59.3470242899" lon="34.6834953222"><ele>154.96</ele><time>2026-08-22T11:12:20Z</time></trkpt><trkpt lat="59.3470350187" lon="34.6834948193"><ele>156.02</ele><time>2026-08-22T11:12:23Z</time></trkpt><trkpt lat="59.3471219391" lon="34.6835104935"><ele>159.78</ele><time>2026-08-22T11:12:37Z</time></trkpt><trkpt lat="59.3472076859" lon="34.6833436936"><ele>160.77</ele><time>2026-08-22T11:12:50Z</time></trkpt><trkpt lat="59.3473198358" lon="34.6831564419"><ele>159.84</ele><time>2026-08-22T11:13:05Z</time></trkpt><trkpt lat="59.3474118691" lon="34.6829898097"><ele>158.97</ele><time>2026-08-22T11:13:20Z</time></trkpt><trkpt lat="59.3475087639" lon="34.6828411985"><ele>158.16</ele><time>2026-08-22T11:13:37Z</time></trkpt><trkpt lat="59.3475644197" lon="34.6828929987"><ele>157.46</ele><time>2026-08-22T11:13:51Z</time></trkpt><trkpt lat="59.3476292957" lon="34.6829601377"><ele>158.13</ele><time>2026-08-22T11:14:04Z</time></trkpt><trkpt lat="59.3476919085" lon="34.6829039790"><ele>158.25</ele><time>2026-08-22T11:14:16Z</time></trkpt><trkpt lat="59.3477679323" lon="34.6827956010"><ele>158.17</ele><time>2026-08-22T11:14:32Z</time></trkpt><trkpt lat="59.3477725424" lon="34.6827663481"><ele>158.03</ele><time>2026-08-22T11:14:42Z</time></trkpt><trkpt lat="59.3478145357" lon="34.6824920084"><ele>156.14</ele><time>2026-08-22T11:14:58Z</time></trkpt><trkpt lat="59.3478188943" lon="34.6823533718"><ele>154.29</ele><time>2026-08-22T11:15:05Z</time></trkpt><trkpt lat="59.3477940001" lon="34.6822152380"><ele>154.95</ele><time>2026-08-22T11:15:22Z</time></trkpt><trkpt lat="59.3477064092" lon="34.6821289882"><ele>153.10</ele><time>2026-08-22T11:15:37Z</time></trkpt><trkpt lat="59.3476104364" lon="34.6820603404"><ele>153.80</ele><time>2026-08-22T11:15:49Z</time></trkpt><trkpt lat="59.3474997114" lon="34.6819025930"><ele>152.45</ele><time>2026-08-22T11:16:02Z</time></trkpt><trkpt lat="59.3474573828" lon="34.6818266530"><ele>153.31</ele><time>2026-08-22T11:16:14Z</time></trkpt><trkpt lat="59.3474323209" lon="34.6818059497"><ele>153.71</ele><time>2026-08-22T11:16:17Z</time></trkpt><trkpt lat="59.3473254517" lon="34.6817735955"><ele>153.16</ele><time>2026-08-22T11:16:29Z</time></trkpt><trkpt lat="59.3471999746" lon="34.6816533152"><ele>150.18</ele><time>2026-08-22T11:16:45Z</time></trkpt><trkpt lat="59.3471206818" lon="34.6815793868"><ele>147.60</ele><time>2026-08-22T11:16:59Z</time></trkpt><trkpt lat="59.3469164986" lon="34.6815630421"><ele>144.81</ele><time>2026-08-22T11:17:15Z</time></trkpt><trkpt lat="59.3468451686" lon="34.6814634651"><ele>143.47</ele><time>2026-08-22T11:17:29Z</time></trkpt><trkpt lat="59.3467965536" lon="34.6814022772"><ele>145.53</ele><time>2026-08-22T11:17:47Z</time></trkpt><trkpt lat="59.3467604276" lon="34.6814783849"><ele>146.42</ele><time>2026-08-22T11:17:57Z</time></trkpt><trkpt lat="59.3466540612" lon="34.6814443544"><ele>145.61</ele><time>2026-08-22T11:18:08Z</time></trkpt><trkpt lat="59.3464671448" lon="34.6815655567"><ele>146.24</ele><time>2026-08-22T11:18:25Z</time></trkpt><trkpt lat="59.3464089744" lon="34.6817276627"><ele>146.76</ele><time>2026-08-22T11:18:36Z</time></trkpt><trkpt lat="59.3462969083" lon="34.6819851547"><ele>147.19</ele><time>2026-08-22T11:18:51Z</time></trkpt><trkpt lat="59.3462259974" lon="34.6820237953"><ele>147.02</ele><time>2026-08-22T11:18:56Z</time></trkpt><trkpt lat="59.3460807391" lon="34.6818776149"><ele>150.10</ele><time>2026-08-22T11:19:12Z</time></trkpt><trkpt lat="59.3459861912" lon="34.6816181950"><ele>152.42</ele><time>2026-08-22T11:19:25Z</time></trkpt><trkpt lat="59.3459611293" lon="34.6815666463"><ele>153.35</ele><time>2026-08-22T11:19:33Z</time></trkpt><trkpt lat="59.3459186330" lon="34.6816802211"><ele>154.67</ele><time>2026-08-22T11:19:43Z</time></trkpt><trkpt lat="59.3458252586" lon="34.6817785408"><ele>154.61</ele><time>2026-08-22T11:19:56Z</time></trkpt><trkpt lat="59.3457364943" lon="34.6817200352"><ele>154.31</ele><time>2026-08-22T11:20:07Z</time></trkpt><trkpt lat="59.3456578720" lon="34.6816542372"><ele>154.40</ele><time>2026-08-22T11:20:18Z</time></trkpt><trkpt lat="59.3456243444" lon="34.6816309355"><ele>154.01</ele><time>2026-08-22T11:20:23Z</time></trkpt><trkpt lat="59.3455079198" lon="34.6816140041"><ele>153.68</ele><time>2026-08-22T11:20:36Z</time></trkpt><trkpt lat="59.3454334047" lon="34.6816833224"><ele>152.99</ele><time>2026-08-22T11:20:47Z</time></trkpt><trkpt lat="59.3453367613" lon="34.6817263216"><ele>152.10</ele><time>2026-08-22T11:21:01Z</time></trkpt><trkpt lat="59.3452591449" lon="34.6817730926"><ele>152.80</ele><time>2026-08-22T11:21:09Z</time></trkpt><trkpt lat="59.3451585621" lon="34.6818155888"><ele>155.17</ele><time>2026-08-22T11:21:21Z</time></trkpt><trkpt lat="59.3451053370" lon="34.6817285847"><ele>155.18</ele><time>2026-08-22T11:21:31Z</time></trkpt><trkpt lat="59.3450408801" lon="34.6816249005"><ele>152.68</ele><time>2026-08-22T11:21:42Z</time></trkpt><trkpt lat="59.3449631799" lon="34.6816322766"><ele>150.41</ele><time>2026-08-22T11:21:56Z</time></trkpt><trkpt lat="59.3448771816" lon="34.6818683948"><ele>148.52</ele><time>2026-08-22T11:22:08Z</time></trkpt><trkpt lat="59.3448601663" lon="34.6821429860"><ele>147.80</ele><time>2026-08-22T11:22:22Z</time></trkpt><trkpt lat="59.3448512815" lon="34.6822901722"><ele>147.24</ele><time>2026-08-22T11:22:28Z</time></trkpt><trkpt lat="59.3448677100" lon="34.6825175732"><ele>147.71</ele><time>2026-08-22T11:22:39Z</time></trkpt><trkpt lat="59.3448880780" lon="34.6826290525"><ele>148.43</ele><time>2026-08-22T11:22:51Z</time></trkpt><trkpt lat="59.3448696379" lon="34.6827291325"><ele>150.78</ele><time>2026-08-22T11:23:05Z</time></trkpt><trkpt lat="59.3448820431" lon="34.6827475727"><ele>152.11</ele><time>2026-08-22T11:23:07Z</time></trkpt><trkpt lat="59.3449786026" lon="34.6827601455"><ele>161.81</ele><time>2026-08-22T11:23:31Z</time></trkpt><trkpt lat="59.3449712265" lon="34.6825639252"><ele>161.33</ele><time>2026-08-22T11:23:44Z</time></trkpt><trkpt lat="59.3449715618" lon="34.6825373545"><ele>161.21</ele><time>2026-08-22T11:23:45Z</time></trkpt><trkpt lat="59.3449666165" lon="34.6823211852"><ele>160.09</ele><time>2026-08-22T11:23:52Z</time></trkpt><trkpt lat="59.3449408840" lon="34.6820640285"><ele>156.04</ele><time>2026-08-22T11:24:03Z</time></trkpt><trkpt lat="59.3449378666" lon="34.6819046885"><ele>153.29</ele><time>2026-08-22T11:24:10Z</time></trkpt><trkpt lat="59.3449345138" lon="34.6817275789"><ele>154.98</ele><time>2026-08-22T11:24:27Z</time></trkpt><trkpt lat="59.3449800275" lon="34.6816192009"><ele>154.56</ele><time>2026-08-22T11:24:43Z</time></trkpt><trkpt lat="59.3450458255" lon="34.6812788118"><ele>153.75</ele><time>2026-08-22T11:25:05Z</time></trkpt><trkpt lat="59.3450791016" lon="34.6811735351"><ele>153.94</ele><time>2026-08-22T11:25:11Z</time></trkpt><trkpt lat="59.3451471627" lon="34.6809678432"><ele>154.03</ele><time>2026-08-22T11:25:25Z</time></trkpt><trkpt lat="59.3452152237" lon="34.6807901468"><ele>151.93</ele><time>2026-08-22T11:25:39Z</time></trkpt><trkpt lat="59.3452846259" lon="34.6807986964"><ele>151.70</ele><time>2026-08-22T11:25:50Z</time></trkpt><trkpt lat="59.3454071693" lon="34.6808035579"><ele>150.03</ele><time>2026-08-22T11:26:04Z</time></trkpt><trkpt lat="59.3455121107" lon="34.6808356605"><ele>147.64</ele><time>2026-08-22T11:26:15Z</time></trkpt><trkpt lat="59.3455942534" lon="34.6807741374"><ele>149.23</ele><time>2026-08-22T11:26:25Z</time></trkpt><trkpt lat="59.3455963489" lon="34.6806867979"><ele>153.25</ele><time>2026-08-22T11:26:42Z</time></trkpt><trkpt lat="59.3455891404" lon="34.6806624904"><ele>155.03</ele><time>2026-08-22T11:26:49Z</time></trkpt><trkpt lat="59.3455550261" lon="34.6806370933"><ele>155.53</ele><time>2026-08-22T11:26:52Z</time></trkpt><trkpt lat="59.3454085104" lon="34.6805046592"><ele>153.71</ele><time>2026-08-22T11:27:06Z</time></trkpt><trkpt lat="59.3452960253" lon="34.6804342512"><ele>149.60</ele><time>2026-08-22T11:27:18Z</time></trkpt><trkpt lat="59.3451860547" lon="34.6804137994"><ele>146.70</ele><time>2026-08-22T11:27:28Z</time></trkpt><trkpt lat="59.3450586498" lon="34.6803823672"><ele>145.76</ele><time>2026-08-22T11:27:42Z</time></trkpt><trkpt lat="59.3449619226" lon="34.6804184932"><ele>144.70</ele><time>2026-08-22T11:27:55Z</time></trkpt><trkpt lat="59.3448332604" lon="34.6804453991"><ele>143.54</ele><time>2026-08-22T11:28:11Z</time></trkpt><trkpt lat="59.3446701486" lon="34.6804952715"><ele>144.04</ele><time>2026-08-22T11:28:24Z</time></trkpt><trkpt lat="59.3446065299" lon="34.6804951876"><ele>144.43</ele><time>2026-08-22T11:28:30Z</time></trkpt><trkpt lat="59.3444863334" lon="34.6805220097"><ele>146.94</ele><time>2026-08-22T11:28:42Z</time></trkpt><trkpt lat="59.3443200365" lon="34.6804583911"><ele>146.11</ele><time>2026-08-22T11:28:58Z</time></trkpt><trkpt lat="59.3442071322" lon="34.6803483367"><ele>143.73</ele><time>2026-08-22T11:29:13Z</time></trkpt><trkpt lat="59.3440275081" lon="34.6803283878"><ele>141.11</ele><time>2026-08-22T11:29:29Z</time></trkpt><trkpt lat="59.3438622169" lon="34.6802589856"><ele>138.27</ele><time>2026-08-22T11:29:45Z</time></trkpt><trkpt lat="59.3437326327" lon="34.6801559720"><ele>139.58</ele><time>2026-08-22T11:30:02Z</time></trkpt><trkpt lat="59.3436154537" lon="34.6800242085"><ele>139.05</ele><time>2026-08-22T11:30:15Z</time></trkpt><trkpt lat="59.3434686027" lon="34.6798717417"><ele>138.98</ele><time>2026-08-22T11:30:32Z</time></trkpt><trkpt lat="59.3434691895" lon="34.6797911916"><ele>138.23</ele><time>2026-08-22T11:30:46Z</time></trkpt><trkpt lat="59.3435063213" lon="34.6798124816"><ele>143.51</ele><time>2026-08-22T11:31:08Z</time></trkpt><trkpt lat="59.3435499910" lon="34.6798630245"><ele>144.11</ele><time>2026-08-22T11:31:13Z</time></trkpt><trkpt lat="59.3436027132" lon="34.6798617672"><ele>143.84</ele><time>2026-08-22T11:31:20Z</time></trkpt><trkpt lat="59.3436171301" lon="34.6798522118"><ele>143.77</ele><time>2026-08-22T11:31:22Z</time></trkpt><trkpt lat="59.3436650746" lon="34.6797984000"><ele>144.28</ele><time>2026-08-22T11:31:27Z</time></trkpt><trkpt lat="59.3437243346" lon="34.6796914469"><ele>146.53</ele><time>2026-08-22T11:31:43Z</time></trkpt><trkpt lat="59.3438065611" lon="34.6795261558"><ele>152.07</ele><time>2026-08-22T11:32:00Z</time></trkpt><trkpt lat="59.3438569363" lon="34.6794947237"><ele>154.14</ele><time>2026-08-22T11:32:12Z</time></trkpt><trkpt lat="59.3438926432" lon="34.6794518083"><ele>153.93</ele><time>2026-08-22T11:32:16Z</time></trkpt><trkpt lat="59.3439794797" lon="34.6793449391"><ele>152.97</ele><time>2026-08-22T11:32:27Z</time></trkpt><trkpt lat="59.3440869357" lon="34.6792355552"><ele>151.86</ele><time>2026-08-22T11:32:43Z</time></trkpt><trkpt lat="59.3441575952" lon="34.6792188752"><ele>150.75</ele><time>2026-08-22T11:32:57Z</time></trkpt><trkpt lat="59.3442470301" lon="34.6793913748"><ele>147.20</ele><time>2026-08-22T11:33:11Z</time></trkpt><trkpt lat="59.3443301786" lon="34.6795591805"><ele>145.18</ele><time>2026-08-22T11:33:26Z</time></trkpt><trkpt lat="59.3444037717" lon="34.6798086260"><ele>144.05</ele><time>2026-08-22T11:33:41Z</time></trkpt><trkpt lat="59.3444108125" lon="34.6800670400"><ele>141.10</ele><time>2026-08-22T11:33:56Z</time></trkpt><trkpt lat="59.3444399815" lon="34.6802276373"><ele>138.69</ele><time>2026-08-22T11:34:08Z</time></trkpt><trkpt lat="59.3444868363" lon="34.6803884860"><ele>137.11</ele><time>2026-08-22T11:34:22Z</time></trkpt><trkpt lat="59.3445243035" lon="34.6804090217"><ele>135.98</ele><time>2026-08-22T11:34:27Z</time></trkpt><trkpt lat="59.3445973098" lon="34.6804207563"><ele>134.13</ele><time>2026-08-22T11:34:34Z</time></trkpt><trkpt lat="59.3446795363" lon="34.6804304793"><ele>129.20</ele><time>2026-08-22T11:34:47Z</time></trkpt><trkpt lat="59.3448380381" lon="34.6803506836"><ele>126.55</ele><time>2026-08-22T11:35:02Z</time></trkpt><trkpt lat="59.3449744117" lon="34.6803339198"><ele>122.83</ele><time>2026-08-22T11:35:17Z</time></trkpt><trkpt lat="59.3451234419" lon="34.6804189961"><ele>126.98</ele><time>2026-08-22T11:35:32Z</time></trkpt><trkpt lat="59.3450817838" lon="34.6802481730"><ele>125.85</ele><time>2026-08-22T11:35:46Z</time></trkpt><trkpt lat="59.3450885732" lon="34.6802117955"><ele>125.46</ele><time>2026-08-22T11:35:48Z</time></trkpt><trkpt lat="59.3451910838" lon="34.6798859071"><ele>125.17</ele><time>2026-08-22T11:36:03Z</time></trkpt><trkpt lat="59.3452611566" lon="34.6795658860"><ele>123.31</ele><time>2026-08-22T11:36:19Z</time></trkpt><trkpt lat="59.3453401141" lon="34.6793581825"><ele>124.07</ele><time>2026-08-22T11:36:33Z</time></trkpt><trkpt lat="59.3454248551" lon="34.6791448630"><ele>125.34</ele><time>2026-08-22T11:36:47Z</time></trkpt><trkpt lat="59.3455012143" lon="34.6789607126"><ele>126.00</ele><time>2026-08-22T11:37:02Z</time></trkpt><trkpt lat="59.3455632403" lon="34.6788070723"><ele>128.50</ele><time>2026-08-22T11:37:18Z</time></trkpt><trkpt lat="59.3456006236" lon="34.6786534321"><ele>127.76</ele><time>2026-08-22T11:37:26Z</time></trkpt><trkpt lat="59.3456457183" lon="34.6782413777"><ele>128.80</ele><time>2026-08-22T11:37:43Z</time></trkpt><trkpt lat="59.3456894718" lon="34.6779701393"><ele>127.28</ele><time>2026-08-22T11:37:57Z</time></trkpt><trkpt lat="59.3456940819" lon="34.6777462587"><ele>126.77</ele><time>2026-08-22T11:38:10Z</time></trkpt><trkpt lat="59.3457261845" lon="34.6774076298"><ele>126.94</ele><time>2026-08-22T11:38:26Z</time></trkpt><trkpt lat="59.3457209878" lon="34.6771079767"><ele>128.95</ele><time>2026-08-22T11:38:41Z</time></trkpt><trkpt lat="59.3457022961" lon="34.6767848544"><ele>131.70</ele><time>2026-08-22T11:38:56Z</time></trkpt><trkpt lat="59.3456613086" lon="34.6765399352"><ele>132.99</ele><time>2026-08-22T11:39:08Z</time></trkpt><trkpt lat="59.3456269428" lon="34.6762476582"><ele>130.16</ele><time>2026-08-22T11:39:25Z</time></trkpt><trkpt lat="59.3456178065" lon="34.6759761684"><ele>130.52</ele><time>2026-08-22T11:39:37Z</time></trkpt><trkpt lat="59.3455316406" lon="34.6758005675"><ele>129.12</ele><time>2026-08-22T11:39:50Z</time></trkpt><trkpt lat="59.3454033975" lon="34.6756221168"><ele>131.44</ele><time>2026-08-22T11:40:06Z</time></trkpt><trkpt lat="59.3453090172" lon="34.6755325142"><ele>130.59</ele><time>2026-08-22T11:40:20Z</time></trkpt><trkpt lat="59.3451660220" lon="34.6754321828"><ele>128.67</ele><time>2026-08-22T11:40:36Z</time></trkpt><trkpt lat="59.3450718094" lon="34.6752533130"><ele>127.82</ele><time>2026-08-22T11:40:48Z</time></trkpt><trkpt lat="59.3450000603" lon="34.6750767063"><ele>129.10</ele><time>2026-08-22T11:40:56Z</time></trkpt><trkpt lat="59.3449184205" lon="34.6750290133"><ele>129.68</ele><time>2026-08-22T11:41:03Z</time></trkpt><trkpt lat="59.3447815441" lon="34.6749319509"><ele>128.45</ele><time>2026-08-22T11:41:15Z</time></trkpt><trkpt lat="59.3447066937" lon="34.6747563500"><ele>127.84</ele><time>2026-08-22T11:41:28Z</time></trkpt><trkpt lat="59.3446418177" lon="34.6745896339"><ele>127.50</ele><time>2026-08-22T11:41:41Z</time></trkpt><trkpt lat="59.3446362857" lon="34.6744626481"><ele>132.55</ele><time>2026-08-22T11:41:55Z</time></trkpt><trkpt lat="59.3447182607" lon="34.6742858738"><ele>132.74</ele><time>2026-08-22T11:42:08Z</time></trkpt><trkpt lat="59.3447766826" lon="34.6742301341"><ele>131.93</ele><time>2026-08-22T11:42:20Z</time></trkpt><trkpt lat="59.3448167481" lon="34.6740848757"><ele>134.73</ele><time>2026-08-22T11:42:34Z</time></trkpt><trkpt lat="59.3448733259" lon="34.6739829518"><ele>140.79</ele><time>2026-08-22T11:42:48Z</time></trkpt><trkpt lat="59.3449211027" lon="34.6738805249"><ele>145.06</ele><time>2026-08-22T11:43:02Z</time></trkpt><trkpt lat="59.3449267186" lon="34.6738415491"><ele>147.08</ele><time>2026-08-22T11:43:13Z</time></trkpt><trkpt lat="59.3449320830" lon="34.6737337578"><ele>150.14</ele><time>2026-08-22T11:43:24Z</time></trkpt><trkpt lat="59.3449433148" lon="34.6736450773"><ele>152.14</ele><time>2026-08-22T11:43:35Z</time></trkpt><trkpt lat="59.3449707236" lon="34.6735533793"><ele>153.49</ele><time>2026-08-22T11:43:49Z</time></trkpt><trkpt lat="59.3449902534" lon="34.6734742541"><ele>155.01</ele><time>2026-08-22T11:44:03Z</time></trkpt><trkpt lat="59.3450064305" lon="34.6733906865"><ele>156.24</ele><time>2026-08-22T11:44:12Z</time></trkpt><trkpt lat="59.3450198416" lon="34.6733394731"><ele>156.66</ele><time>2026-08-22T11:44:20Z</time></trkpt><trkpt lat="59.3450345937" lon="34.6732683107"><ele>157.14</ele><time>2026-08-22T11:44:36Z</time></trkpt><trkpt lat="59.3450876512" lon="34.6732388064"><ele>158.33</ele><time>2026-08-22T11:44:45Z</time></trkpt><trkpt lat="59.3451618310" lon="34.6732590068"><ele>158.98</ele><time>2026-08-22T11:44:56Z</time></trkpt><trkpt lat="59.3452078477" lon="34.6732927021"><ele>160.23</ele><time>2026-08-22T11:45:07Z</time></trkpt><trkpt lat="59.3452272099" lon="34.6733336058"><ele>160.52</ele><time>2026-08-22T11:45:16Z</time></trkpt><trkpt lat="59.3452751543" lon="34.6733776946"><ele>159.97</ele><time>2026-08-22T11:45:27Z</time></trkpt><trkpt lat="59.3453146331" lon="34.6734108031"><ele>160.53</ele><time>2026-08-22T11:45:36Z</time></trkpt><trkpt lat="59.3453548662" lon="34.6734095458"><ele>161.09</ele><time>2026-08-22T11:45:44Z</time></trkpt><trkpt lat="59.3454231787" lon="34.6734341886"><ele>161.41</ele><time>2026-08-22T11:45:57Z</time></trkpt><trkpt lat="59.3454562873" lon="34.6734479349"><ele>160.41</ele><time>2026-08-22T11:46:09Z</time></trkpt><trkpt lat="59.3454932515" lon="34.6734618489"><ele>160.53</ele><time>2026-08-22T11:46:21Z</time></trkpt><trkpt lat="59.3455156311" lon="34.6734324284"><ele>161.19</ele><time>2026-08-22T11:46:33Z</time></trkpt><trkpt lat="59.3455569539" lon="34.6734156646"><ele>161.45</ele><time>2026-08-22T11:46:43Z</time></trkpt><trkpt lat="59.3456157949" lon="34.6734726615"><ele>161.28</ele><time>2026-08-22T11:46:55Z</time></trkpt><trkpt lat="59.3456402700" lon="34.6735500265"><ele>160.55</ele><time>2026-08-22T11:47:04Z</time></trkpt><trkpt lat="59.3457568623" lon="34.6735090390"><ele>160.31</ele><time>2026-08-22T11:47:21Z</time></trkpt><trkpt lat="59.3457792420" lon="34.6733544767"><ele>159.20</ele><time>2026-08-22T11:47:33Z</time></trkpt><trkpt lat="59.3458153680" lon="34.6732161753"><ele>158.66</ele><time>2026-08-22T11:47:45Z</time></trkpt><trkpt lat="59.3458851054" lon="34.6731260698"><ele>157.89</ele><time>2026-08-22T11:47:58Z</time></trkpt><trkpt lat="59.3459814135" lon="34.6731469408"><ele>154.93</ele><time>2026-08-22T11:48:16Z</time></trkpt><trkpt lat="59.3460000213" lon="34.6732574981"><ele>154.25</ele><time>2026-08-22T11:48:31Z</time></trkpt><trkpt lat="59.3460161146" lon="34.6732722502"><ele>153.83</ele><time>2026-08-22T11:48:35Z</time></trkpt><trkpt lat="59.3460375722" lon="34.6732767764"><ele>154.51</ele><time>2026-08-22T11:48:37Z</time></trkpt><trkpt lat="59.3461097404" lon="34.6733404789"><ele>157.30</ele><time>2026-08-22T11:48:55Z</time></trkpt><trkpt lat="59.3461947329" lon="34.6732566599"><ele>158.25</ele><time>2026-08-22T11:49:07Z</time></trkpt><trkpt lat="59.3462465331" lon="34.6731771994"><ele>157.26</ele><time>2026-08-22T11:49:20Z</time></trkpt><trkpt lat="59.3463412486" lon="34.6731200349"><ele>157.00</ele><time>2026-08-22T11:49:36Z</time></trkpt><trkpt lat="59.3464048672" lon="34.6729813982"><ele>156.23</ele><time>2026-08-22T11:49:54Z</time></trkpt><trkpt lat="59.3464176077" lon="34.6729234792"><ele>156.58</ele><time>2026-08-22T11:50:08Z</time></trkpt><trkpt lat="59.3464609422" lon="34.6727779694"><ele>156.41</ele><time>2026-08-22T11:50:20Z</time></trkpt><trkpt lat="59.3464249838" lon="34.6726311184"><ele>153.91</ele><time>2026-08-22T11:50:34Z</time></trkpt><trkpt lat="59.3464427534" lon="34.6724718623"><ele>151.76</ele><time>2026-08-22T11:50:49Z</time></trkpt><trkpt lat="59.3464015145" lon="34.6723805834"><ele>152.16</ele><time>2026-08-22T11:51:03Z</time></trkpt><trkpt lat="59.3463489600" lon="34.6723414399"><ele>154.09</ele><time>2026-08-22T11:51:18Z</time></trkpt><trkpt lat="59.3463259935" lon="34.6723946650"><ele>154.17</ele><time>2026-08-22T11:51:34Z</time></trkpt><trkpt lat="59.3463000935" lon="34.6723858640"><ele>155.33</ele><time>2026-08-22T11:51:59Z</time></trkpt><trkpt lat="59.3462905381" lon="34.6724201459"><ele>156.81</ele><time>2026-08-22T11:52:18Z</time></trkpt><trkpt lat="59.3462833297" lon="34.6724433638"><ele>157.00</ele><time>2026-08-22T11:52:37Z</time></trkpt><trkpt lat="59.3463207129" lon="34.6723183896"><ele>157.27</ele><time>2026-08-22T11:52:56Z</time></trkpt><trkpt lat="59.3464129139" lon="34.6722634044"><ele>157.26</ele><time>2026-08-22T11:53:09Z</time></trkpt><trkpt lat="59.3465035222" lon="34.6722630691"><ele>156.11</ele><time>2026-08-22T11:53:27Z</time></trkpt><trkpt lat="59.3465891853" lon="34.6723293699"><ele>156.06</ele><time>2026-08-22T11:53:40Z</time></trkpt><trkpt lat="59.3466595933" lon="34.6723070741"><ele>156.21</ele><time>2026-08-22T11:53:52Z</time></trkpt><trkpt lat="59.3467520457" lon="34.6722333133"><ele>156.41</ele><time>2026-08-22T11:54:01Z</time></trkpt><trkpt lat="59.3468237109" lon="34.6720692795"><ele>155.91</ele><time>2026-08-22T11:54:14Z</time></trkpt><trkpt lat="59.3468617648" lon="34.6719480772"><ele>157.14</ele><time>2026-08-22T11:54:29Z</time></trkpt><trkpt lat="59.3468639441" lon="34.6719039883"><ele>158.90</ele><time>2026-08-22T11:54:42Z</time></trkpt><trkpt lat="59.3468800373" lon="34.6718991268"><ele>160.07</ele><time>2026-08-22T11:54:57Z</time></trkpt><trkpt lat="59.3469079491" lon="34.6718509309"><ele>161.15</ele><time>2026-08-22T11:55:11Z</time></trkpt><trkpt lat="59.3469624314" lon="34.6718464885"><ele>163.67</ele><time>2026-08-22T11:55:25Z</time></trkpt><trkpt lat="59.3470237870" lon="34.6718132962"><ele>163.09</ele><time>2026-08-22T11:55:37Z</time></trkpt><trkpt lat="59.3470760062" lon="34.6717733983"><ele>163.47</ele><time>2026-08-22T11:55:51Z</time></trkpt><trkpt lat="59.3471335061" lon="34.6717433911"><ele>163.74</ele><time>2026-08-22T11:56:01Z</time></trkpt><trkpt lat="59.3471843004" lon="34.6717899945"><ele>164.02</ele><time>2026-08-22T11:56:16Z</time></trkpt><trkpt lat="59.3472559657" lon="34.6718807705"><ele>164.22</ele><time>2026-08-22T11:56:33Z</time></trkpt><trkpt lat="59.3473070115" lon="34.6720546111"><ele>163.42</ele><time>2026-08-22T11:56:45Z</time></trkpt><trkpt lat="59.3473568000" lon="34.6721813455"><ele>162.80</ele><time>2026-08-22T11:56:55Z</time></trkpt><trkpt lat="59.3474317342" lon="34.6722289547"><ele>161.45</ele><time>2026-08-22T11:57:05Z</time></trkpt><trkpt lat="59.3474751525" lon="34.6723211557"><ele>159.51</ele><time>2026-08-22T11:57:19Z</time></trkpt><trkpt lat="59.3475530203" lon="34.6724100038"><ele>159.15</ele><time>2026-08-22T11:57:33Z</time></trkpt><trkpt lat="59.3476302177" lon="34.6725247521"><ele>158.75</ele><time>2026-08-22T11:57:49Z</time></trkpt><trkpt lat="59.3477424514" lon="34.6725390851"><ele>157.11</ele><time>2026-08-22T11:58:06Z</time></trkpt><trkpt lat="59.3478603009" lon="34.6724174637"><ele>154.25</ele><time>2026-08-22T11:58:23Z</time></trkpt><trkpt lat="59.3479780667" lon="34.6722716186"><ele>151.95</ele><time>2026-08-22T11:58:40Z</time></trkpt><trkpt lat="59.3480741233" lon="34.6722911485"><ele>150.57</ele><time>2026-08-22T11:58:54Z</time></trkpt><trkpt lat="59.3482035398" lon="34.6723737940"><ele>148.94</ele><time>2026-08-22T11:59:09Z</time></trkpt><trkpt lat="59.3482593633" lon="34.6725097485"><ele>146.96</ele><time>2026-08-22T11:59:22Z</time></trkpt><trkpt lat="59.3483609520" lon="34.6725421865"><ele>147.85</ele><time>2026-08-22T11:59:35Z</time></trkpt><trkpt lat="59.3484737724" lon="34.6724229120"><ele>147.78</ele><time>2026-08-22T11:59:50Z</time></trkpt><trkpt lat="59.3485607766" lon="34.6723736264"><ele>145.41</ele><time>2026-08-22T12:00:02Z</time></trkpt><trkpt lat="59.3486609403" lon="34.6724105068"><ele>147.19</ele><time>2026-08-22T12:00:17Z</time></trkpt><trkpt lat="59.3487556558" lon="34.6725084912"><ele>149.19</ele><time>2026-08-22T12:00:31Z</time></trkpt><trkpt lat="59.3488321826" lon="34.6726591140"><ele>149.76</ele><time>2026-08-22T12:00:43Z</time></trkpt><trkpt lat="59.3488750979" lon="34.6727954876"><ele>149.25</ele><time>2026-08-22T12:00:57Z</time></trkpt><trkpt lat="59.3488906883" lon="34.6728559211"><ele>148.72</ele><time>2026-08-22T12:01:04Z</time></trkpt><trkpt lat="59.3489107210" lon="34.6728784684"><ele>148.42</ele><time>2026-08-22T12:01:07Z</time></trkpt><trkpt lat="59.3489379622" lon="34.6729690768"><ele>147.91</ele><time>2026-08-22T12:01:18Z</time></trkpt><trkpt lat="59.3489177618" lon="34.6732205339"><ele>147.06</ele><time>2026-08-22T12:01:32Z</time></trkpt><trkpt lat="59.3490159139" lon="34.6733090468"><ele>147.24</ele><time>2026-08-22T12:01:47Z</time></trkpt><trkpt lat="59.3491116352" lon="34.6732963901"><ele>147.63</ele><time>2026-08-22T12:02:03Z</time></trkpt><trkpt lat="59.3491782714" lon="34.6732482780"><ele>148.27</ele><time>2026-08-22T12:02:16Z</time></trkpt><trkpt lat="59.3491911795" lon="34.6732450929"><ele>148.73</ele><time>2026-08-22T12:02:19Z</time></trkpt><trkpt lat="59.3492479250" lon="34.6732091345"><ele>150.78</ele><time>2026-08-22T12:02:34Z</time></trkpt><trkpt lat="59.3492668681" lon="34.6731163468"><ele>152.89</ele><time>2026-08-22T12:02:54Z</time></trkpt><trkpt lat="59.3493360188" lon="34.6730151772"><ele>153.27</ele><time>2026-08-22T12:03:08Z</time></trkpt><trkpt lat="59.3493967038" lon="34.6727721021"><ele>152.91</ele><time>2026-08-22T12:03:22Z</time></trkpt><trkpt lat="59.3494421337" lon="34.6726075653"><ele>152.85</ele><time>2026-08-22T12:03:35Z</time></trkpt><trkpt lat="59.3494538683" lon="34.6724349819"><ele>152.13</ele><time>2026-08-22T12:03:52Z</time></trkpt><trkpt lat="59.3494948559" lon="34.6722463053"><ele>151.94</ele><time>2026-08-22T12:04:05Z</time></trkpt><trkpt lat="59.3494500127" lon="34.6719893999"><ele>151.57</ele><time>2026-08-22T12:04:18Z</time></trkpt><trkpt lat="59.3493960332" lon="34.6718293894"><ele>151.85</ele><time>2026-08-22T12:04:31Z</time></trkpt><trkpt lat="59.3494014814" lon="34.6717231907"><ele>151.02</ele><time>2026-08-22T12:04:44Z</time></trkpt><trkpt lat="59.3494716380" lon="34.6716982126"><ele>151.29</ele><time>2026-08-22T12:05:00Z</time></trkpt><trkpt lat="59.3495738972" lon="34.6715330053"><ele>151.11</ele><time>2026-08-22T12:05:15Z</time></trkpt><trkpt lat="59.3496907409" lon="34.6713154111"><ele>150.35</ele><time>2026-08-22T12:05:33Z</time></trkpt><trkpt lat="59.3497345783" lon="34.6712522954"><ele>150.13</ele><time>2026-08-22T12:05:40Z</time></trkpt><trkpt lat="59.3498302996" lon="34.6712456737"><ele>150.27</ele><time>2026-08-22T12:05:56Z</time></trkpt><trkpt lat="59.3498762324" lon="34.6710752696"><ele>151.56</ele><time>2026-08-22T12:06:13Z</time></trkpt><trkpt lat="59.3498981930" lon="34.6709725913"><ele>151.37</ele><time>2026-08-22T12:06:21Z</time></trkpt><trkpt lat="59.3499404378" lon="34.6706434339"><ele>151.66</ele><time>2026-08-22T12:06:37Z</time></trkpt><trkpt lat="59.3499717023" lon="34.6703624725"><ele>151.04</ele><time>2026-08-22T12:06:55Z</time></trkpt><trkpt lat="59.3500609696" lon="34.6702807490"><ele>150.31</ele><time>2026-08-22T12:07:09Z</time></trkpt><trkpt lat="59.3501249235" lon="34.6701361611"><ele>150.19</ele><time>2026-08-22T12:07:22Z</time></trkpt><trkpt lat="59.3501955830" lon="34.6700493246"><ele>151.06</ele><time>2026-08-22T12:07:36Z</time></trkpt><trkpt lat="59.3502269313" lon="34.6700233407"><ele>150.58</ele><time>2026-08-22T12:07:42Z</time></trkpt><trkpt lat="59.3503038771" lon="34.6699318942"><ele>150.74</ele><time>2026-08-22T12:07:55Z</time></trkpt><trkpt lat="59.3503457028" lon="34.6699106041"><ele>150.89</ele><time>2026-08-22T12:08:08Z</time></trkpt><trkpt lat="59.3503919709" lon="34.6700172219"><ele>150.84</ele><time>2026-08-22T12:08:25Z</time></trkpt><trkpt lat="59.3503931444" lon="34.6702033002"><ele>149.82</ele><time>2026-08-22T12:08:37Z</time></trkpt><trkpt lat="59.3504016940" lon="34.6702923160"><ele>149.11</ele><time>2026-08-22T12:08:52Z</time></trkpt><trkpt lat="59.3504215591" lon="34.6702586208"><ele>149.80</ele><time>2026-08-22T12:09:00Z</time></trkpt><trkpt lat="59.3504072260" lon="34.6702727862"><ele>152.31</ele><time>2026-08-22T12:09:22Z</time></trkpt><trkpt lat="59.3504224811" lon="34.6703315433"><ele>154.31</ele><time>2026-08-22T12:09:35Z</time></trkpt><trkpt lat="59.3504170328" lon="34.6703160368"><ele>154.59</ele><time>2026-08-22T12:09:56Z</time></trkpt><trkpt lat="59.3504033703" lon="34.6703381650"><ele>154.60</ele><time>2026-08-22T12:10:06Z</time></trkpt><trkpt lat="59.3504239898" lon="34.6704163682"><ele>154.86</ele><time>2026-08-22T12:10:23Z</time></trkpt><trkpt lat="59.3504306115" lon="34.6704666596"><ele>154.68</ele><time>2026-08-22T12:10:29Z</time></trkpt><trkpt lat="59.3504131772" lon="34.6706850082"><ele>154.12</ele><time>2026-08-22T12:10:48Z</time></trkpt><trkpt lat="59.3503998499" lon="34.6707661450"><ele>154.07</ele><time>2026-08-22T12:10:54Z</time></trkpt><trkpt lat="59.3504386581" lon="34.6707002632"><ele>154.29</ele><time>2026-08-22T12:11:07Z</time></trkpt><trkpt lat="59.3504586071" lon="34.6705709305"><ele>154.22</ele><time>2026-08-22T12:11:23Z</time></trkpt><trkpt lat="59.3504287675" lon="34.6704664081"><ele>154.77</ele><time>2026-08-22T12:11:39Z</time></trkpt><trkpt lat="59.3504426815" lon="34.6703700162"><ele>154.79</ele><time>2026-08-22T12:11:50Z</time></trkpt><trkpt lat="59.3504476268" lon="34.6703100856"><ele>154.62</ele><time>2026-08-22T12:11:55Z</time></trkpt><trkpt lat="59.3504641391" lon="34.6701083332"><ele>154.90</ele><time>2026-08-22T12:12:08Z</time></trkpt><trkpt lat="59.3505038694" lon="34.6699194051"><ele>154.67</ele><time>2026-08-22T12:12:16Z</time></trkpt><trkpt lat="59.3505571783" lon="34.6697248612"><ele>153.51</ele><time>2026-08-22T12:12:27Z</time></trkpt><trkpt lat="59.3505803123" lon="34.6694262978"><ele>150.21</ele><time>2026-08-22T12:12:43Z</time></trkpt><trkpt lat="59.3505825754" lon="34.6692124754"><ele>150.13</ele><time>2026-08-22T12:12:54Z</time></trkpt><trkpt lat="59.3505104072" lon="34.6691341884"><ele>154.59</ele><time>2026-08-22T12:13:16Z</time></trkpt><trkpt lat="59.3505131733" lon="34.6691459231"><ele>156.31</ele><time>2026-08-22T12:13:36Z</time></trkpt><trkpt lat="59.3505197950" lon="34.6690838970"><ele>160.31</ele><time>2026-08-22T12:13:55Z</time></trkpt><trkpt lat="59.3505400792" lon="34.6689621080"><ele>160.34</ele><time>2026-08-22T12:14:10Z</time></trkpt><trkpt lat="59.3505219743" lon="34.6686799731"><ele>161.27</ele><time>2026-08-22T12:14:25Z</time></trkpt><trkpt lat="59.3505173642" lon="34.6684948169"><ele>160.96</ele><time>2026-08-22T12:14:34Z</time></trkpt><trkpt lat="59.3505161069" lon="34.6682101674"><ele>158.95</ele><time>2026-08-22T12:14:49Z</time></trkpt><trkpt lat="59.3505399954" lon="34.6680181380"><ele>158.12</ele><time>2026-08-22T12:14:58Z</time></trkpt><trkpt lat="59.3505725171" lon="34.6678833570"><ele>157.06</ele><time>2026-08-22T12:15:07Z</time></trkpt><trkpt lat="59.3506324477" lon="34.6676422097"><ele>156.46</ele><time>2026-08-22T12:15:20Z</time></trkpt><trkpt lat="59.3506671488" lon="34.6674102824"><ele>155.88</ele><time>2026-08-22T12:15:30Z</time></trkpt><trkpt lat="59.3507752754" lon="34.6671686321"><ele>155.04</ele><time>2026-08-22T12:15:44Z</time></trkpt><trkpt lat="59.3508535624" lon="34.6670675464"><ele>154.86</ele><time>2026-08-22T12:15:54Z</time></trkpt><trkpt lat="59.3508657999" lon="34.6669764351"><ele>153.29</ele><time>2026-08-22T12:16:07Z</time></trkpt><trkpt lat="59.3508884311" lon="34.6668081265"><ele>152.68</ele><time>2026-08-22T12:16:18Z</time></trkpt><trkpt lat="59.3509108946" lon="34.6666626167"><ele>152.23</ele><time>2026-08-22T12:16:31Z</time></trkpt><trkpt lat="59.3509630300" lon="34.6667017601"><ele>150.76</ele><time>2026-08-22T12:16:41Z</time></trkpt><trkpt lat="59.3509739265" lon="34.6667655464"><ele>149.49</ele><time>2026-08-22T12:16:55Z</time></trkpt><trkpt lat="59.3509955518" lon="34.6668403968"><ele>150.86</ele><time>2026-08-22T12:17:10Z</time></trkpt><trkpt lat="59.3510279059" lon="34.6666863374"><ele>151.31</ele><time>2026-08-22T12:17:25Z</time></trkpt><trkpt lat="59.3509650417" lon="34.6666493732"><ele>151.96</ele><time>2026-08-22T12:17:39Z</time></trkpt><trkpt lat="59.3508469407" lon="34.6665540710"><ele>151.80</ele><time>2026-08-22T12:17:51Z</time></trkpt><trkpt lat="59.3508396484" lon="34.6664656419"><ele>152.10</ele><time>2026-08-22T12:17:55Z</time></trkpt><trkpt lat="59.3508544005" lon="34.6661959123"><ele>152.31</ele><time>2026-08-22T12:18:07Z</time></trkpt><trkpt lat="59.3508953881" lon="34.6659124363"><ele>152.13</ele><time>2026-08-22T12:18:19Z</time></trkpt><trkpt lat="59.3509189412" lon="34.6657204069"><ele>152.00</ele><time>2026-08-22T12:18:28Z</time></trkpt><trkpt lat="59.3509416562" lon="34.6653191652"><ele>151.68</ele><time>2026-08-22T12:18:44Z</time></trkpt><trkpt lat="59.3509189412" lon="34.6650743298"><ele>152.09</ele><time>2026-08-22T12:18:58Z</time></trkpt><trkpt lat="59.3508870900" lon="34.6649040096"><ele>151.88</ele><time>2026-08-22T12:19:05Z</time></trkpt><trkpt lat="59.3509914447" lon="34.6645808034"><ele>152.41</ele><time>2026-08-22T12:19:21Z</time></trkpt><trkpt lat="59.3510465976" lon="34.6644155961"><ele>152.68</ele><time>2026-08-22T12:19:31Z</time></trkpt><trkpt lat="59.3510989845" lon="34.6641162783"><ele>153.28</ele><time>2026-08-22T12:19:46Z</time></trkpt><trkpt lat="59.3511478510" lon="34.6639949083"><ele>153.31</ele><time>2026-08-22T12:19:54Z</time></trkpt><trkpt lat="59.3512565643" lon="34.6637336444"><ele>153.47</ele><time>2026-08-22T12:20:08Z</time></trkpt><trkpt lat="59.3513439037" lon="34.6636706963"><ele>154.34</ele><time>2026-08-22T12:20:18Z</time></trkpt><trkpt lat="59.3514851388" lon="34.6635593846"><ele>157.10</ele><time>2026-08-22T12:20:34Z</time></trkpt><trkpt lat="59.3515678681" lon="34.6635075845"><ele>157.97</ele><time>2026-08-22T12:20:44Z</time></trkpt><trkpt lat="59.3516381085" lon="34.6634156350"><ele>160.13</ele><time>2026-08-22T12:20:56Z</time></trkpt><trkpt lat="59.3516585603" lon="34.6633059159"><ele>160.98</ele><time>2026-08-22T12:21:07Z</time></trkpt><trkpt lat="59.3516825326" lon="34.6632329095"><ele>161.50</ele><time>2026-08-22T12:21:12Z</time></trkpt><trkpt lat="59.3517070077" lon="34.6630884055"><ele>162.06</ele><time>2026-08-22T12:21:19Z</time></trkpt><trkpt lat="59.3517761584" lon="34.6628494374"><ele>163.50</ele><time>2026-08-22T12:21:32Z</time></trkpt><trkpt lat="59.3517913297" lon="34.6627606731"><ele>164.15</ele><time>2026-08-22T12:21:37Z</time></trkpt><trkpt lat="59.3518590555" lon="34.6626142412"><ele>164.94</ele><time>2026-08-22T12:21:46Z</time></trkpt><trkpt lat="59.3519092631" lon="34.6624801308"><ele>165.61</ele><time>2026-08-22T12:21:54Z</time></trkpt><trkpt lat="59.3520024698" lon="34.6623274963"><ele>165.25</ele><time>2026-08-22T12:22:05Z</time></trkpt><trkpt lat="59.3520769849" lon="34.6621789690"><ele>165.24</ele><time>2026-08-22T12:22:16Z</time></trkpt><trkpt lat="59.3521547690" lon="34.6620131750"><ele>164.82</ele><time>2026-08-22T12:22:27Z</time></trkpt><trkpt lat="59.3521971814" lon="34.6619266737"><ele>164.81</ele><time>2026-08-22T12:22:33Z</time></trkpt><trkpt lat="59.3522883765" lon="34.6617540903"><ele>164.55</ele><time>2026-08-22T12:22:44Z</time></trkpt><trkpt lat="59.3523221556" lon="34.6616844367"><ele>164.50</ele><time>2026-08-22T12:22:50Z</time></trkpt><trkpt lat="59.3523577787" lon="34.6616295353"><ele>164.47</ele><time>2026-08-22T12:22:54Z</time></trkpt><trkpt lat="59.3524240796" lon="34.6615494043"><ele>164.28</ele><time>2026-08-22T12:23:01Z</time></trkpt><trkpt lat="59.3524624687" lon="34.6615192294"><ele>163.77</ele><time>2026-08-22T12:23:11Z</time></trkpt><trkpt lat="59.3524786457" lon="34.6615002025"><ele>163.51</ele><time>2026-08-22T12:23:14Z</time></trkpt><trkpt lat="59.3524963316" lon="34.6614765655"><ele>163.23</ele><time>2026-08-22T12:23:16Z</time></trkpt><trkpt lat="59.3525317870" lon="34.6614356618"><ele>162.92</ele><time>2026-08-22T12:23:20Z</time></trkpt><trkpt lat="59.3526282627" lon="34.6613086760"><ele>162.94</ele><time>2026-08-22T12:23:31Z</time></trkpt><trkpt lat="59.3526370637" lon="34.6612978633"><ele>162.88</ele><time>2026-08-22T12:23:32Z</time></trkpt><trkpt lat="59.3527725991" lon="34.6609965339"><ele>163.54</ele><time>2026-08-22T12:23:49Z</time></trkpt><trkpt lat="59.3528109044" lon="34.6608362719"><ele>163.19</ele><time>2026-08-22T12:23:59Z</time></trkpt><trkpt lat="59.3528818991" lon="34.6606294066"><ele>163.31</ele><time>2026-08-22T12:24:12Z</time></trkpt><trkpt lat="59.3528761994" lon="34.6606815420"><ele>162.96</ele><time>2026-08-22T12:24:22Z</time></trkpt><trkpt lat="59.3529173546" lon="34.6606600843"><ele>162.92</ele><time>2026-08-22T12:24:31Z</time></trkpt><trkpt lat="59.3529287539" lon="34.6606517024"><ele>163.12</ele><time>2026-08-22T12:24:39Z</time></trkpt><trkpt lat="59.3529613595" lon="34.6605295781"><ele>162.65</ele><time>2026-08-22T12:24:48Z</time></trkpt><trkpt lat="59.3529844936" lon="34.6604267322"><ele>161.13</ele><time>2026-08-22T12:24:57Z</time></trkpt><trkpt lat="59.3530028500" lon="34.6603719145"><ele>160.63</ele><time>2026-08-22T12:25:00Z</time></trkpt><trkpt lat="59.3530280795" lon="34.6602246445"><ele>159.46</ele><time>2026-08-22T12:25:07Z</time></trkpt><trkpt lat="59.3530436698" lon="34.6601671446"><ele>158.97</ele><time>2026-08-22T12:25:10Z</time></trkpt><trkpt lat="59.3530993257" lon="34.6598679107"><ele>157.73</ele><time>2026-08-22T12:25:25Z</time></trkpt><trkpt lat="59.3531815521" lon="34.6596700139"><ele>157.25</ele><time>2026-08-22T12:25:38Z</time></trkpt><trkpt lat="59.3532313406" lon="34.6595620550"><ele>157.42</ele><time>2026-08-22T12:25:50Z</time></trkpt><trkpt lat="59.3532746751" lon="34.6594721172"><ele>156.93</ele><time>2026-08-22T12:25:56Z</time></trkpt><trkpt lat="59.3533239607" lon="34.6593906451"><ele>156.09</ele><time>2026-08-22T12:26:02Z</time></trkpt><trkpt lat="59.3534199335" lon="34.6592799202"><ele>153.16</ele><time>2026-08-22T12:26:15Z</time></trkpt><trkpt lat="59.3534994777" lon="34.6592349932"><ele>151.76</ele><time>2026-08-22T12:26:23Z</time></trkpt><trkpt lat="59.3535791896" lon="34.6591482405"><ele>151.14</ele><time>2026-08-22T12:26:28Z</time></trkpt><trkpt lat="59.3536669482" lon="34.6589743160"><ele>151.05</ele><time>2026-08-22T12:26:41Z</time></trkpt><trkpt lat="59.3536716420" lon="34.6589698736"><ele>150.87</ele><time>2026-08-22T12:26:42Z</time></trkpt><trkpt lat="59.3536559679" lon="34.6589086857"><ele>155.84</ele><time>2026-08-22T12:26:58Z</time></trkpt><trkpt lat="59.3536495138" lon="34.6589881461"><ele>156.24</ele><time>2026-08-22T12:27:13Z</time></trkpt><trkpt lat="59.3536614999" lon="34.6590321511"><ele>156.22</ele><time>2026-08-22T12:27:21Z</time></trkpt><trkpt lat="59.3537750747" lon="34.6590802632"><ele>156.49</ele><time>2026-08-22T12:27:35Z</time></trkpt><trkpt lat="59.3538686167" lon="34.6591277048"><ele>154.49</ele><time>2026-08-22T12:27:51Z</time></trkpt><trkpt lat="59.3539276253" lon="34.6591504198"><ele>152.59</ele><time>2026-08-22T12:28:06Z</time></trkpt><trkpt lat="59.3539484125" lon="34.6591150481"><ele>156.71</ele><time>2026-08-22T12:28:21Z</time></trkpt><trkpt lat="59.3539578002" lon="34.6590496693"><ele>159.39</ele><time>2026-08-22T12:28:36Z</time></trkpt><trkpt lat="59.3539578840" lon="34.6590028983"><ele>162.52</ele><time>2026-08-22T12:29:00Z</time></trkpt><trkpt lat="59.3538664375" lon="34.6589526068"><ele>163.19</ele><time>2026-08-22T12:29:24Z</time></trkpt><trkpt lat="59.3539066706" lon="34.6589779202"><ele>166.14</ele><time>2026-08-22T12:29:51Z</time></trkpt><trkpt lat="59.3538795970" lon="34.6590652596"><ele>167.55</ele><time>2026-08-22T12:30:05Z</time></trkpt><trkpt lat="59.3538278807" lon="34.6591643337"><ele>168.44</ele><time>2026-08-22T12:30:29Z</time></trkpt><trkpt lat="59.3537512701" lon="34.6591638308"><ele>169.56</ele><time>2026-08-22T12:30:45Z</time></trkpt><trkpt lat="59.3536921777" lon="34.6590513457"><ele>170.03</ele><time>2026-08-22T12:31:01Z</time></trkpt><trkpt lat="59.3536618352" lon="34.6589750703"><ele>170.42</ele><time>2026-08-22T12:31:19Z</time></trkpt><trkpt lat="59.3536489271" lon="34.6589365136"><ele>170.47</ele><time>2026-08-22T12:31:40Z</time></trkpt><trkpt lat="59.3536564708" lon="34.6589614078"><ele>170.77</ele><time>2026-08-22T12:32:03Z</time></trkpt><trkpt lat="59.3536436465" lon="34.6589297242"><ele>170.85</ele><time>2026-08-22T12:32:21Z</time></trkpt><trkpt lat="59.3535943609" lon="34.6589281317"><ele>171.15</ele><time>2026-08-22T12:32:23Z</time></trkpt><trkpt lat="59.3535521161" lon="34.6589245275"><ele>173.54</ele><time>2026-08-22T12:32:45Z</time></trkpt><trkpt lat="59.3535709754" lon="34.6589486673"><ele>173.30</ele><time>2026-08-22T12:33:09Z</time></trkpt><trkpt lat="59.3535943609" lon="34.6589350887"><ele>173.69</ele><time>2026-08-22T12:33:27Z</time></trkpt><trkpt lat="59.3536064308" lon="34.6589298081"><ele>174.55</ele><time>2026-08-22T12:33:50Z</time></trkpt><trkpt lat="59.3536217697" lon="34.6589196660"><ele>175.87</ele><time>2026-08-22T12:34:12Z</time></trkpt><trkpt lat="59.3536003120" lon="34.6588889044"><ele>178.41</ele><time>2026-08-22T12:34:33Z</time></trkpt><trkpt lat="59.3535996415" lon="34.6588503476"><ele>179.15</ele><time>2026-08-22T12:34:48Z</time></trkpt><trkpt lat="59.3536357675" lon="34.6587763354"><ele>178.74</ele><time>2026-08-22T12:34:52Z</time></trkpt><trkpt lat="59.3537392002" lon="34.6584978048"><ele>175.40</ele><time>2026-08-22T12:35:05Z</time></trkpt><trkpt lat="59.3538277131" lon="34.6582837310"><ele>170.15</ele><time>2026-08-22T12:35:18Z</time></trkpt><trkpt lat="59.3538890686" lon="34.6580688190"><ele>165.58</ele><time>2026-08-22T12:35:32Z</time></trkpt><trkpt lat="59.3539464008" lon="34.6578431781"><ele>162.56</ele><time>2026-08-22T12:35:43Z</time></trkpt><trkpt lat="59.3539483286" lon="34.6575427707"><ele>159.35</ele><time>2026-08-22T12:35:58Z</time></trkpt><trkpt lat="59.3539531901" lon="34.6573101729"><ele>157.37</ele><time>2026-08-22T12:36:11Z</time></trkpt><trkpt lat="59.3539386895" lon="34.6570474003"><ele>157.16</ele><time>2026-08-22T12:36:29Z</time></trkpt><trkpt lat="59.3539754860" lon="34.6566759143"><ele>155.77</ele><time>2026-08-22T12:36:47Z</time></trkpt><trkpt lat="59.3540017214" lon="34.6565402951"><ele>154.71</ele><time>2026-08-22T12:36:55Z</time></trkpt><trkpt lat="59.3540386017" lon="34.6563713998"><ele>153.56</ele><time>2026-08-22T12:37:03Z</time></trkpt><trkpt lat="59.3540551979" lon="34.6560823079"><ele>156.22</ele><time>2026-08-22T12:37:18Z</time></trkpt><trkpt lat="59.3540840317" lon="34.6558056213"><ele>157.92</ele><time>2026-08-22T12:37:31Z</time></trkpt><trkpt lat="59.3540826067" lon="34.6554944851"><ele>159.42</ele><time>2026-08-22T12:37:45Z</time></trkpt><trkpt lat="59.3540779129" lon="34.6552548464"><ele>160.24</ele><time>2026-08-22T12:37:56Z</time></trkpt><trkpt lat="59.3540898152" lon="34.6549217496"><ele>161.17</ele><time>2026-08-22T12:38:11Z</time></trkpt><trkpt lat="59.3540897314" lon="34.6548864618"><ele>161.54</ele><time>2026-08-22T12:38:13Z</time></trkpt><trkpt lat="59.3540987000" lon="34.6547091007"><ele>162.30</ele><time>2026-08-22T12:38:21Z</time></trkpt><trkpt lat="59.3540993705" lon="34.6544478368"><ele>162.60</ele><time>2026-08-22T12:38:34Z</time></trkpt><trkpt lat="59.3541056570" lon="34.6542905923"><ele>161.97</ele><time>2026-08-22T12:38:43Z</time></trkpt><trkpt lat="59.3541008793" lon="34.6541840583"><ele>161.48</ele><time>2026-08-22T12:38:48Z</time></trkpt><trkpt lat="59.3541084230" lon="34.6541237086"><ele>160.99</ele><time>2026-08-22T12:38:51Z</time></trkpt><trkpt lat="59.3541031424" lon="34.6538036037"><ele>160.95</ele><time>2026-08-22T12:39:05Z</time></trkpt><trkpt lat="59.3540751468" lon="34.6535324492"><ele>160.74</ele><time>2026-08-22T12:39:18Z</time></trkpt><trkpt lat="59.3540301360" lon="34.6532286052"><ele>161.41</ele><time>2026-08-22T12:39:33Z</time></trkpt><trkpt lat="59.3540065829" lon="34.6529952530"><ele>161.73</ele><time>2026-08-22T12:39:45Z</time></trkpt><trkpt lat="59.3540121987" lon="34.6527178120"><ele>160.27</ele><time>2026-08-22T12:40:01Z</time></trkpt><trkpt lat="59.3539922498" lon="34.6524500102"><ele>158.10</ele><time>2026-08-22T12:40:14Z</time></trkpt><trkpt lat="59.3539594766" lon="34.6522370260"><ele>155.53</ele><time>2026-08-22T12:40:26Z</time></trkpt><trkpt lat="59.3539583869" lon="34.6519180108"><ele>150.51</ele><time>2026-08-22T12:40:43Z</time></trkpt><trkpt lat="59.3539474066" lon="34.6519115567"><ele>151.00</ele><time>2026-08-22T12:40:46Z</time></trkpt><trkpt lat="59.3539468199" lon="34.6518609300"><ele>152.96</ele><time>2026-08-22T12:40:59Z</time></trkpt><trkpt lat="59.3540082593" lon="34.6519589983"><ele>153.11</ele><time>2026-08-22T12:41:08Z</time></trkpt><trkpt lat="59.3540916592" lon="34.6520499419"><ele>152.01</ele><time>2026-08-22T12:41:22Z</time></trkpt><trkpt lat="59.3541539367" lon="34.6520853974"><ele>151.57</ele><time>2026-08-22T12:41:36Z</time></trkpt><trkpt lat="59.3541453034" lon="34.6523262095"><ele>151.45</ele><time>2026-08-22T12:41:49Z</time></trkpt><trkpt lat="59.3541646656" lon="34.6524653491"><ele>149.46</ele><time>2026-08-22T12:42:00Z</time></trkpt><trkpt lat="59.3543072417" lon="34.6524936799"><ele>150.28</ele><time>2026-08-22T12:42:13Z</time></trkpt><trkpt lat="59.3544412684" lon="34.6524185780"><ele>151.59</ele><time>2026-08-22T12:42:28Z</time></trkpt><trkpt lat="59.3545685057" lon="34.6524196677"><ele>154.06</ele><time>2026-08-22T12:42:42Z</time></trkpt><trkpt lat="59.3546614610" lon="34.6522266325"><ele>153.58</ele><time>2026-08-22T12:42:59Z</time></trkpt><trkpt lat="59.3547371496" lon="34.6520551387"><ele>151.55</ele><time>2026-08-22T12:43:13Z</time></trkpt><trkpt lat="59.3548395764" lon="34.6518960502"><ele>152.43</ele><time>2026-08-22T12:43:25Z</time></trkpt><trkpt lat="59.3548956513" lon="34.6518426575"><ele>152.70</ele><time>2026-08-22T12:43:31Z</time></trkpt><trkpt lat="59.3549396563" lon="34.6517969761"><ele>152.85</ele><time>2026-08-22T12:43:35Z</time></trkpt><trkpt lat="59.3550096452" lon="34.6516304277"><ele>153.57</ele><time>2026-08-22T12:43:46Z</time></trkpt><trkpt lat="59.3550948054" lon="34.6515276656"><ele>152.72</ele><time>2026-08-22T12:43:57Z</time></trkpt><trkpt lat="59.3552029319" lon="34.6513798926"><ele>152.83</ele><time>2026-08-22T12:44:10Z</time></trkpt><trkpt lat="59.3552661315" lon="34.6512151044"><ele>154.30</ele><time>2026-08-22T12:44:20Z</time></trkpt><trkpt lat="59.3553024251" lon="34.6511364821"><ele>154.12</ele><time>2026-08-22T12:44:25Z</time></trkpt><trkpt lat="59.3553765211" lon="34.6509840153"><ele>154.49</ele><time>2026-08-22T12:44:38Z</time></trkpt><trkpt lat="59.3555029202" lon="34.6508885454"><ele>155.69</ele><time>2026-08-22T12:44:54Z</time></trkpt><trkpt lat="59.3555941153" lon="34.6508219931"><ele>155.07</ele><time>2026-08-22T12:45:05Z</time></trkpt><trkpt lat="59.3556442391" lon="34.6507465560"><ele>155.55</ele><time>2026-08-22T12:45:11Z</time></trkpt><trkpt lat="59.3556625117" lon="34.6507197339"><ele>155.59</ele><time>2026-08-22T12:45:13Z</time></trkpt><trkpt lat="59.3557593226" lon="34.6506102663"><ele>156.86</ele><time>2026-08-22T12:45:25Z</time></trkpt><trkpt lat="59.3558337539" lon="34.6505779121"><ele>156.96</ele><time>2026-08-22T12:45:33Z</time></trkpt><trkpt lat="59.3558910023" lon="34.6504510101"><ele>158.47</ele><time>2026-08-22T12:45:44Z</time></trkpt><trkpt lat="59.3559689540" lon="34.6503894869"><ele>160.15</ele><time>2026-08-22T12:45:55Z</time></trkpt><trkpt lat="59.3559801020" lon="34.6503490862"><ele>162.42</ele><time>2026-08-22T12:46:11Z</time></trkpt><trkpt lat="59.3559942674" lon="34.6503613237"><ele>163.29</ele><time>2026-08-22T12:46:33Z</time></trkpt><trkpt lat="59.3560092710" lon="34.6503343340"><ele>163.86</ele><time>2026-08-22T12:46:48Z</time></trkpt><trkpt lat="59.3560089357" lon="34.6503279638"><ele>163.92</ele><time>2026-08-22T12:47:07Z</time></trkpt><trkpt lat="59.3559826165" lon="34.6503723878"><ele>164.71</ele><time>2026-08-22T12:47:26Z</time></trkpt><trkpt lat="59.3559217639" lon="34.6505020559"><ele>163.96</ele><time>2026-08-22T12:47:38Z</time></trkpt><trkpt lat="59.3559029885" lon="34.6506655030"><ele>162.20</ele><time>2026-08-22T12:47:48Z</time></trkpt><trkpt lat="59.3559399527" lon="34.6508331411"><ele>161.05</ele><time>2026-08-22T12:48:01Z</time></trkpt><trkpt lat="59.3560280465" lon="34.6509083267"><ele>161.56</ele><time>2026-08-22T12:48:12Z</time></trkpt><trkpt lat="59.3560602330" lon="34.6510271821"><ele>161.69</ele><time>2026-08-22T12:48:23Z</time></trkpt><trkpt lat="59.3561287969" lon="34.6510989312"><ele>161.27</ele><time>2026-08-22T12:48:35Z</time></trkpt><trkpt lat="59.3562199082" lon="34.6510768868"><ele>160.70</ele><time>2026-08-22T12:48:48Z</time></trkpt><trkpt lat="59.3562874664" lon="34.6510616317"><ele>159.83</ele><time>2026-08-22T12:48:58Z</time></trkpt><trkpt lat="59.3563826848" lon="34.6509750467"><ele>159.15</ele><time>2026-08-22T12:49:11Z</time></trkpt><trkpt lat="59.3564626481" lon="34.6509252582"><ele>158.23</ele><time>2026-08-22T12:49:23Z</time></trkpt><trkpt lat="59.3565369956" lon="34.6509135235"><ele>157.17</ele><time>2026-08-22T12:49:35Z</time></trkpt><trkpt lat="59.3566179648" lon="34.6508636512"><ele>157.44</ele><time>2026-08-22T12:49:45Z</time></trkpt><trkpt lat="59.3566945754" lon="34.6507962607"><ele>157.28</ele><time>2026-08-22T12:49:57Z</time></trkpt><trkpt lat="59.3567606248" lon="34.6507926565"><ele>158.59</ele><time>2026-08-22T12:50:12Z</time></trkpt><trkpt lat="59.3568482995" lon="34.6508027148"><ele>159.32</ele><time>2026-08-22T12:50:27Z</time></trkpt><trkpt lat="59.3569015246" lon="34.6507114358"><ele>159.26</ele><time>2026-08-22T12:50:40Z</time></trkpt><trkpt lat="59.3569571804" lon="34.6506965999"><ele>159.15</ele><time>2026-08-22T12:50:51Z</time></trkpt><trkpt lat="59.3570479564" lon="34.6506802551"><ele>160.09</ele><time>2026-08-22T12:51:06Z</time></trkpt><trkpt lat="59.3570617028" lon="34.6506730467"><ele>161.36</ele><time>2026-08-22T12:51:24Z</time></trkpt><trkpt lat="59.3570473697" lon="34.6505874675"><ele>162.78</ele><time>2026-08-22T12:51:39Z</time></trkpt><trkpt lat="59.3570369761" lon="34.6505780797"><ele>163.48</ele><time>2026-08-22T12:51:53Z</time></trkpt><trkpt lat="59.3570529018" lon="34.6506726276"><ele>163.73</ele><time>2026-08-22T12:52:08Z</time></trkpt><trkpt lat="59.3570878543" lon="34.6508066542"><ele>163.91</ele><time>2026-08-22T12:52:21Z</time></trkpt><trkpt lat="59.3571297638" lon="34.6510333847"><ele>162.29</ele><time>2026-08-22T12:52:36Z</time></trkpt><trkpt lat="59.3571317755" lon="34.6510438621"><ele>162.57</ele><time>2026-08-22T12:52:48Z</time></trkpt><trkpt lat="59.3570977449" lon="34.6512306947"><ele>164.02</ele><time>2026-08-22T12:53:02Z</time></trkpt><trkpt lat="59.3571128324" lon="34.6515016817"><ele>164.44</ele><time>2026-08-22T12:53:16Z</time></trkpt><trkpt lat="59.3571649678" lon="34.6517182700"><ele>164.70</ele><time>2026-08-22T12:53:31Z</time></trkpt><trkpt lat="59.3571523950" lon="34.6516309306"><ele>165.62</ele><time>2026-08-22T12:53:46Z</time></trkpt><trkpt lat="59.3571065459" lon="34.6515905298"><ele>165.10</ele><time>2026-08-22T12:53:59Z</time></trkpt><trkpt lat="59.3571440130" lon="34.6516642906"><ele>165.22</ele><time>2026-08-22T12:54:10Z</time></trkpt><trkpt lat="59.3571616989" lon="34.6517651249"><ele>165.80</ele><time>2026-08-22T12:54:28Z</time></trkpt><trkpt lat="59.3571168557" lon="34.6518736705"><ele>166.67</ele><time>2026-08-22T12:54:45Z</time></trkpt><trkpt lat="59.3571259081" lon="34.6519387979"><ele>167.44</ele><time>2026-08-22T12:54:59Z</time></trkpt><trkpt lat="59.3571584299" lon="34.6519000735"><ele>168.10</ele><time>2026-08-22T12:55:15Z</time></trkpt><trkpt lat="59.3571635429" lon="34.6517564077"><ele>168.09</ele><time>2026-08-22T12:55:31Z</time></trkpt><trkpt lat="59.3571806420" lon="34.6517473552"><ele>168.35</ele><time>2026-08-22T12:55:50Z</time></trkpt><trkpt lat="59.3572193664" lon="34.6516827308"><ele>168.69</ele><time>2026-08-22T12:56:07Z</time></trkpt><trkpt lat="59.3572758604" lon="34.6516657993"><ele>168.61</ele><time>2026-08-22T12:56:15Z</time></trkpt><trkpt lat="59.3573011737" lon="34.6514539048"><ele>168.57</ele><time>2026-08-22T12:56:30Z</time></trkpt><trkpt lat="59.3572785426" lon="34.6511705127"><ele>167.29</ele><time>2026-08-22T12:56:47Z</time></trkpt><trkpt lat="59.3572838232" lon="34.6509493981"><ele>165.97</ele><time>2026-08-22T12:57:02Z</time></trkpt><trkpt lat="59.3572497927" lon="34.6508141980"><ele>166.28</ele><time>2026-08-22T12:57:16Z</time></trkpt><trkpt lat="59.3572198693" lon="34.6506361663"><ele>166.40</ele><time>2026-08-22T12:57:30Z</time></trkpt><trkpt lat="59.3571420852" lon="34.6505307220"><ele>166.38</ele><time>2026-08-22T12:57:42Z</time></trkpt><trkpt lat="59.3570715096" lon="34.6505141258"><ele>166.66</ele><time>2026-08-22T12:57:54Z</time></trkpt><trkpt lat="59.3570530694" lon="34.6504939254"><ele>167.12</ele><time>2026-08-22T12:58:14Z</time></trkpt><trkpt lat="59.3570899498" lon="34.6504996251"><ele>167.32</ele><time>2026-08-22T12:58:34Z</time></trkpt><trkpt lat="59.3570104893" lon="34.6505677700"><ele>169.01</ele><time>2026-08-22T12:58:54Z</time></trkpt><trkpt lat="59.3570115790" lon="34.6505742241"><ele>168.21</ele><time>2026-08-22T12:59:17Z</time></trkpt><trkpt lat="59.3570092320" lon="34.6505665127"><ele>167.89</ele><time>2026-08-22T12:59:20Z</time></trkpt><trkpt lat="59.3570673186" lon="34.6504674386"><ele>166.25</ele><time>2026-08-22T12:59:35Z</time></trkpt><trkpt lat="59.3570824061" lon="34.6503025666"><ele>165.78</ele><time>2026-08-22T12:59:48Z</time></trkpt><trkpt lat="59.3570777960" lon="34.6501248702"><ele>164.43</ele><time>2026-08-22T13:00:01Z</time></trkpt><trkpt lat="59.3571130838" lon="34.6499327570"><ele>163.05</ele><time>2026-08-22T13:00:15Z</time></trkpt><trkpt lat="59.3571286742" lon="34.6497567371"><ele>161.96</ele><time>2026-08-22T13:00:28Z</time></trkpt><trkpt lat="59.3571479525" lon="34.6496284101"><ele>161.09</ele><time>2026-08-22T13:00:43Z</time></trkpt><trkpt lat="59.3571886886" lon="34.6494548209"><ele>160.18</ele><time>2026-08-22T13:00:56Z</time></trkpt><trkpt lat="59.3571739364" lon="34.6492003463"><ele>159.47</ele><time>2026-08-22T13:01:12Z</time></trkpt><trkpt lat="59.3571637105" lon="34.6489975043"><ele>159.54</ele><time>2026-08-22T13:01:27Z</time></trkpt><trkpt lat="59.3572124932" lon="34.6487628110"><ele>159.24</ele><time>2026-08-22T13:01:43Z</time></trkpt><trkpt lat="59.3572538160" lon="34.6486211568"><ele>158.91</ele><time>2026-08-22T13:01:54Z</time></trkpt><trkpt lat="59.3572483677" lon="34.6484749764"><ele>159.22</ele><time>2026-08-22T13:02:07Z</time></trkpt><trkpt lat="59.3572530616" lon="34.6483816020"><ele>159.90</ele><time>2026-08-22T13:02:21Z</time></trkpt><trkpt lat="59.3572679814" lon="34.6482770797"><ele>160.40</ele><time>2026-08-22T13:02:29Z</time></trkpt><trkpt lat="59.3572707474" lon="34.6480751596"><ele>160.91</ele><time>2026-08-22T13:02:41Z</time></trkpt><trkpt lat="59.3572124932" lon="34.6479446534"><ele>161.02</ele><time>2026-08-22T13:02:56Z</time></trkpt><trkpt lat="59.3571267463" lon="34.6478809509"><ele>161.17</ele><time>2026-08-22T13:03:10Z</time></trkpt><trkpt lat="59.3569899537" lon="34.6478376165"><ele>161.28</ele><time>2026-08-22T13:03:25Z</time></trkpt><trkpt lat="59.3568954896" lon="34.6477303281"><ele>162.25</ele><time>2026-08-22T13:03:39Z</time></trkpt><trkpt lat="59.3568185437" lon="34.6477444936"><ele>163.79</ele><time>2026-08-22T13:03:49Z</time></trkpt><trkpt lat="59.3567197211" lon="34.6477797814"><ele>164.60</ele><time>2026-08-22T13:04:02Z</time></trkpt><trkpt lat="59.3566300347" lon="34.6478712279"><ele>165.35</ele><time>2026-08-22T13:04:16Z</time></trkpt><trkpt lat="59.3566304538" lon="34.6480159834"><ele>164.10</ele><time>2026-08-22T13:04:27Z</time></trkpt><trkpt lat="59.3566351477" lon="34.6482171491"><ele>162.75</ele><time>2026-08-22T13:04:42Z</time></trkpt><trkpt lat="59.3565692659" lon="34.6483116969"><ele>161.63</ele><time>2026-08-22T13:04:55Z</time></trkpt><trkpt lat="59.3564921524" lon="34.6484334022"><ele>161.38</ele><time>2026-08-22T13:05:06Z</time></trkpt><trkpt lat="59.3564108480" lon="34.6485337336"><ele>160.19</ele><time>2026-08-22T13:05:18Z</time></trkpt><trkpt lat="59.3562957644" lon="34.6486289520"><ele>159.05</ele><time>2026-08-22T13:05:35Z</time></trkpt><trkpt lat="59.3561957683" lon="34.6486692689"><ele>158.63</ele><time>2026-08-22T13:05:48Z</time></trkpt><trkpt lat="59.3560733087" lon="34.6487872023"><ele>158.00</ele><time>2026-08-22T13:06:03Z</time></trkpt><trkpt lat="59.3560311478" lon="34.6488358174"><ele>157.55</ele><time>2026-08-22T13:06:08Z</time></trkpt><trkpt lat="59.3559710495" lon="34.6490393300"><ele>155.07</ele><time>2026-08-22T13:06:21Z</time></trkpt><trkpt lat="59.3559272122" lon="34.6491868515"><ele>154.60</ele><time>2026-08-22T13:06:32Z</time></trkpt><trkpt lat="59.3558636773" lon="34.6493561659"><ele>154.67</ele><time>2026-08-22T13:06:45Z</time></trkpt><trkpt lat="59.3558107037" lon="34.6494630352"><ele>155.04</ele><time>2026-08-22T13:06:55Z</time></trkpt><trkpt lat="59.3557369430" lon="34.6496178489"><ele>156.13</ele><time>2026-08-22T13:07:08Z</time></trkpt><trkpt lat="59.3556611706" lon="34.6497000754"><ele>156.63</ele><time>2026-08-22T13:07:22Z</time></trkpt><trkpt lat="59.3556101248" lon="34.6495762747"><ele>158.03</ele><time>2026-08-22T13:07:35Z</time></trkpt><trkpt lat="59.3554837257" lon="34.6495172661"><ele>159.24</ele><time>2026-08-22T13:07:51Z</time></trkpt><trkpt lat="59.3553553149" lon="34.6495942120"><ele>158.31</ele><time>2026-08-22T13:08:07Z</time></trkpt><trkpt lat="59.3552506249" lon="34.6496667992"><ele>157.15</ele><time>2026-08-22T13:08:21Z</time></trkpt><trkpt lat="59.3551596813" lon="34.6495999955"><ele>157.80</ele><time>2026-08-22T13:08:32Z</time></trkpt><trkpt lat="59.3550482858" lon="34.6495560743"><ele>157.91</ele><time>2026-08-22T13:08:46Z</time></trkpt><trkpt lat="59.3549366388" lon="34.6495642047"><ele>159.09</ele><time>2026-08-22T13:08:59Z</time></trkpt><trkpt lat="59.3548370618" lon="34.6495690662"><ele>160.82</ele><time>2026-08-22T13:09:12Z</time></trkpt><trkpt lat="59.3547542486" lon="34.6494460199"><ele>160.76</ele><time>2026-08-22T13:09:25Z</time></trkpt><trkpt lat="59.3546839245" lon="34.6493493766"><ele>160.90</ele><time>2026-08-22T13:09:35Z</time></trkpt><trkpt lat="59.3546123430" lon="34.6491715126"><ele>161.86</ele><time>2026-08-22T13:09:48Z</time></trkpt><trkpt lat="59.3545921426" lon="34.6491125040"><ele>162.43</ele><time>2026-08-22T13:09:52Z</time></trkpt><trkpt lat="59.3545152806" lon="34.6489509009"><ele>163.19</ele><time>2026-08-22T13:10:05Z</time></trkpt><trkpt lat="59.3544929009" lon="34.6488431934"><ele>163.97</ele><time>2026-08-22T13:10:16Z</time></trkpt><trkpt lat="59.3544942420" lon="34.6487979311"><ele>164.32</ele><time>2026-08-22T13:10:26Z</time></trkpt><trkpt lat="59.3545231596" lon="34.6487723663"><ele>164.07</ele><time>2026-08-22T13:10:32Z</time></trkpt><trkpt lat="59.3546166178" lon="34.6486193128"><ele>162.95</ele><time>2026-08-22T13:10:46Z</time></trkpt><trkpt lat="59.3547061365" lon="34.6485485695"><ele>161.38</ele><time>2026-08-22T13:10:59Z</time></trkpt><trkpt lat="59.3546696752" lon="34.6485078335"><ele>163.64</ele><time>2026-08-22T13:11:12Z</time></trkpt><trkpt lat="59.3546400871" lon="34.6484868787"><ele>164.23</ele><time>2026-08-22T13:11:23Z</time></trkpt><trkpt lat="59.3546361476" lon="34.6484895609"><ele>164.72</ele><time>2026-08-22T13:11:35Z</time></trkpt><trkpt lat="59.3546193838" lon="34.6485268604"><ele>166.75</ele><time>2026-08-22T13:11:55Z</time></trkpt><trkpt lat="59.3546294421" lon="34.6485421155"><ele>167.75</ele><time>2026-08-22T13:12:13Z</time></trkpt><trkpt lat="59.3545939028" lon="34.6484733839"><ele>168.40</ele><time>2026-08-22T13:12:39Z</time></trkpt><trkpt lat="59.3545854371" lon="34.6484935004"><ele>168.87</ele><time>2026-08-22T13:13:01Z</time></trkpt><trkpt lat="59.3546107505" lon="34.6485527605"><ele>169.09</ele><time>2026-08-22T13:13:18Z</time></trkpt><trkpt lat="59.3545960821" lon="34.6485443786"><ele>169.25</ele><time>2026-08-22T13:13:33Z</time></trkpt><trkpt lat="59.3545141071" lon="34.6484538540"><ele>168.75</ele><time>2026-08-22T13:13:46Z</time></trkpt><trkpt lat="59.3544350658" lon="34.6484148782"><ele>167.90</ele><time>2026-08-22T13:14:01Z</time></trkpt><trkpt lat="59.3543323874" lon="34.6482655127"><ele>167.62</ele><time>2026-08-22T13:14:15Z</time></trkpt><trkpt lat="59.3542589620" lon="34.6481641755"><ele>167.85</ele><time>2026-08-22T13:14:30Z</time></trkpt><trkpt lat="59.3541702814" lon="34.6481037419"><ele>169.33</ele><time>2026-08-22T13:14:47Z</time></trkpt><trkpt lat="59.3541605584" lon="34.6482763253"><ele>170.01</ele><time>2026-08-22T13:15:03Z</time></trkpt><trkpt lat="59.3541052379" lon="34.6485633217"><ele>166.94</ele><time>2026-08-22T13:15:19Z</time></trkpt><trkpt lat="59.3540290464" lon="34.6487746295"><ele>166.25</ele><time>2026-08-22T13:15:33Z</time></trkpt><trkpt lat="59.3539262842" lon="34.6489624679"><ele>166.19</ele><time>2026-08-22T13:15:44Z</time></trkpt><trkpt lat="59.3538555410" lon="34.6491869353"><ele>165.89</ele><time>2026-08-22T13:15:56Z</time></trkpt><trkpt lat="59.3538009748" lon="34.6494010929"><ele>165.51</ele><time>2026-08-22T13:16:07Z</time></trkpt><trkpt lat="59.3537615798" lon="34.6496333554"><ele>164.19</ele><time>2026-08-22T13:16:20Z</time></trkpt><trkpt lat="59.3537203409" lon="34.6497373749"><ele>161.83</ele><time>2026-08-22T13:16:31Z</time></trkpt><trkpt lat="59.3536197580" lon="34.6498736646"><ele>161.62</ele><time>2026-08-22T13:16:47Z</time></trkpt><trkpt lat="59.3535907567" lon="34.6501073521"><ele>160.14</ele><time>2026-08-22T13:17:04Z</time></trkpt><trkpt lat="59.3536505196" lon="34.6503751539"><ele>158.19</ele><time>2026-08-22T13:17:19Z</time></trkpt><trkpt lat="59.3536299001" lon="34.6504752338"><ele>158.67</ele><time>2026-08-22T13:17:27Z</time></trkpt><trkpt lat="59.3535934389" lon="34.6506355796"><ele>160.12</ele><time>2026-08-22T13:17:42Z</time></trkpt><trkpt lat="59.3536050059" lon="34.6505287103"><ele>162.62</ele><time>2026-08-22T13:17:57Z</time></trkpt><trkpt lat="59.3536184169" lon="34.6504034009"><ele>164.20</ele><time>2026-08-22T13:18:11Z</time></trkpt><trkpt lat="59.3535417225" lon="34.6505053248"><ele>164.98</ele><time>2026-08-22T13:18:28Z</time></trkpt><trkpt lat="59.3534620944" lon="34.6505585499"><ele>164.91</ele><time>2026-08-22T13:18:44Z</time></trkpt><trkpt lat="59.3533652835" lon="34.6506409440"><ele>164.91</ele><time>2026-08-22T13:18:55Z</time></trkpt><trkpt lat="59.3533500284" lon="34.6506703645"><ele>164.79</ele><time>2026-08-22T13:18:58Z</time></trkpt><trkpt lat="59.3533487711" lon="34.6508231666"><ele>165.70</ele><time>2026-08-22T13:19:11Z</time></trkpt><trkpt lat="59.3532937020" lon="34.6509164572"><ele>166.82</ele><time>2026-08-22T13:19:25Z</time></trkpt><trkpt lat="59.3532285746" lon="34.6510490589"><ele>167.43</ele><time>2026-08-22T13:19:40Z</time></trkpt><trkpt lat="59.3531904370" lon="34.6510031261"><ele>167.70</ele><time>2026-08-22T13:19:52Z</time></trkpt><trkpt lat="59.3531015050" lon="34.6509809978"><ele>167.93</ele><time>2026-08-22T13:20:07Z</time></trkpt><trkpt lat="59.3529860023" lon="34.6508105937"><ele>166.38</ele><time>2026-08-22T13:20:22Z</time></trkpt><trkpt lat="59.3529636227" lon="34.6505752299"><ele>163.97</ele><time>2026-08-22T13:20:37Z</time></trkpt><trkpt lat="59.3529593479" lon="34.6503750701"><ele>161.20</ele><time>2026-08-22T13:20:49Z</time></trkpt><trkpt lat="59.3529500440" lon="34.6501713898"><ele>159.44</ele><time>2026-08-22T13:21:03Z</time></trkpt><trkpt lat="59.3529781234" lon="34.6501022391"><ele>157.73</ele><time>2026-08-22T13:21:12Z</time></trkpt><trkpt lat="59.3531238008" lon="34.6498980559"><ele>153.85</ele><time>2026-08-22T13:21:34Z</time></trkpt><trkpt lat="59.3531473540" lon="34.6496507898"><ele>153.49</ele><time>2026-08-22T13:21:48Z</time></trkpt><trkpt lat="59.3530737609" lon="34.6495248098"><ele>154.00</ele><time>2026-08-22T13:22:01Z</time></trkpt><trkpt lat="59.3530480284" lon="34.6494072955"><ele>154.65</ele><time>2026-08-22T13:22:14Z</time></trkpt><trkpt lat="59.3530077953" lon="34.6493335348"><ele>154.52</ele><time>2026-08-22T13:22:28Z</time></trkpt><trkpt lat="59.3528988305" lon="34.6491910424"><ele>153.86</ele><time>2026-08-22T13:22:43Z</time></trkpt><trkpt lat="59.3528432585" lon="34.6491009369"><ele>155.04</ele><time>2026-08-22T13:22:56Z</time></trkpt><trkpt lat="59.3527967390" lon="34.6490190458"><ele>155.92</ele><time>2026-08-22T13:23:11Z</time></trkpt><trkpt lat="59.3527767062" lon="34.6489612944"><ele>158.07</ele><time>2026-08-22T13:23:25Z</time></trkpt><trkpt lat="59.3527079746" lon="34.6489642281"><ele>160.40</ele><time>2026-08-22T13:23:38Z</time></trkpt><trkpt lat="59.3526555877" lon="34.6490399167"><ele>161.97</ele><time>2026-08-22T13:23:51Z</time></trkpt><trkpt lat="59.3525674101" lon="34.6492056269"><ele>162.20</ele><time>2026-08-22T13:24:05Z</time></trkpt><trkpt lat="59.3525718525" lon="34.6494253166"><ele>163.07</ele><time>2026-08-22T13:24:20Z</time></trkpt><trkpt lat="59.3525742833" lon="34.6495743468"><ele>163.77</ele><time>2026-08-22T13:24:35Z</time></trkpt><trkpt lat="59.3524873629" lon="34.6497676335"><ele>163.77</ele><time>2026-08-22T13:24:51Z</time></trkpt><trkpt lat="59.3523787335" lon="34.6499005705"><ele>163.02</ele><time>2026-08-22T13:25:08Z</time></trkpt><trkpt lat="59.3522820063" lon="34.6497334354"><ele>162.35</ele><time>2026-08-22T13:25:23Z</time></trkpt><trkpt lat="59.3522258475" lon="34.6494958922"><ele>161.07</ele><time>2026-08-22T13:25:38Z</time></trkpt><trkpt lat="59.3521395978" lon="34.6494306810"><ele>159.69</ele><time>2026-08-22T13:25:54Z</time></trkpt><trkpt lat="59.3521122728" lon="34.6493969858"><ele>159.30</ele><time>2026-08-22T13:26:05Z</time></trkpt><trkpt lat="59.3520371709" lon="34.6493872628"><ele>160.27</ele><time>2026-08-22T13:26:12Z</time></trkpt><trkpt lat="59.3520255201" lon="34.6493883524"><ele>160.67</ele><time>2026-08-22T13:26:14Z</time></trkpt><trkpt lat="59.3519530166" lon="34.6494881809"><ele>162.99</ele><time>2026-08-22T13:26:31Z</time></trkpt><trkpt lat="59.3517873064" lon="34.6495550685"><ele>163.81</ele><time>2026-08-22T13:26:49Z</time></trkpt><trkpt lat="59.3517080136" lon="34.6495766100"><ele>164.26</ele><time>2026-08-22T13:26:59Z</time></trkpt><trkpt lat="59.3516319059" lon="34.6496567409"><ele>163.07</ele><time>2026-08-22T13:27:12Z</time></trkpt><trkpt lat="59.3515245337" lon="34.6497616824"><ele>164.06</ele><time>2026-08-22T13:27:25Z</time></trkpt><trkpt lat="59.3514324166" lon="34.6498485189"><ele>161.03</ele><time>2026-08-22T13:27:39Z</time></trkpt><trkpt lat="59.3513320852" lon="34.6497978922"><ele>158.91</ele><time>2026-08-22T13:27:53Z</time></trkpt><trkpt lat="59.3512326758" lon="34.6498559788"><ele>160.76</ele><time>2026-08-22T13:28:07Z</time></trkpt><trkpt lat="59.3511323445" lon="34.6498709824"><ele>160.38</ele><time>2026-08-22T13:28:19Z</time></trkpt><trkpt lat="59.3510740902" lon="34.6498656180"><ele>161.53</ele><time>2026-08-22T13:28:30Z</time></trkpt><trkpt lat="59.3510683905" lon="34.6498445794"><ele>162.16</ele><time>2026-08-22T13:28:33Z</time></trkpt><trkpt lat="59.3510026764" lon="34.6496270690"><ele>164.32</ele><time>2026-08-22T13:28:46Z</time></trkpt><trkpt lat="59.3509541452" lon="34.6495223790"><ele>164.36</ele><time>2026-08-22T13:28:54Z</time></trkpt><trkpt lat="59.3509321846" lon="34.6494511329"><ele>165.15</ele><time>2026-08-22T13:28:59Z</time></trkpt><trkpt lat="59.3508980703" lon="34.6493290085"><ele>165.81</ele><time>2026-08-22T13:29:06Z</time></trkpt><trkpt lat="59.3508782052" lon="34.6491864324"><ele>167.13</ele><time>2026-08-22T13:29:17Z</time></trkpt><trkpt lat="59.3508269917" lon="34.6489980910"><ele>166.39</ele><time>2026-08-22T13:29:28Z</time></trkpt><trkpt lat="59.3508158438" lon="34.6488662437"><ele>166.17</ele><time>2026-08-22T13:29:37Z</time></trkpt><trkpt lat="59.3509075418" lon="34.6486736275"><ele>163.97</ele><time>2026-08-22T13:29:52Z</time></trkpt><trkpt lat="59.3509745970" lon="34.6485473122"><ele>162.35</ele><time>2026-08-22T13:30:06Z</time></trkpt><trkpt lat="59.3510335218" lon="34.6483748965"><ele>161.98</ele><time>2026-08-22T13:30:16Z</time></trkpt><trkpt lat="59.3511064444" lon="34.6483685263"><ele>163.13</ele><time>2026-08-22T13:30:27Z</time></trkpt><trkpt lat="59.3511487730" lon="34.6483054105"><ele>164.26</ele><time>2026-08-22T13:30:33Z</time></trkpt><trkpt lat="59.3512561452" lon="34.6482177358"><ele>167.21</ele><time>2026-08-22T13:30:44Z</time></trkpt><trkpt lat="59.3513210211" lon="34.6481878124"><ele>168.66</ele><time>2026-08-22T13:30:54Z</time></trkpt><trkpt lat="59.3513527885" lon="34.6481938474"><ele>169.23</ele><time>2026-08-22T13:30:57Z</time></trkpt><trkpt lat="59.3513934407" lon="34.6482479945"><ele>169.32</ele><time>2026-08-22T13:31:03Z</time></trkpt><trkpt lat="59.3514227774" lon="34.6482389420"><ele>169.75</ele><time>2026-08-22T13:31:06Z</time></trkpt><trkpt lat="59.3515350949" lon="34.6483407822"><ele>170.83</ele><time>2026-08-22T13:31:19Z</time></trkpt><trkpt lat="59.3515568040" lon="34.6482852940"><ele>171.44</ele><time>2026-08-22T13:31:29Z</time></trkpt><trkpt lat="59.3515641801" lon="34.6481815260"><ele>171.76</ele><time>2026-08-22T13:31:35Z</time></trkpt><trkpt lat="59.3515780941" lon="34.6481281333"><ele>171.69</ele><time>2026-08-22T13:31:38Z</time></trkpt><trkpt lat="59.3516067602" lon="34.6480870619"><ele>171.70</ele><time>2026-08-22T13:31:42Z</time></trkpt><trkpt lat="59.3516814429" lon="34.6480925940"><ele>171.93</ele><time>2026-08-22T13:31:53Z</time></trkpt><trkpt lat="59.3517433852" lon="34.6479616687"><ele>172.86</ele><time>2026-08-22T13:32:06Z</time></trkpt><trkpt lat="59.3517432176" lon="34.6479731519"><ele>172.78</ele><time>2026-08-22T13:32:19Z</time></trkpt><trkpt lat="59.3517201673" lon="34.6479909215"><ele>172.66</ele><time>2026-08-22T13:32:38Z</time></trkpt><trkpt lat="59.3517130427" lon="34.6479844674"><ele>172.31</ele><time>2026-08-22T13:32:54Z</time></trkpt><trkpt lat="59.3517276272" lon="34.6479139756"><ele>171.64</ele><time>2026-08-22T13:33:07Z</time></trkpt><trkpt lat="59.3517209217" lon="34.6478504408"><ele>171.20</ele><time>2026-08-22T13:33:22Z</time></trkpt><trkpt lat="59.3517069239" lon="34.6477941982"><ele>170.50</ele><time>2026-08-22T13:33:33Z</time></trkpt><trkpt lat="59.3516805209" lon="34.6477029193"><ele>169.61</ele><time>2026-08-22T13:33:41Z</time></trkpt><trkpt lat="59.3516681995" lon="34.6476475149"><ele>169.36</ele><time>2026-08-22T13:33:44Z</time></trkpt><trkpt lat="59.3517062534" lon="34.6474632807"><ele>168.63</ele><time>2026-08-22T13:33:55Z</time></trkpt><trkpt lat="59.3517215922" lon="34.6473646257"><ele>167.19</ele><time>2026-08-22T13:34:06Z</time></trkpt><trkpt lat="59.3517978676" lon="34.6472386457"><ele>166.16</ele><time>2026-08-22T13:34:21Z</time></trkpt><trkpt lat="59.3517543655" lon="34.6472519729"><ele>167.18</ele><time>2026-08-22T13:34:28Z</time></trkpt><trkpt lat="59.3517332431" lon="34.6472732630"><ele>167.11</ele><time>2026-08-22T13:34:30Z</time></trkpt><trkpt lat="59.3516711332" lon="34.6473757736"><ele>166.72</ele><time>2026-08-22T13:34:41Z</time></trkpt><trkpt lat="59.3516650982" lon="34.6473603509"><ele>167.28</ele><time>2026-08-22T13:34:57Z</time></trkpt><trkpt lat="59.3515740708" lon="34.6473498736"><ele>168.05</ele><time>2026-08-22T13:35:07Z</time></trkpt><trkpt lat="59.3515251204" lon="34.6473837364"><ele>168.32</ele><time>2026-08-22T13:35:14Z</time></trkpt><trkpt lat="59.3514858093" lon="34.6474109776"><ele>167.69</ele><time>2026-08-22T13:35:25Z</time></trkpt><trkpt lat="59.3514192570" lon="34.6474916954"><ele>167.69</ele><time>2026-08-22T13:35:36Z</time></trkpt><trkpt lat="59.3513757549" lon="34.6475398075"><ele>169.56</ele><time>2026-08-22T13:35:42Z</time></trkpt><trkpt lat="59.3512932770" lon="34.6475855727"><ele>170.63</ele><time>2026-08-22T13:35:53Z</time></trkpt><trkpt lat="59.3512183428" lon="34.6476761810"><ele>170.47</ele><time>2026-08-22T13:36:05Z</time></trkpt><trkpt lat="59.3512007408" lon="34.6477019135"><ele>170.48</ele><time>2026-08-22T13:36:07Z</time></trkpt><trkpt lat="59.3511127308" lon="34.6477891691"><ele>170.71</ele><time>2026-08-22T13:36:19Z</time></trkpt><trkpt lat="59.3510828074" lon="34.6478177514"><ele>170.39</ele><time>2026-08-22T13:36:22Z</time></trkpt><trkpt lat="59.3510260619" lon="34.6479460783"><ele>168.88</ele><time>2026-08-22T13:36:31Z</time></trkpt><trkpt lat="59.3509941269" lon="34.6481226850"><ele>168.48</ele><time>2026-08-22T13:36:43Z</time></trkpt><trkpt lat="59.3509563245" lon="34.6482521016"><ele>168.22</ele><time>2026-08-22T13:36:56Z</time></trkpt><trkpt lat="59.3509082124" lon="34.6483516786"><ele>167.30</ele><time>2026-08-22T13:37:09Z</time></trkpt><trkpt lat="59.3508674763" lon="34.6484572906"><ele>166.71</ele><time>2026-08-22T13:37:22Z</time></trkpt><trkpt lat="59.3506897800" lon="34.6483976953"><ele>165.39</ele><time>2026-08-22T13:37:41Z</time></trkpt><trkpt lat="59.3506415002" lon="34.6482613217"><ele>164.90</ele><time>2026-08-22T13:37:48Z</time></trkpt><trkpt lat="59.3505841680" lon="34.6481181588"><ele>164.27</ele><time>2026-08-22T13:37:55Z</time></trkpt><trkpt lat="59.3504836690" lon="34.6479311585"><ele>163.65</ele><time>2026-08-22T13:38:07Z</time></trkpt><trkpt lat="59.3504519854" lon="34.6477100439"><ele>163.01</ele><time>2026-08-22T13:38:20Z</time></trkpt><trkpt lat="59.3504511472" lon="34.6476869099"><ele>162.96</ele><time>2026-08-22T13:38:21Z</time></trkpt><trkpt lat="59.3504233193" lon="34.6475020051"><ele>161.46</ele><time>2026-08-22T13:38:32Z</time></trkpt><trkpt lat="59.3503803201" lon="34.6472612768"><ele>159.61</ele><time>2026-08-22T13:38:45Z</time></trkpt><trkpt lat="59.3503779732" lon="34.6472452674"><ele>159.43</ele><time>2026-08-22T13:38:46Z</time></trkpt><trkpt lat="59.3503420148" lon="34.6470549144"><ele>158.58</ele><time>2026-08-22T13:38:57Z</time></trkpt><trkpt lat="59.3502867781" lon="34.6468669083"><ele>158.08</ele><time>2026-08-22T13:39:14Z</time></trkpt><trkpt lat="59.3502154481" lon="34.6468202211"><ele>156.84</ele><time>2026-08-22T13:39:25Z</time></trkpt><trkpt lat="59.3501208164" lon="34.6468673274"><ele>155.19</ele><time>2026-08-22T13:39:38Z</time></trkpt><trkpt lat="59.3500345666" lon="34.6468444448"><ele>155.83</ele><time>2026-08-22T13:39:50Z</time></trkpt><trkpt lat="59.3499323074" lon="34.6469903737"><ele>156.12</ele><time>2026-08-22T13:40:03Z</time></trkpt><trkpt lat="59.3498524278" lon="34.6470841672"><ele>155.38</ele><time>2026-08-22T13:40:15Z</time></trkpt><trkpt lat="59.3498369213" lon="34.6471062116"><ele>155.55</ele><time>2026-08-22T13:40:17Z</time></trkpt><trkpt lat="59.3497238494" lon="34.6470943093"><ele>157.28</ele><time>2026-08-22T13:40:39Z</time></trkpt><trkpt lat="59.3495521881" lon="34.6470758691"><ele>158.54</ele><time>2026-08-22T13:40:50Z</time></trkpt><trkpt lat="59.3494640104" lon="34.6470739413"><ele>159.50</ele><time>2026-08-22T13:40:59Z</time></trkpt><trkpt lat="59.3493758328" lon="34.6469819918"><ele>159.15</ele><time>2026-08-22T13:41:09Z</time></trkpt><trkpt lat="59.3492734898" lon="34.6469036210"><ele>160.31</ele><time>2026-08-22T13:41:16Z</time></trkpt><trkpt lat="59.3491695542" lon="34.6467773896"><ele>162.21</ele><time>2026-08-22T13:41:29Z</time></trkpt><trkpt lat="59.3490438256" lon="34.6466653235"><ele>162.98</ele><time>2026-08-22T13:41:41Z</time></trkpt><trkpt lat="59.3489259761" lon="34.6465863660"><ele>162.82</ele><time>2026-08-22T13:41:54Z</time></trkpt><trkpt lat="59.3487715814" lon="34.6466069017"><ele>163.32</ele><time>2026-08-22T13:42:08Z</time></trkpt><trkpt lat="59.3486876786" lon="34.6466524992"><ele>162.42</ele><time>2026-08-22T13:42:19Z</time></trkpt><trkpt lat="59.3484778795" lon="34.6467930637"><ele>163.86</ele><time>2026-08-22T13:42:32Z</time></trkpt><trkpt lat="59.3482797313" lon="34.6466973424"><ele>163.66</ele><time>2026-08-22T13:42:51Z</time></trkpt><trkpt lat="59.3481048010" lon="34.6466266830"><ele>162.95</ele><time>2026-08-22T13:43:08Z</time></trkpt><trkpt lat="59.3479809165" lon="34.6464633197"><ele>161.32</ele><time>2026-08-22T13:43:21Z</time></trkpt><trkpt lat="59.3477948382" lon="34.6462628245"><ele>158.44</ele><time>2026-08-22T13:43:39Z</time></trkpt><trkpt lat="59.3477469776" lon="34.6461939253"><ele>156.89</ele><time>2026-08-22T13:43:46Z</time></trkpt><trkpt lat="59.3476297986" lon="34.6459906641"><ele>154.57</ele><time>2026-08-22T13:43:59Z</time></trkpt><trkpt lat="59.3476086762" lon="34.6459045820"><ele>154.39</ele><time>2026-08-22T13:44:03Z</time></trkpt><trkpt lat="59.3475674372" lon="34.6458402928"><ele>154.65</ele><time>2026-08-22T13:44:06Z</time></trkpt><trkpt lat="59.3475574628" lon="34.6457921807"><ele>154.90</ele><time>2026-08-22T13:44:09Z</time></trkpt><trkpt lat="59.3475480750" lon="34.6458568051"><ele>158.58</ele><time>2026-08-22T13:44:25Z</time></trkpt><trkpt lat="59.3476544414" lon="34.6460603178"><ele>159.98</ele><time>2026-08-22T13:44:43Z</time></trkpt><trkpt lat="59.3477187306" lon="34.6461608168"><ele>160.13</ele><time>2026-08-22T13:44:54Z</time></trkpt><trkpt lat="59.3477759790" lon="34.6461928356"><ele>160.29</ele><time>2026-08-22T13:45:07Z</time></trkpt><trkpt lat="59.3477718718" lon="34.6461845376"><ele>160.63</ele><time>2026-08-22T13:45:11Z</time></trkpt><trkpt lat="59.3477914017" lon="34.6462166402"><ele>161.42</ele><time>2026-08-22T13:45:27Z</time></trkpt><trkpt lat="59.3477587961" lon="34.6462095156"><ele>161.03</ele><time>2026-08-22T13:45:32Z</time></trkpt><trkpt lat="59.3476551957" lon="34.6461003833"><ele>163.71</ele><time>2026-08-22T13:45:51Z</time></trkpt><trkpt lat="59.3476586323" lon="34.6461529378"><ele>167.87</ele><time>2026-08-22T13:46:18Z</time></trkpt><trkpt lat="59.3476238474" lon="34.6460753214"><ele>169.76</ele><time>2026-08-22T13:46:44Z</time></trkpt><trkpt lat="59.3475733045" lon="34.6458987147"><ele>171.17</ele><time>2026-08-22T13:47:00Z</time></trkpt><trkpt lat="59.3475669343" lon="34.6458205115"><ele>172.09</ele><time>2026-08-22T13:47:15Z</time></trkpt><trkpt lat="59.3475845363" lon="34.6458159015"><ele>171.99</ele><time>2026-08-22T13:47:33Z</time></trkpt><trkpt lat="59.3475689460" lon="34.6457154863"><ele>171.30</ele><time>2026-08-22T13:47:45Z</time></trkpt><trkpt lat="59.3475340772" lon="34.6456228662"><ele>170.88</ele><time>2026-08-22T13:47:50Z</time></trkpt><trkpt lat="59.3474659324" lon="34.6454394702"><ele>169.91</ele><time>2026-08-22T13:48:02Z</time></trkpt><trkpt lat="59.3473748211" lon="34.6452252287"><ele>169.14</ele><time>2026-08-22T13:48:14Z</time></trkpt><trkpt lat="59.3472900800" lon="34.6452209540"><ele>168.27</ele><time>2026-08-22T13:48:28Z</time></trkpt><trkpt lat="59.3472267967" lon="34.6452733409"><ele>167.65</ele><time>2026-08-22T13:48:37Z</time></trkpt><trkpt lat="59.3471215200" lon="34.6453504544"><ele>166.43</ele><time>2026-08-22T13:48:54Z</time></trkpt><trkpt lat="59.3471044209" lon="34.6453438327"><ele>165.54</ele><time>2026-08-22T13:49:12Z</time></trkpt><trkpt lat="59.3470340129" lon="34.6454050206"><ele>164.38</ele><time>2026-08-22T13:49:23Z</time></trkpt><trkpt lat="59.3469408061" lon="34.6454688068"><ele>162.77</ele><time>2026-08-22T13:49:36Z</time></trkpt><trkpt lat="59.3468582444" lon="34.6455214452"><ele>163.12</ele><time>2026-08-22T13:49:48Z</time></trkpt><trkpt lat="59.3468115572" lon="34.6455668751"><ele>163.66</ele><time>2026-08-22T13:49:59Z</time></trkpt><trkpt lat="59.3466761056" lon="34.6455620136"><ele>164.19</ele><time>2026-08-22T13:50:19Z</time></trkpt><trkpt lat="59.3465246446" lon="34.6454439964"><ele>164.56</ele><time>2026-08-22T13:50:39Z</time></trkpt><trkpt lat="59.3464603554" lon="34.6454294957"><ele>164.41</ele><time>2026-08-22T13:50:50Z</time></trkpt><trkpt lat="59.3464027718" lon="34.6453983150"><ele>164.22</ele><time>2026-08-22T13:51:03Z</time></trkpt><trkpt lat="59.3463251553" lon="34.6454110555"><ele>164.21</ele><time>2026-08-22T13:51:15Z</time></trkpt><trkpt lat="59.3462427612" lon="34.6454545576"><ele>164.13</ele><time>2026-08-22T13:51:27Z</time></trkpt><trkpt lat="59.3462037854" lon="34.6454667114"><ele>164.01</ele><time>2026-08-22T13:51:37Z</time></trkpt><trkpt lat="59.3461938109" lon="34.6453866642"><ele>163.59</ele><time>2026-08-22T13:51:51Z</time></trkpt><trkpt lat="59.3460923899" lon="34.6454201918"><ele>162.99</ele><time>2026-08-22T13:52:05Z</time></trkpt><trkpt lat="59.3460632209" lon="34.6455164999"><ele>162.88</ele><time>2026-08-22T13:52:17Z</time></trkpt><trkpt lat="59.3460255861" lon="34.6455729101"><ele>162.73</ele><time>2026-08-22T13:52:26Z</time></trkpt><trkpt lat="59.3459695950" lon="34.6457252931"><ele>162.26</ele><time>2026-08-22T13:52:36Z</time></trkpt><trkpt lat="59.3459240813" lon="34.6457743272"><ele>162.09</ele><time>2026-08-22T13:52:43Z</time></trkpt><trkpt lat="59.3458890449" lon="34.6458321624"><ele>162.02</ele><time>2026-08-22T13:52:47Z</time></trkpt><trkpt lat="59.3458490632" lon="34.6458065137"><ele>161.80</ele><time>2026-08-22T13:53:01Z</time></trkpt><trkpt lat="59.3457995262" lon="34.6456892509"><ele>161.96</ele><time>2026-08-22T13:53:11Z</time></trkpt><trkpt lat="59.3458105903" lon="34.6456623450"><ele>162.05</ele><time>2026-08-22T13:53:22Z</time></trkpt><trkpt lat="59.3457745481" lon="34.6455299947"><ele>160.52</ele><time>2026-08-22T13:53:33Z</time></trkpt><trkpt lat="59.3457360752" lon="34.6453772765"><ele>158.41</ele><time>2026-08-22T13:53:45Z</time></trkpt><trkpt lat="59.3456997816" lon="34.6452937927"><ele>157.82</ele><time>2026-08-22T13:53:59Z</time></trkpt><trkpt lat="59.3456345703" lon="34.6451828163"><ele>156.31</ele><time>2026-08-22T13:54:14Z</time></trkpt><trkpt lat="59.3456088379" lon="34.6450880170"><ele>155.68</ele><time>2026-08-22T13:54:26Z</time></trkpt><trkpt lat="59.3456391804" lon="34.6448703390"><ele>154.19</ele><time>2026-08-22T13:54:39Z</time></trkpt><trkpt lat="59.3456951715" lon="34.6446524933"><ele>151.24</ele><time>2026-08-22T13:54:54Z</time></trkpt><trkpt lat="59.3457198981" lon="34.6446127631"><ele>150.69</ele><time>2026-08-22T13:54:58Z</time></trkpt><trkpt lat="59.3457793258" lon="34.6444655769"><ele>149.36</ele><time>2026-08-22T13:55:09Z</time></trkpt><trkpt lat="59.3457799125" lon="34.6441930812"><ele>149.20</ele><time>2026-08-22T13:55:23Z</time></trkpt><trkpt lat="59.3457998615" lon="34.6441284567"><ele>149.32</ele><time>2026-08-22T13:55:34Z</time></trkpt><trkpt lat="59.3458674196" lon="34.6440563723"><ele>149.45</ele><time>2026-08-22T13:55:44Z</time></trkpt><trkpt lat="59.3459067307" lon="34.6439375170"><ele>152.77</ele><time>2026-08-22T13:55:56Z</time></trkpt><trkpt lat="59.3459826708" lon="34.6439262852"><ele>154.26</ele><time>2026-08-22T13:56:11Z</time></trkpt><trkpt lat="59.3460120074" lon="34.6439177357"><ele>154.28</ele><time>2026-08-22T13:56:24Z</time></trkpt><trkpt lat="59.3459933996" lon="34.6439535264"><ele>156.05</ele><time>2026-08-22T13:56:41Z</time></trkpt><trkpt lat="59.3458876200" lon="34.6439915802"><ele>158.67</ele><time>2026-08-22T13:56:51Z</time></trkpt><trkpt lat="59.3457997777" lon="34.6440316457"><ele>159.73</ele><time>2026-08-22T13:57:02Z</time></trkpt><trkpt lat="59.3457364943" lon="34.6439831145"><ele>160.22</ele><time>2026-08-22T13:57:17Z</time></trkpt><trkpt lat="59.3456520885" lon="34.6438904107"><ele>160.62</ele><time>2026-08-22T13:57:31Z</time></trkpt><trkpt lat="59.3455783278" lon="34.6438629180"><ele>161.25</ele><time>2026-08-22T13:57:44Z</time></trkpt><trkpt lat="59.3455299642" lon="34.6438164823"><ele>161.30</ele><time>2026-08-22T13:57:58Z</time></trkpt><trkpt lat="59.3454319797" lon="34.6436076052"><ele>160.28</ele><time>2026-08-22T13:58:14Z</time></trkpt><trkpt lat="59.3453189917" lon="34.6434864029"><ele>159.25</ele><time>2026-08-22T13:58:28Z</time></trkpt><trkpt lat="59.3452920858" lon="34.6433214471"><ele>159.36</ele><time>2026-08-22T13:58:39Z</time></trkpt><trkpt lat="59.3452210072" lon="34.6432843991"><ele>159.01</ele><time>2026-08-22T13:58:49Z</time></trkpt><trkpt lat="59.3452027347" lon="34.6432740893"><ele>159.62</ele><time>2026-08-22T13:58:50Z</time></trkpt><trkpt lat="59.3451919220" lon="34.6432869136"><ele>160.31</ele><time>2026-08-22T13:58:54Z</time></trkpt><trkpt lat="59.3451695424" lon="34.6433410607"><ele>161.64</ele><time>2026-08-22T13:59:01Z</time></trkpt><trkpt lat="59.3451296445" lon="34.6434067748"><ele>163.13</ele><time>2026-08-22T13:59:08Z</time></trkpt><trkpt lat="59.3450423051" lon="34.6435843036"><ele>165.35</ele><time>2026-08-22T13:59:22Z</time></trkpt><trkpt lat="59.3449701369" lon="34.6437751595"><ele>164.63</ele><time>2026-08-22T13:59:36Z</time></trkpt><trkpt lat="59.3448840547" lon="34.6437862236"><ele>163.97</ele><time>2026-08-22T13:59:51Z</time></trkpt><trkpt lat="59.3448836356" lon="34.6438007243"><ele>163.89</ele><time>2026-08-22T13:59:53Z</time></trkpt><trkpt lat="59.3448843900" lon="34.6440766566"><ele>164.97</ele><time>2026-08-22T14:00:09Z</time></trkpt><trkpt lat="59.3448509462" lon="34.6442375891"><ele>166.26</ele><time>2026-08-22T14:00:20Z</time></trkpt><trkpt lat="59.3448320031" lon="34.6444507409"><ele>168.03</ele><time>2026-08-22T14:00:33Z</time></trkpt><trkpt lat="59.3448703084" lon="34.6447044611"><ele>168.76</ele><time>2026-08-22T14:00:48Z</time></trkpt><trkpt lat="59.3449228629" lon="34.6449523978"><ele>168.73</ele><time>2026-08-22T14:01:05Z</time></trkpt><trkpt lat="59.3449244555" lon="34.6452079620"><ele>166.42</ele><time>2026-08-22T14:01:22Z</time></trkpt><trkpt lat="59.3448976334" lon="34.6453332715"><ele>164.71</ele><time>2026-08-22T14:01:32Z</time></trkpt><trkpt lat="59.3448597472" lon="34.6454817988"><ele>163.08</ele><time>2026-08-22T14:01:44Z</time></trkpt><trkpt lat="59.3448487669" lon="34.6456685476"><ele>161.87</ele><time>2026-08-22T14:01:57Z</time></trkpt><trkpt lat="59.3448334280" lon="34.6459531132"><ele>160.72</ele><time>2026-08-22T14:02:14Z</time></trkpt><trkpt lat="59.3447434902" lon="34.6462169755"><ele>160.74</ele><time>2026-08-22T14:02:28Z</time></trkpt><trkpt lat="59.3447232060" lon="34.6462702844"><ele>160.92</ele><time>2026-08-22T14:02:32Z</time></trkpt><trkpt lat="59.3446489424" lon="34.6463383455"><ele>160.56</ele><time>2026-08-22T14:02:43Z</time></trkpt><trkpt lat="59.3445895985" lon="34.6462163888"><ele>159.84</ele><time>2026-08-22T14:02:59Z</time></trkpt><trkpt lat="59.3445994891" lon="34.6462322306"><ele>160.42</ele><time>2026-08-22T14:03:22Z</time></trkpt><trkpt lat="59.3445975613" lon="34.6462503355"><ele>160.83</ele><time>2026-08-22T14:03:42Z</time></trkpt><trkpt lat="59.3446465116" lon="34.6463274490"><ele>160.25</ele><time>2026-08-22T14:03:53Z</time></trkpt><trkpt lat="59.3446550611" lon="34.6463800035"><ele>160.23</ele><time>2026-08-22T14:03:57Z</time></trkpt><trkpt lat="59.3446424883" lon="34.6464979369"><ele>161.61</ele><time>2026-08-22T14:04:04Z</time></trkpt><trkpt lat="59.3445389718" lon="34.6466661617"><ele>160.48</ele><time>2026-08-22T14:04:17Z</time></trkpt><trkpt lat="59.3444444239" lon="34.6469278447"><ele>158.62</ele><time>2026-08-22T14:04:34Z</time></trkpt><trkpt lat="59.3444365449" lon="34.6470131725"><ele>158.22</ele><time>2026-08-22T14:04:46Z</time></trkpt><trkpt lat="59.3445054442" lon="34.6470407490"><ele>157.32</ele><time>2026-08-22T14:04:58Z</time></trkpt><trkpt lat="59.3444610201" lon="34.6469187923"><ele>157.32</ele><time>2026-08-22T14:05:12Z</time></trkpt><trkpt lat="59.3443865888" lon="34.6469457820"><ele>156.60</ele><time>2026-08-22T14:05:25Z</time></trkpt><trkpt lat="59.3443202879" lon="34.6470975783"><ele>154.64</ele><time>2026-08-22T14:05:38Z</time></trkpt><trkpt lat="59.3442124967" lon="34.6472229715"><ele>154.26</ele><time>2026-08-22T14:05:50Z</time></trkpt><trkpt lat="59.3441403285" lon="34.6474379674"><ele>152.92</ele><time>2026-08-22T14:06:03Z</time></trkpt><trkpt lat="59.3439960759" lon="34.6477213595"><ele>152.49</ele><time>2026-08-22T14:06:19Z</time></trkpt><trkpt lat="59.3439645600" lon="34.6477787755"><ele>152.16</ele><time>2026-08-22T14:06:22Z</time></trkpt><trkpt lat="59.3438808247" lon="34.6479861438"><ele>152.42</ele><time>2026-08-22T14:06:33Z</time></trkpt><trkpt lat="59.3438055553" lon="34.6481433883"><ele>154.10</ele><time>2026-08-22T14:06:43Z</time></trkpt><trkpt lat="59.3437135220" lon="34.6483249404"><ele>154.63</ele><time>2026-08-22T14:06:56Z</time></trkpt><trkpt lat="59.3436672539" lon="34.6484591346"><ele>154.34</ele><time>2026-08-22T14:07:07Z</time></trkpt><trkpt lat="59.3436001986" lon="34.6488074027"><ele>154.10</ele><time>2026-08-22T14:07:20Z</time></trkpt><trkpt lat="59.3435528409" lon="34.6489950735"><ele>155.11</ele><time>2026-08-22T14:07:31Z</time></trkpt><trkpt lat="59.3435173854" lon="34.6492689941"><ele>156.51</ele><time>2026-08-22T14:07:48Z</time></trkpt><trkpt lat="59.3434919044" lon="34.6494843252"><ele>156.36</ele><time>2026-08-22T14:08:02Z</time></trkpt><trkpt lat="59.3435059022" lon="34.6495093033"><ele>155.38</ele><time>2026-08-22T14:08:23Z</time></trkpt><trkpt lat="59.3435132783" lon="34.6495326050"><ele>157.34</ele><time>2026-08-22T14:08:44Z</time></trkpt><trkpt lat="59.3434647471" lon="34.6495770290"><ele>160.07</ele><time>2026-08-22T14:08:57Z</time></trkpt><trkpt lat="59.3434502464" lon="34.6497297473"><ele>160.97</ele><time>2026-08-22T14:09:11Z</time></trkpt><trkpt lat="59.3434295431" lon="34.6498977207"><ele>160.65</ele><time>2026-08-22T14:09:22Z</time></trkpt><trkpt lat="59.3433742225" lon="34.6501044184"><ele>161.33</ele><time>2026-08-22T14:09:33Z</time></trkpt><trkpt lat="59.3433655892" lon="34.6504473221"><ele>161.83</ele><time>2026-08-22T14:09:47Z</time></trkpt><trkpt lat="59.3432976957" lon="34.6506344900"><ele>162.45</ele><time>2026-08-22T14:09:58Z</time></trkpt><trkpt lat="59.3431992084" lon="34.6508398466"><ele>162.29</ele><time>2026-08-22T14:10:14Z</time></trkpt><trkpt lat="59.3431119528" lon="34.6509907208"><ele>161.71</ele><time>2026-08-22T14:10:26Z</time></trkpt><trkpt lat="59.3430103641" lon="34.6511554252"><ele>161.34</ele><time>2026-08-22T14:10:37Z</time></trkpt><trkpt lat="59.3429473322" lon="34.6512345504"><ele>162.19</ele><time>2026-08-22T14:10:52Z</time></trkpt><trkpt lat="59.3429898284" lon="34.6511652321"><ele>163.95</ele><time>2026-08-22T14:11:09Z</time></trkpt><trkpt lat="59.3430658523" lon="34.6510226559"><ele>162.66</ele><time>2026-08-22T14:11:19Z</time></trkpt><trkpt lat="59.3431683630" lon="34.6508411039"><ele>159.72</ele><time>2026-08-22T14:11:33Z</time></trkpt><trkpt lat="59.3432853743" lon="34.6506347414"><ele>155.26</ele><time>2026-08-22T14:11:46Z</time></trkpt><trkpt lat="59.3433485739" lon="34.6504236013"><ele>151.28</ele><time>2026-08-22T14:11:58Z</time></trkpt><trkpt lat="59.3433910701" lon="34.6501923446"><ele>146.64</ele><time>2026-08-22T14:12:11Z</time></trkpt><trkpt lat="59.3434609752" lon="34.6499028336"><ele>141.33</ele><time>2026-08-22T14:12:30Z</time></trkpt><trkpt lat="59.3435143679" lon="34.6497676335"><ele>138.08</ele><time>2026-08-22T14:12:40Z</time></trkpt><trkpt lat="59.3435554393" lon="34.6495802142"><ele>136.70</ele><time>2026-08-22T14:12:54Z</time></trkpt><trkpt lat="59.3435467221" lon="34.6495072916"><ele>139.04</ele><time>2026-08-22T14:13:07Z</time></trkpt><trkpt lat="59.3435477279" lon="34.6494879294"><ele>143.19</ele><time>2026-08-22T14:13:27Z</time></trkpt><trkpt lat="59.3435525056" lon="34.6494790446"><ele>144.04</ele><time>2026-08-22T14:13:35Z</time></trkpt><trkpt lat="59.3435472250" lon="34.6494246460"><ele>146.12</ele><time>2026-08-22T14:13:38Z</time></trkpt><trkpt lat="59.3435691856" lon="34.6493978240"><ele>148.71</ele><time>2026-08-22T14:13:44Z</time></trkpt><trkpt lat="59.3435323052" lon="34.6493181121"><ele>151.69</ele><time>2026-08-22T14:14:00Z</time></trkpt><trkpt lat="59.3435395136" lon="34.6491728537"><ele>152.00</ele><time>2026-08-22T14:14:10Z</time></trkpt><trkpt lat="59.3435570318" lon="34.6489222348"><ele>152.25</ele><time>2026-08-22T14:14:27Z</time></trkpt><trkpt lat="59.3435473088" lon="34.6489322092"><ele>153.51</ele><time>2026-08-22T14:14:42Z</time></trkpt><trkpt lat="59.3435342330" lon="34.6490800660"><ele>155.53</ele><time>2026-08-22T14:14:55Z</time></trkpt><trkpt lat="59.3434962630" lon="34.6493183635"><ele>158.70</ele><time>2026-08-22T14:15:11Z</time></trkpt><trkpt lat="59.3435562775" lon="34.6493684035"><ele>159.19</ele><time>2026-08-22T14:15:27Z</time></trkpt><trkpt lat="59.3435997795" lon="34.6494445112"><ele>158.64</ele><time>2026-08-22T14:15:40Z</time></trkpt><trkpt lat="59.3436127715" lon="34.6494293399"><ele>159.74</ele><time>2026-08-22T14:15:51Z</time></trkpt><trkpt lat="59.3435639888" lon="34.6493722592"><ele>159.78</ele><time>2026-08-22T14:16:04Z</time></trkpt><trkpt lat="59.3434761465" lon="34.6493861731"><ele>160.27</ele><time>2026-08-22T14:16:23Z</time></trkpt><trkpt lat="59.3434872944" lon="34.6493959799"><ele>162.26</ele><time>2026-08-22T14:16:45Z</time></trkpt><trkpt lat="59.3434116058" lon="34.6494592633"><ele>167.29</ele><time>2026-08-22T14:17:10Z</time></trkpt><trkpt lat="59.3434123602" lon="34.6494526416"><ele>168.32</ele><time>2026-08-22T14:17:32Z</time></trkpt><trkpt lat="59.3435012922" lon="34.6495100576"><ele>170.92</ele><time>2026-08-22T14:17:50Z</time></trkpt><trkpt lat="59.3434727937" lon="34.6493721753"><ele>170.92</ele><time>2026-08-22T14:18:41Z</time></trkpt><trkpt lat="59.3435023818" lon="34.6492311079"><ele>170.26</ele><time>2026-08-22T14:19:18Z</time></trkpt><trkpt lat="59.3435142003" lon="34.6490653977"><ele>169.07</ele><time>2026-08-22T14:19:30Z</time></trkpt><trkpt lat="59.3435212411" lon="34.6489260066"><ele>166.28</ele><time>2026-08-22T14:19:39Z</time></trkpt><trkpt lat="59.3435691018" lon="34.6487754676"><ele>161.52</ele><time>2026-08-22T14:19:49Z</time></trkpt><trkpt lat="59.3435742147" lon="34.6487561055"><ele>161.06</ele><time>2026-08-22T14:19:50Z</time></trkpt><trkpt lat="59.3436488975" lon="34.6485503297"><ele>152.79</ele><time>2026-08-22T14:20:04Z</time></trkpt><trkpt lat="59.3437317107" lon="34.6483580489"><ele>146.53</ele><time>2026-08-22T14:20:15Z</time></trkpt><trkpt lat="59.3437438644" lon="34.6483184863"><ele>144.66</ele><time>2026-08-22T14:20:19Z</time></trkpt><trkpt lat="59.3437519949" lon="34.6482764930"><ele>143.41</ele><time>2026-08-22T14:20:21Z</time></trkpt><trkpt lat="59.3437721953" lon="34.6481535304"><ele>142.79</ele><time>2026-08-22T14:20:25Z</time></trkpt><trkpt lat="59.3438364007" lon="34.6480354294"><ele>140.29</ele><time>2026-08-22T14:20:33Z</time></trkpt><trkpt lat="59.3438730296" lon="34.6479223575"><ele>137.49</ele><time>2026-08-22T14:20:41Z</time></trkpt><trkpt lat="59.3439847603" lon="34.6476613451"><ele>141.36</ele><time>2026-08-22T14:20:53Z</time></trkpt><trkpt lat="59.3441076390" lon="34.6474989876"><ele>141.80</ele><time>2026-08-22T14:21:06Z</time></trkpt><trkpt lat="59.3441921286" lon="34.6473259013"><ele>140.44</ele><time>2026-08-22T14:21:19Z</time></trkpt><trkpt lat="59.3442207947" lon="34.6472728439"><ele>139.64</ele><time>2026-08-22T14:21:23Z</time></trkpt><trkpt lat="59.3442562502" lon="34.6472228877"><ele>138.92</ele><time>2026-08-22T14:21:27Z</time></trkpt><trkpt lat="59.3442923762" lon="34.6471549943"><ele>138.15</ele><time>2026-08-22T14:21:31Z</time></trkpt><trkpt lat="59.3444148358" lon="34.6469995100"><ele>134.31</ele><time>2026-08-22T14:21:44Z</time></trkpt><trkpt lat="59.3444742635" lon="34.6469063871"><ele>132.72</ele><time>2026-08-22T14:21:58Z</time></trkpt><trkpt lat="59.3445534725" lon="34.6466472186"><ele>135.74</ele><time>2026-08-22T14:22:12Z</time></trkpt><trkpt lat="59.3446735851" lon="34.6464530099"><ele>139.13</ele><time>2026-08-22T14:22:26Z</time></trkpt><trkpt lat="59.3446882535" lon="34.6464286186"><ele>139.63</ele><time>2026-08-22T14:22:28Z</time></trkpt><trkpt lat="59.3447634391" lon="34.6462456416"><ele>143.53</ele><time>2026-08-22T14:22:37Z</time></trkpt><trkpt lat="59.3448193464" lon="34.6461577993"><ele>149.41</ele><time>2026-08-22T14:22:51Z</time></trkpt><trkpt lat="59.3448056001" lon="34.6461147163"><ele>149.95</ele><time>2026-08-22T14:22:55Z</time></trkpt><trkpt lat="59.3448032532" lon="34.6459877305"><ele>150.50</ele><time>2026-08-22T14:23:01Z</time></trkpt><trkpt lat="59.3448351882" lon="34.6456719842"><ele>153.04</ele><time>2026-08-22T14:23:15Z</time></trkpt><trkpt lat="59.3448639382" lon="34.6453709062"><ele>154.84</ele><time>2026-08-22T14:23:31Z</time></trkpt><trkpt lat="59.3448988069" lon="34.6451742668"><ele>157.15</ele><time>2026-08-22T14:23:42Z</time></trkpt><trkpt lat="59.3449216895" lon="34.6451604366"><ele>159.11</ele><time>2026-08-22T14:23:54Z</time></trkpt><trkpt lat="59.3449028302" lon="34.6451693214"><ele>159.88</ele><time>2026-08-22T14:24:20Z</time></trkpt><trkpt lat="59.3449019920" lon="34.6451732609"><ele>160.15</ele><time>2026-08-22T14:24:41Z</time></trkpt><trkpt lat="59.3448909279" lon="34.6451688185"><ele>159.88</ele><time>2026-08-22T14:24:59Z</time></trkpt><trkpt lat="59.3448946998" lon="34.6451563295"><ele>160.16</ele><time>2026-08-22T14:25:12Z</time></trkpt><trkpt lat="59.3448964600" lon="34.6449927986"><ele>159.63</ele><time>2026-08-22T14:25:24Z</time></trkpt><trkpt lat="59.3448672909" lon="34.6449251566"><ele>159.30</ele><time>2026-08-22T14:25:29Z</time></trkpt><trkpt lat="59.3448415585" lon="34.6448374819"><ele>159.40</ele><time>2026-08-22T14:25:42Z</time></trkpt><trkpt lat="59.3448177539" lon="34.6448528208"><ele>160.84</ele><time>2026-08-22T14:26:06Z</time></trkpt><trkpt lat="59.3448151555" lon="34.6447240748"><ele>161.47</ele><time>2026-08-22T14:26:25Z</time></trkpt><trkpt lat="59.3447772693" lon="34.6445533354"><ele>160.89</ele><time>2026-08-22T14:26:34Z</time></trkpt><trkpt lat="59.3447915185" lon="34.6444440354"><ele>160.41</ele><time>2026-08-22T14:26:40Z</time></trkpt><trkpt lat="59.3447846454" lon="34.6442206576"><ele>157.07</ele><time>2026-08-22T14:26:52Z</time></trkpt><trkpt lat="59.3447747547" lon="34.6440471523"><ele>154.21</ele><time>2026-08-22T14:27:01Z</time></trkpt><trkpt lat="59.3447527103" lon="34.6439203341"><ele>152.84</ele><time>2026-08-22T14:27:14Z</time></trkpt><trkpt lat="59.3447792809" lon="34.6436973754"><ele>151.53</ele><time>2026-08-22T14:27:27Z</time></trkpt><trkpt lat="59.3447626010" lon="34.6434380393"><ele>151.96</ele><time>2026-08-22T14:27:40Z</time></trkpt><trkpt lat="59.3447701447" lon="34.6432974748"><ele>148.63</ele><time>2026-08-22T14:27:50Z</time></trkpt><trkpt lat="59.3448102940" lon="34.6431806311"><ele>145.92</ele><time>2026-08-22T14:28:01Z</time></trkpt><trkpt lat="59.3448777683" lon="34.6430364624"><ele>147.89</ele><time>2026-08-22T14:28:15Z</time></trkpt><trkpt lat="59.3448872399" lon="34.6430237219"><ele>147.88</ele><time>2026-08-22T14:28:16Z</time></trkpt><trkpt lat="59.3449273892" lon="34.6427847538"><ele>145.34</ele><time>2026-08-22T14:28:30Z</time></trkpt><trkpt lat="59.3449327536" lon="34.6427328698"><ele>144.05</ele><time>2026-08-22T14:28:35Z</time></trkpt><trkpt lat="59.3450114597" lon="34.6423966717"><ele>144.72</ele><time>2026-08-22T14:28:50Z</time></trkpt><trkpt lat="59.3450630084" lon="34.6422115155"><ele>143.81</ele><time>2026-08-22T14:29:01Z</time></trkpt><trkpt lat="59.3450941890" lon="34.6420603897"><ele>143.69</ele><time>2026-08-22T14:29:09Z</time></trkpt><trkpt lat="59.3451493420" lon="34.6418715455"><ele>142.74</ele><time>2026-08-22T14:29:19Z</time></trkpt><trkpt lat="59.3452126253" lon="34.6416619979"><ele>142.90</ele><time>2026-08-22T14:29:29Z</time></trkpt><trkpt lat="59.3452645931" lon="34.6414548811"><ele>141.61</ele><time>2026-08-22T14:29:41Z</time></trkpt><trkpt lat="59.3452790100" lon="34.6413632669"><ele>140.81</ele><time>2026-08-22T14:29:45Z</time></trkpt><trkpt lat="59.3453133758" lon="34.6410795394"><ele>138.27</ele><time>2026-08-22T14:29:57Z</time></trkpt><trkpt lat="59.3453208357" lon="34.6409188583"><ele>135.96</ele><time>2026-08-22T14:30:06Z</time></trkpt><trkpt lat="59.3452929240" lon="34.6408255678"><ele>136.29</ele><time>2026-08-22T14:30:14Z</time></trkpt><trkpt lat="59.3453021441" lon="34.6406771243"><ele>136.22</ele><time>2026-08-22T14:30:21Z</time></trkpt><trkpt lat="59.3453410361" lon="34.6404434368"><ele>136.70</ele><time>2026-08-22T14:30:35Z</time></trkpt><trkpt lat="59.3454073370" lon="34.6402969211"><ele>137.57</ele><time>2026-08-22T14:30:46Z</time></trkpt><trkpt lat="59.3454292975" lon="34.6400709450"><ele>140.61</ele><time>2026-08-22T14:31:01Z</time></trkpt><trkpt lat="59.3454820197" lon="34.6399803367"><ele>140.28</ele><time>2026-08-22T14:31:14Z</time></trkpt><trkpt lat="59.3455670122" lon="34.6398382634"><ele>137.86</ele><time>2026-08-22T14:31:29Z</time></trkpt><trkpt lat="59.3456815928" lon="34.6397004649"><ele>138.10</ele><time>2026-08-22T14:31:45Z</time></trkpt><trkpt lat="59.3457834329" lon="34.6396514308"><ele>140.50</ele><time>2026-08-22T14:31:59Z</time></trkpt><trkpt lat="59.3458638992" lon="34.6395377722"><ele>145.17</ele><time>2026-08-22T14:32:14Z</time></trkpt><trkpt lat="59.3459167890" lon="34.6394560486"><ele>148.32</ele><time>2026-08-22T14:32:26Z</time></trkpt><trkpt lat="59.3459041324" lon="34.6393159032"><ele>150.80</ele><time>2026-08-22T14:32:36Z</time></trkpt><trkpt lat="59.3459664937" lon="34.6392088663"><ele>152.19</ele><time>2026-08-22T14:32:48Z</time></trkpt><trkpt lat="59.3459977582" lon="34.6390295774"><ele>152.33</ele><time>2026-08-22T14:33:01Z</time></trkpt><trkpt lat="59.3460576050" lon="34.6389388852"><ele>153.26</ele><time>2026-08-22T14:33:11Z</time></trkpt><trkpt lat="59.3461219780" lon="34.6387320198"><ele>152.25</ele><time>2026-08-22T14:33:24Z</time></trkpt><trkpt lat="59.3461653963" lon="34.6386173554"><ele>150.94</ele><time>2026-08-22T14:33:34Z</time></trkpt><trkpt lat="59.3462478742" lon="34.6383471228"><ele>148.34</ele><time>2026-08-22T14:33:54Z</time></trkpt><trkpt lat="59.3462756183" lon="34.6382213105"><ele>147.78</ele><time>2026-08-22T14:34:03Z</time></trkpt><trkpt lat="59.3463006802" lon="34.6380254254"><ele>151.02</ele><time>2026-08-22T14:34:20Z</time></trkpt><trkpt lat="59.3463620357" lon="34.6379794925"><ele>151.36</ele><time>2026-08-22T14:34:29Z</time></trkpt><trkpt lat="59.3464586791" lon="34.6378537640"><ele>151.47</ele><time>2026-08-22T14:34:44Z</time></trkpt><trkpt lat="59.3465169333" lon="34.6377737168"><ele>153.14</ele><time>2026-08-22T14:35:00Z</time></trkpt><trkpt lat="59.3464708328" lon="34.6377512533"><ele>153.38</ele><time>2026-08-22T14:35:16Z</time></trkpt><trkpt lat="59.3464094773" lon="34.6378028020"><ele>152.79</ele><time>2026-08-22T14:35:28Z</time></trkpt><trkpt lat="59.3463452719" lon="34.6377591323"><ele>151.58</ele><time>2026-08-22T14:35:39Z</time></trkpt><trkpt lat="59.3462669849" lon="34.6377985273"><ele>150.83</ele><time>2026-08-22T14:35:50Z</time></trkpt><trkpt lat="59.3462042883" lon="34.6378649957"><ele>148.96</ele><time>2026-08-22T14:35:59Z</time></trkpt><trkpt lat="59.3460680824" lon="34.6378700249"><ele>147.85</ele><time>2026-08-22T14:36:13Z</time></trkpt><trkpt lat="59.3460605387" lon="34.6377870440"><ele>147.97</ele><time>2026-08-22T14:36:20Z</time></trkpt><trkpt lat="59.3459988479" lon="34.6376183163"><ele>148.26</ele><time>2026-08-22T14:36:33Z</time></trkpt><trkpt lat="59.3459649011" lon="34.6374404524"><ele>146.90</ele><time>2026-08-22T14:36:47Z</time></trkpt><trkpt lat="59.3459047191" lon="34.6373245306"><ele>145.04</ele><time>2026-08-22T14:36:59Z</time></trkpt><trkpt lat="59.3458256777" lon="34.6372487582"><ele>143.21</ele><time>2026-08-22T14:37:13Z</time></trkpt><trkpt lat="59.3457433674" lon="34.6371427272"><ele>142.35</ele><time>2026-08-22T14:37:25Z</time></trkpt><trkpt lat="59.3456636555" lon="34.6370597463"><ele>140.72</ele><time>2026-08-22T14:37:36Z</time></trkpt><trkpt lat="59.3455686048" lon="34.6368828882"><ele>141.44</ele><time>2026-08-22T14:37:53Z</time></trkpt><trkpt lat="59.3454868812" lon="34.6367035992"><ele>143.54</ele><time>2026-08-22T14:38:06Z</time></trkpt><trkpt lat="59.3454318121" lon="34.6365721710"><ele>142.80</ele><time>2026-08-22T14:38:20Z</time></trkpt><trkpt lat="59.3453254458" lon="34.6363860928"><ele>142.89</ele><time>2026-08-22T14:38:43Z</time></trkpt><trkpt lat="59.3452605698" lon="34.6361548360"><ele>148.02</ele><time>2026-08-22T14:39:00Z</time></trkpt><trkpt lat="59.3452644255" lon="34.6359890420"><ele>148.65</ele><time>2026-08-22T14:39:14Z</time></trkpt><trkpt lat="59.3452607375" lon="34.6358124353"><ele>149.28</ele><time>2026-08-22T14:39:26Z</time></trkpt><trkpt lat="59.3451773375" lon="34.6356454678"><ele>148.71</ele><time>2026-08-22T14:39:41Z</time></trkpt><trkpt lat="59.3451608252" lon="34.6354873851"><ele>147.52</ele><time>2026-08-22T14:39:54Z</time></trkpt><trkpt lat="59.3451462407" lon="34.6353452280"><ele>146.57</ele><time>2026-08-22T14:40:07Z</time></trkpt><trkpt lat="59.3451995496" lon="34.6351101995"><ele>147.55</ele><time>2026-08-22T14:40:22Z</time></trkpt><trkpt lat="59.3452097755" lon="34.6348088700"><ele>148.85</ele><time>2026-08-22T14:40:37Z</time></trkpt><trkpt lat="59.3452446442" lon="34.6346988156"><ele>147.85</ele><time>2026-08-22T14:40:46Z</time></trkpt><trkpt lat="59.3452757411" lon="34.6345946286"><ele>146.24</ele><time>2026-08-22T14:41:00Z</time></trkpt><trkpt lat="59.3453619909" lon="34.6344125737"><ele>144.59</ele><time>2026-08-22T14:41:19Z</time></trkpt><trkpt lat="59.3454138748" lon="34.6342173591"><ele>146.08</ele><time>2026-08-22T14:41:33Z</time></trkpt><trkpt lat="59.3454372603" lon="34.6340482123"><ele>148.31</ele><time>2026-08-22T14:41:46Z</time></trkpt><trkpt lat="59.3454017211" lon="34.6338402573"><ele>150.85</ele><time>2026-08-22T14:41:59Z</time></trkpt><trkpt lat="59.3453122023" lon="34.6337029617"><ele>151.68</ele><time>2026-08-22T14:42:12Z</time></trkpt><trkpt lat="59.3452289701" lon="34.6335430350"><ele>152.84</ele><time>2026-08-22T14:42:26Z</time></trkpt><trkpt lat="59.3451885693" lon="34.6334013809"><ele>154.08</ele><time>2026-08-22T14:42:37Z</time></trkpt><trkpt lat="59.3451248668" lon="34.6333147958"><ele>155.16</ele><time>2026-08-22T14:42:49Z</time></trkpt><trkpt lat="59.3450343423" lon="34.6332355030"><ele>156.55</ele><time>2026-08-22T14:43:02Z</time></trkpt><trkpt lat="59.3449584022" lon="34.6331878938"><ele>157.51</ele><time>2026-08-22T14:43:13Z</time></trkpt><trkpt lat="59.3448663689" lon="34.6331391111"><ele>158.35</ele><time>2026-08-22T14:43:27Z</time></trkpt><trkpt lat="59.3448201846" lon="34.6332485788"><ele>159.25</ele><time>2026-08-22T14:43:41Z</time></trkpt><trkpt lat="59.3448247947" lon="34.6333445515"><ele>159.80</ele><time>2026-08-22T14:43:51Z</time></trkpt><trkpt lat="59.3448254652" lon="34.6333749779"><ele>160.36</ele><time>2026-08-22T14:44:03Z</time></trkpt><trkpt lat="59.3448079471" lon="34.6334557794"><ele>161.10</ele><time>2026-08-22T14:44:18Z</time></trkpt><trkpt lat="59.3447712343" lon="34.6335950028"><ele>161.21</ele><time>2026-08-22T14:44:31Z</time></trkpt><trkpt lat="59.3447556440" lon="34.6336168796"><ele>161.13</ele><time>2026-08-22T14:44:42Z</time></trkpt><trkpt lat="59.3447019160" lon="34.6336053964"><ele>161.23</ele><time>2026-08-22T14:44:50Z</time></trkpt><trkpt lat="59.3446217012" lon="34.6335732937"><ele>160.76</ele><time>2026-08-22T14:45:04Z</time></trkpt><trkpt lat="59.3445362058" lon="34.6336091682"><ele>160.42</ele><time>2026-08-22T14:45:16Z</time></trkpt><trkpt lat="59.3444707431" lon="34.6335006226"><ele>159.50</ele><time>2026-08-22T14:45:29Z</time></trkpt><trkpt lat="59.3443968147" lon="34.6334929951"><ele>160.32</ele><time>2026-08-22T14:45:40Z</time></trkpt><trkpt lat="59.3443065416" lon="34.6334614791"><ele>160.55</ele><time>2026-08-22T14:45:52Z</time></trkpt><trkpt lat="59.3442542385" lon="34.6334331483"><ele>161.17</ele><time>2026-08-22T14:46:03Z</time></trkpt><trkpt lat="59.3442567531" lon="34.6334229223"><ele>162.03</ele><time>2026-08-22T14:46:23Z</time></trkpt><trkpt lat="59.3442471139" lon="34.6334154624"><ele>162.62</ele><time>2026-08-22T14:46:43Z</time></trkpt><trkpt lat="59.3442502152" lon="34.6334069967"><ele>162.49</ele><time>2026-08-22T14:46:55Z</time></trkpt><trkpt lat="59.3442356307" lon="34.6333810128"><ele>161.98</ele><time>2026-08-22T14:47:09Z</time></trkpt><trkpt lat="59.3442180287" lon="34.6333566215"><ele>162.02</ele><time>2026-08-22T14:47:21Z</time></trkpt><trkpt lat="59.3442120776" lon="34.6333619859"><ele>162.76</ele><time>2026-08-22T14:47:41Z</time></trkpt><trkpt lat="59.3442101497" lon="34.6333936695"><ele>162.77</ele><time>2026-08-22T14:47:55Z</time></trkpt><trkpt lat="59.3442095630" lon="34.6333877183"><ele>162.70</ele><time>2026-08-22T14:48:16Z</time></trkpt><trkpt lat="59.3442284223" lon="34.6334387641"><ele>162.40</ele><time>2026-08-22T14:48:29Z</time></trkpt><trkpt lat="59.3442643806" lon="34.6336001996"><ele>162.62</ele><time>2026-08-22T14:48:41Z</time></trkpt><trkpt lat="59.3443063740" lon="34.6337804105"><ele>162.69</ele><time>2026-08-22T14:48:54Z</time></trkpt><trkpt lat="59.3443570845" lon="34.6339250822"><ele>162.03</ele><time>2026-08-22T14:49:06Z</time></trkpt><trkpt lat="59.3443825655" lon="34.6341559198"><ele>160.61</ele><time>2026-08-22T14:49:19Z</time></trkpt><trkpt lat="59.3443616945" lon="34.6343528107"><ele>158.81</ele><time>2026-08-22T14:49:31Z</time></trkpt><trkpt lat="59.3443550728" lon="34.6344658826"><ele>157.38</ele><time>2026-08-22T14:49:39Z</time></trkpt><trkpt lat="59.3444177695" lon="34.6346497815"><ele>154.69</ele><time>2026-08-22T14:49:53Z</time></trkpt><trkpt lat="59.3444701564" lon="34.6347448323"><ele>151.15</ele><time>2026-08-22T14:50:09Z</time></trkpt><trkpt lat="59.3445025105" lon="34.6348465886"><ele>151.11</ele><time>2026-08-22T14:50:30Z</time></trkpt><trkpt lat="59.3444978166" lon="34.6348616760"><ele>151.07</ele><time>2026-08-22T14:50:32Z</time></trkpt><trkpt lat="59.3444817234" lon="34.6349248756"><ele>153.20</ele><time>2026-08-22T14:50:52Z</time></trkpt><trkpt lat="59.3444879260" lon="34.6349335089"><ele>153.44</ele><time>2026-08-22T14:50:53Z</time></trkpt><trkpt lat="59.3445119821" lon="34.6349710599"><ele>156.45</ele><time>2026-08-22T14:51:15Z</time></trkpt><trkpt lat="59.3445269857" lon="34.6349792741"><ele>157.03</ele><time>2026-08-22T14:51:21Z</time></trkpt><trkpt lat="59.3445203640" lon="34.6348847263"><ele>159.78</ele><time>2026-08-22T14:51:43Z</time></trkpt><trkpt lat="59.3445494492" lon="34.6349496022"><ele>159.97</ele><time>2026-08-22T14:52:08Z</time></trkpt><trkpt lat="59.3445448391" lon="34.6349045914"><ele>160.30</ele><time>2026-08-22T14:52:28Z</time></trkpt><trkpt lat="59.3445491977" lon="34.6349715628"><ele>160.30</ele><time>2026-08-22T14:52:47Z</time></trkpt><trkpt lat="59.3445321824" lon="34.6351136360"><ele>159.83</ele><time>2026-08-22T14:52:59Z</time></trkpt><trkpt lat="59.3445412349" lon="34.6352107823"><ele>158.71</ele><time>2026-08-22T14:53:11Z</time></trkpt><trkpt lat="59.3444970623" lon="34.6353888977"><ele>158.05</ele><time>2026-08-22T14:53:26Z</time></trkpt><trkpt lat="59.3444227148" lon="34.6354425419"><ele>159.29</ele><time>2026-08-22T14:53:40Z</time></trkpt><trkpt lat="59.3443008419" lon="34.6355494112"><ele>159.15</ele><time>2026-08-22T14:53:53Z</time></trkpt><trkpt lat="59.3442352954" lon="34.6357217431"><ele>159.91</ele><time>2026-08-22T14:54:08Z</time></trkpt><trkpt lat="59.3442043662" lon="34.6359238308"><ele>159.53</ele><time>2026-08-22T14:54:24Z</time></trkpt><trkpt lat="59.3441216368" lon="34.6360008605"><ele>160.58</ele><time>2026-08-22T14:54:41Z</time></trkpt><trkpt lat="59.3440194614" lon="34.6360444464"><ele>160.37</ele><time>2026-08-22T14:54:57Z</time></trkpt><trkpt lat="59.3439618777" lon="34.6362259146"><ele>161.92</ele><time>2026-08-22T14:55:15Z</time></trkpt><trkpt lat="59.3439238239" lon="34.6363101527"><ele>162.67</ele><time>2026-08-22T14:55:29Z</time></trkpt><trkpt lat="59.3438764662" lon="34.6365861688"><ele>161.61</ele><time>2026-08-22T14:55:45Z</time></trkpt><trkpt lat="59.3438694254" lon="34.6366452612"><ele>161.04</ele><time>2026-08-22T14:55:50Z</time></trkpt><trkpt lat="59.3438518234" lon="34.6367217042"><ele>161.22</ele><time>2026-08-22T14:55:55Z</time></trkpt><trkpt lat="59.3436975125" lon="34.6369385440"><ele>159.96</ele><time>2026-08-22T14:56:13Z</time></trkpt><trkpt lat="59.3436061498" lon="34.6369001549"><ele>159.22</ele><time>2026-08-22T14:56:24Z</time></trkpt><trkpt lat="59.3435611390" lon="34.6367202792"><ele>158.43</ele><time>2026-08-22T14:56:36Z</time></trkpt><trkpt lat="59.3435230013" lon="34.6365052834"><ele>158.00</ele><time>2026-08-22T14:56:49Z</time></trkpt><trkpt lat="59.3434755597" lon="34.6363521460"><ele>154.74</ele><time>2026-08-22T14:57:03Z</time></trkpt><trkpt lat="59.3434255198" lon="34.6361587755"><ele>152.53</ele><time>2026-08-22T14:57:18Z</time></trkpt><trkpt lat="59.3434057385" lon="34.6361158602"><ele>151.23</ele><time>2026-08-22T14:57:21Z</time></trkpt><trkpt lat="59.3433358334" lon="34.6361627150"><ele>151.51</ele><time>2026-08-22T14:57:35Z</time></trkpt><trkpt lat="59.3432881404" lon="34.6362063009"><ele>153.62</ele><time>2026-08-22T14:57:48Z</time></trkpt><trkpt lat="59.3432988692" lon="34.6360726096"><ele>154.09</ele><time>2026-08-22T14:58:01Z</time></trkpt><trkpt lat="59.3432663474" lon="34.6359190531"><ele>154.53</ele><time>2026-08-22T14:58:18Z</time></trkpt><trkpt lat="59.3432630785" lon="34.6359516587"><ele>159.29</ele><time>2026-08-22T14:58:39Z</time></trkpt><trkpt lat="59.3432693649" lon="34.6359633934"><ele>159.52</ele><time>2026-08-22T14:58:46Z</time></trkpt><trkpt lat="59.3431540299" lon="34.6362783015"><ele>159.03</ele><time>2026-08-22T14:59:02Z</time></trkpt><trkpt lat="59.3431157246" lon="34.6365028527"><ele>157.62</ele><time>2026-08-22T14:59:16Z</time></trkpt><trkpt lat="59.3430775031" lon="34.6367586683"><ele>156.77</ele><time>2026-08-22T14:59:27Z</time></trkpt><trkpt lat="59.3430982064" lon="34.6369006578"><ele>157.34</ele><time>2026-08-22T14:59:38Z</time></trkpt><trkpt lat="59.3430962786" lon="34.6372464951"><ele>157.72</ele><time>2026-08-22T14:59:55Z</time></trkpt><trkpt lat="59.3431474082" lon="34.6375164762"><ele>156.60</ele><time>2026-08-22T15:00:13Z</time></trkpt><trkpt lat="59.3431843724" lon="34.6376461443"><ele>156.24</ele><time>2026-08-22T15:00:25Z</time></trkpt><trkpt lat="59.3432854582" lon="34.6377643291"><ele>159.60</ele><time>2026-08-22T15:00:39Z</time></trkpt><trkpt lat="59.3433977757" lon="34.6376725473"><ele>159.79</ele><time>2026-08-22T15:00:55Z</time></trkpt><trkpt lat="59.3434950057" lon="34.6375350840"><ele>159.57</ele><time>2026-08-22T15:01:09Z</time></trkpt><trkpt lat="59.3435779866" lon="34.6374358423"><ele>159.24</ele><time>2026-08-22T15:01:24Z</time></trkpt><trkpt lat="59.3436893821" lon="34.6375486627"><ele>158.91</ele><time>2026-08-22T15:01:40Z</time></trkpt><trkpt lat="59.3437427748" lon="34.6376525983"><ele>158.50</ele><time>2026-08-22T15:01:51Z</time></trkpt><trkpt lat="59.3438961636" lon="34.6377111040"><ele>158.02</ele><time>2026-08-22T15:02:06Z</time></trkpt><trkpt lat="59.3439311162" lon="34.6377520915"><ele>158.01</ele><time>2026-08-22T15:02:12Z</time></trkpt><trkpt lat="59.3439550884" lon="34.6377748065"><ele>157.90</ele><time>2026-08-22T15:02:15Z</time></trkpt><trkpt lat="59.3440720998" lon="34.6378453821"><ele>157.76</ele><time>2026-08-22T15:02:29Z</time></trkpt><trkpt lat="59.3442168552" lon="34.6378927398"><ele>158.50</ele><time>2026-08-22T15:02:42Z</time></trkpt><trkpt lat="59.3443100620" lon="34.6378583740"><ele>161.20</ele><time>2026-08-22T15:02:55Z</time></trkpt><trkpt lat="59.3444507103" lon="34.6378831007"><ele>161.87</ele><time>2026-08-22T15:03:11Z</time></trkpt><trkpt lat="59.3445601780" lon="34.6378092561"><ele>161.19</ele><time>2026-08-22T15:03:27Z</time></trkpt><trkpt lat="59.3447105493" lon="34.6377359144"><ele>158.44</ele><time>2026-08-22T15:03:45Z</time></trkpt><trkpt lat="59.3448279798" lon="34.6376710385"><ele>160.80</ele><time>2026-08-22T15:04:00Z</time></trkpt><trkpt lat="59.3448423967" lon="34.6376614831"><ele>161.13</ele><time>2026-08-22T15:04:03Z</time></trkpt><trkpt lat="59.3449647725" lon="34.6375964396"><ele>162.83</ele><time>2026-08-22T15:04:18Z</time></trkpt><trkpt lat="59.3450420536" lon="34.6378033049"><ele>160.64</ele><time>2026-08-22T15:04:32Z</time></trkpt><trkpt lat="59.3451464083" lon="34.6378888842"><ele>158.25</ele><time>2026-08-22T15:04:47Z</time></trkpt><trkpt lat="59.3452512659" lon="34.6380540077"><ele>155.81</ele><time>2026-08-22T15:05:04Z</time></trkpt><trkpt lat="59.3453156389" lon="34.6381773893"><ele>154.01</ele><time>2026-08-22T15:05:23Z</time></trkpt><trkpt lat="59.3453840353" lon="34.6382788941"><ele>155.56</ele><time>2026-08-22T15:05:38Z</time></trkpt><trkpt lat="59.3454492465" lon="34.6384871844"><ele>154.39</ele><time>2026-08-22T15:05:52Z</time></trkpt><trkpt lat="59.3454907369" lon="34.6385784633"><ele>153.32</ele><time>2026-08-22T15:06:04Z</time></trkpt><trkpt lat="59.3455786631" lon="34.6386329457"><ele>153.43</ele><time>2026-08-22T15:06:19Z</time></trkpt><trkpt lat="59.3456774019" lon="34.6388678905"><ele>154.16</ele><time>2026-08-22T15:06:35Z</time></trkpt><trkpt lat="59.3457302079" lon="34.6390126459"><ele>155.23</ele><time>2026-08-22T15:06:51Z</time></trkpt><trkpt lat="59.3457701895" lon="34.6391671244"><ele>154.35</ele><time>2026-08-22T15:07:05Z</time></trkpt><trkpt lat="59.3457861152" lon="34.6393345110"><ele>153.70</ele><time>2026-08-22T15:07:17Z</time></trkpt><trkpt lat="59.3458523322" lon="34.6393833775"><ele>153.54</ele><time>2026-08-22T15:07:23Z</time></trkpt><trkpt lat="59.3459000252" lon="34.6393974591"><ele>154.98</ele><time>2026-08-22T15:07:39Z</time></trkpt><trkpt lat="59.3459975068" lon="34.6395234391"><ele>159.76</ele><time>2026-08-22T15:07:57Z</time></trkpt><trkpt lat="59.3461027835" lon="34.6396224294"><ele>160.42</ele><time>2026-08-22T15:08:11Z</time></trkpt><trkpt lat="59.3461649772" lon="34.6397647541"><ele>159.65</ele><time>2026-08-22T15:08:25Z</time></trkpt><trkpt lat="59.3462820724" lon="34.6399193164"><ele>158.43</ele><time>2026-08-22T15:08:40Z</time></trkpt><trkpt lat="59.3464182783" lon="34.6400527563"><ele>158.21</ele><time>2026-08-22T15:08:56Z</time></trkpt><trkpt lat="59.3464381434" lon="34.6401502378"><ele>157.60</ele><time>2026-08-22T15:09:11Z</time></trkpt><trkpt lat="59.3464651331" lon="34.6403397527"><ele>157.88</ele><time>2026-08-22T15:09:28Z</time></trkpt><trkpt lat="59.3464747723" lon="34.6403773036"><ele>158.33</ele><time>2026-08-22T15:09:39Z</time></trkpt><trkpt lat="59.3464262411" lon="34.6406124160"><ele>159.77</ele><time>2026-08-22T15:09:57Z</time></trkpt><trkpt lat="59.3464322761" lon="34.6406959835"><ele>159.22</ele><time>2026-08-22T15:10:04Z</time></trkpt><trkpt lat="59.3464665581" lon="34.6408533957"><ele>158.88</ele><time>2026-08-22T15:10:18Z</time></trkpt><trkpt lat="59.3465120718" lon="34.6411160845"><ele>157.21</ele><time>2026-08-22T15:10:33Z</time></trkpt><trkpt lat="59.3465355411" lon="34.6412740834"><ele>156.61</ele><time>2026-08-22T15:10:50Z</time></trkpt><trkpt lat="59.3465185259" lon="34.6413515322"><ele>156.54</ele><time>2026-08-22T15:10:58Z</time></trkpt><trkpt lat="59.3465157598" lon="34.6414874028"><ele>156.42</ele><time>2026-08-22T15:11:02Z</time></trkpt><trkpt lat="59.3464764487" lon="34.6415271331"><ele>155.75</ele><time>2026-08-22T15:11:21Z</time></trkpt><trkpt lat="59.3464760296" lon="34.6415968705"><ele>156.84</ele><time>2026-08-22T15:11:42Z</time></trkpt><trkpt lat="59.3464814778" lon="34.6415946074"><ele>158.76</ele><time>2026-08-22T15:12:09Z</time></trkpt><trkpt lat="59.3464983255" lon="34.6415756643"><ele>159.50</ele><time>2026-08-22T15:12:14Z</time></trkpt><trkpt lat="59.3465499580" lon="34.6415158175"><ele>160.47</ele><time>2026-08-22T15:12:29Z</time></trkpt><trkpt lat="59.3465552386" lon="34.6415432263"><ele>161.32</ele><time>2026-08-22T15:12:53Z</time></trkpt><trkpt lat="59.3465295061" lon="34.6415756643"><ele>161.42</ele><time>2026-08-22T15:13:19Z</time></trkpt><trkpt lat="59.3465342000" lon="34.6416036598"><ele>162.30</ele><time>2026-08-22T15:13:27Z</time></trkpt><trkpt lat="59.3465420790" lon="34.6416202560"><ele>162.66</ele><time>2026-08-22T15:13:29Z</time></trkpt><trkpt lat="59.3465783726" lon="34.6414912585"><ele>163.32</ele><time>2026-08-22T15:13:45Z</time></trkpt><trkpt lat="59.3466331065" lon="34.6413573995"><ele>162.88</ele><time>2026-08-22T15:14:00Z</time></trkpt><trkpt lat="59.3466409016" lon="34.6410984825"><ele>161.24</ele><time>2026-08-22T15:14:15Z</time></trkpt><trkpt lat="59.3466627784" lon="34.6408958081"><ele>161.99</ele><time>2026-08-22T15:14:28Z</time></trkpt><trkpt lat="59.3466481101" lon="34.6406270005"><ele>163.41</ele><time>2026-08-22T15:14:45Z</time></trkpt><trkpt lat="59.3467249721" lon="34.6404475439"><ele>164.17</ele><time>2026-08-22T15:15:00Z</time></trkpt><trkpt lat="59.3468175083" lon="34.6404145192"><ele>162.75</ele><time>2026-08-22T15:15:15Z</time></trkpt><trkpt lat="59.3469188455" lon="34.6405024454"><ele>160.14</ele><time>2026-08-22T15:15:27Z</time></trkpt><trkpt lat="59.3469689693" lon="34.6405316982"><ele>159.68</ele><time>2026-08-22T15:15:39Z</time></trkpt><trkpt lat="59.3470074423" lon="34.6407622006"><ele>157.66</ele><time>2026-08-22T15:15:54Z</time></trkpt><trkpt lat="59.3470673729" lon="34.6410383005"><ele>155.45</ele><time>2026-08-22T15:16:08Z</time></trkpt><trkpt lat="59.3470682949" lon="34.6411296632"><ele>152.93</ele><time>2026-08-22T15:16:17Z</time></trkpt><trkpt lat="59.3471381161" lon="34.6412746701"><ele>151.56</ele><time>2026-08-22T15:16:29Z</time></trkpt><trkpt lat="59.3472019862" lon="34.6414051764"><ele>150.12</ele><time>2026-08-22T15:16:40Z</time></trkpt><trkpt lat="59.3472904991" lon="34.6415671986"><ele>149.14</ele><time>2026-08-22T15:16:53Z</time></trkpt><trkpt lat="59.3473277986" lon="34.6416802704"><ele>150.77</ele><time>2026-08-22T15:17:05Z</time></trkpt><trkpt lat="59.3473122921" lon="34.6417959407"><ele>149.46</ele><time>2026-08-22T15:17:15Z</time></trkpt><trkpt lat="59.3472900800" lon="34.6419497486"><ele>147.25</ele><time>2026-08-22T15:17:30Z</time></trkpt><trkpt lat="59.3472863920" lon="34.6421709470"><ele>148.82</ele><time>2026-08-22T15:17:44Z</time></trkpt><trkpt lat="59.3472842965" lon="34.6423089970"><ele>147.83</ele><time>2026-08-22T15:17:54Z</time></trkpt><trkpt lat="59.3473350070" lon="34.6425357275"><ele>149.47</ele><time>2026-08-22T15:18:07Z</time></trkpt><trkpt lat="59.3473150581" lon="34.6426853444"><ele>152.20</ele><time>2026-08-22T15:18:22Z</time></trkpt><trkpt lat="59.3473712169" lon="34.6427860949"><ele>152.77</ele><time>2026-08-22T15:18:36Z</time></trkpt><trkpt lat="59.3474086002" lon="34.6429355443"><ele>153.02</ele><time>2026-08-22T15:18:50Z</time></trkpt><trkpt lat="59.3474281300" lon="34.6430850774"><ele>152.14</ele><time>2026-08-22T15:19:02Z</time></trkpt><trkpt lat="59.3473868910" lon="34.6432027593"><ele>151.75</ele><time>2026-08-22T15:19:11Z</time></trkpt><trkpt lat="59.3473385274" lon="34.6434480976"><ele>147.17</ele><time>2026-08-22T15:19:24Z</time></trkpt><trkpt lat="59.3473090231" lon="34.6436734870"><ele>146.33</ele><time>2026-08-22T15:19:37Z</time></trkpt><trkpt lat="59.3472945224" lon="34.6438782569"><ele>144.74</ele><time>2026-08-22T15:19:53Z</time></trkpt><trkpt lat="59.3472608272" lon="34.6440992039"><ele>143.65</ele><time>2026-08-22T15:20:07Z</time></trkpt><trkpt lat="59.3472834583" lon="34.6443310473"><ele>141.40</ele><time>2026-08-22T15:20:21Z</time></trkpt><trkpt lat="59.3472801894" lon="34.6444653254"><ele>138.78</ele><time>2026-08-22T15:20:34Z</time></trkpt><trkpt lat="59.3472895771" lon="34.6445250884"><ele>139.26</ele><time>2026-08-22T15:20:48Z</time></trkpt><trkpt lat="59.3473163992" lon="34.6446609590"><ele>140.97</ele><time>2026-08-22T15:21:02Z</time></trkpt><trkpt lat="59.3473018985" lon="34.6448677406"><ele>141.95</ele><time>2026-08-22T15:21:17Z</time></trkpt><trkpt lat="59.3473439757" lon="34.6451415773"><ele>143.91</ele><time>2026-08-22T15:21:30Z</time></trkpt><trkpt lat="59.3473815266" lon="34.6452284977"><ele>148.70</ele><time>2026-08-22T15:21:40Z</time></trkpt><trkpt lat="59.3473399524" lon="34.6451829839"><ele>150.62</ele><time>2026-08-22T15:21:50Z</time></trkpt><trkpt lat="59.3472257908" lon="34.6452546492"><ele>151.74</ele><time>2026-08-22T15:22:07Z</time></trkpt><trkpt lat="59.3471185025" lon="34.6452935413"><ele>154.26</ele><time>2026-08-22T15:22:22Z</time></trkpt><trkpt lat="59.3470672891" lon="34.6453274880"><ele>155.65</ele><time>2026-08-22T15:22:35Z</time></trkpt><trkpt lat="59.3470447417" lon="34.6453674696"><ele>156.18</ele><time>2026-08-22T15:22:49Z</time></trkpt><trkpt lat="59.3470283132" lon="34.6453625243"><ele>156.33</ele><time>2026-08-22T15:23:08Z</time></trkpt><trkpt lat="59.3470282294" lon="34.6453557350"><ele>156.05</ele><time>2026-08-22T15:23:32Z</time></trkpt><trkpt lat="59.3470479269" lon="34.6453672182"><ele>156.84</ele><time>2026-08-22T15:23:36Z</time></trkpt><trkpt lat="59.3470693007" lon="34.6453571599"><ele>157.15</ele><time>2026-08-22T15:23:38Z</time></trkpt><trkpt lat="59.3471885752" lon="34.6452872548"><ele>155.34</ele><time>2026-08-22T15:23:52Z</time></trkpt><trkpt lat="59.3473153934" lon="34.6452007536"><ele>153.63</ele><time>2026-08-22T15:24:08Z</time></trkpt><trkpt lat="59.3473637570" lon="34.6452078782"><ele>153.79</ele><time>2026-08-22T15:24:22Z</time></trkpt><trkpt lat="59.3473857176" lon="34.6451375540"><ele>154.41</ele><time>2026-08-22T15:24:41Z</time></trkpt><trkpt lat="59.3473493401" lon="34.6451715846"><ele>155.58</ele><time>2026-08-22T15:24:56Z</time></trkpt><trkpt lat="59.3473702110" lon="34.6452019271"><ele>156.05</ele><time>2026-08-22T15:25:08Z</time></trkpt><trkpt lat="59.3473720551" lon="34.6452294197"><ele>156.45</ele><time>2026-08-22T15:25:16Z</time></trkpt><trkpt lat="59.3473785091" lon="34.6452958882"><ele>161.29</ele><time>2026-08-22T15:25:35Z</time></trkpt><trkpt lat="59.3473935965" lon="34.6452803817"><ele>163.47</ele><time>2026-08-22T15:25:51Z</time></trkpt><trkpt lat="59.3473794311" lon="34.6453431621"><ele>163.86</ele><time>2026-08-22T15:26:01Z</time></trkpt><trkpt lat="59.3473883998" lon="34.6452399809"><ele>164.26</ele><time>2026-08-22T15:26:14Z</time></trkpt><trkpt lat="59.3474615738" lon="34.6454500314"><ele>163.16</ele><time>2026-08-22T15:26:28Z</time></trkpt><trkpt lat="59.3474702910" lon="34.6454672143"><ele>163.02</ele><time>2026-08-22T15:26:29Z</time></trkpt><trkpt lat="59.3475303054" lon="34.6456778515"><ele>161.43</ele><time>2026-08-22T15:26:40Z</time></trkpt><trkpt lat="59.3476267811" lon="34.6459338348"><ele>157.23</ele><time>2026-08-22T15:26:56Z</time></trkpt><trkpt lat="59.3477057386" lon="34.6461426280"><ele>153.03</ele><time>2026-08-22T15:27:10Z</time></trkpt><trkpt lat="59.3478492368" lon="34.6462503355"><ele>151.33</ele><time>2026-08-22T15:27:25Z</time></trkpt><trkpt lat="59.3479947466" lon="34.6463929117"><ele>150.86</ele><time>2026-08-22T15:27:38Z</time></trkpt><trkpt lat="59.3481392507" lon="34.6464903932"><ele>149.73</ele><time>2026-08-22T15:27:53Z</time></trkpt><trkpt lat="59.3482586928" lon="34.6465053968"><ele>149.84</ele><time>2026-08-22T15:28:07Z</time></trkpt><trkpt lat="59.3484068848" lon="34.6464721207"><ele>149.04</ele><time>2026-08-22T15:28:21Z</time></trkpt><trkpt lat="59.3485621177" lon="34.6464786585"><ele>149.54</ele><time>2026-08-22T15:28:36Z</time></trkpt><trkpt lat="59.3487377185" lon="34.6464334801"><ele>156.70</ele><time>2026-08-22T15:28:52Z</time></trkpt><trkpt lat="59.3488844018" lon="34.6463624015"><ele>159.80</ele><time>2026-08-22T15:29:06Z</time></trkpt><trkpt lat="59.3490161654" lon="34.6465024631"><ele>160.56</ele><time>2026-08-22T15:29:19Z</time></trkpt><trkpt lat="59.3491335958" lon="34.6466488112"><ele>160.96</ele><time>2026-08-22T15:29:31Z</time></trkpt><trkpt lat="59.3492625095" lon="34.6467296965"><ele>161.73</ele><time>2026-08-22T15:29:45Z</time></trkpt><trkpt lat="59.3493905850" lon="34.6469173674"><ele>159.69</ele><time>2026-08-22T15:30:02Z</time></trkpt><trkpt lat="59.3495156430" lon="34.6470139269"><ele>157.03</ele><time>2026-08-22T15:30:16Z</time></trkpt><trkpt lat="59.3496478256" lon="34.6470047906"><ele>155.77</ele><time>2026-08-22T15:30:31Z</time></trkpt><trkpt lat="59.3497976940" lon="34.6469239052"><ele>155.89</ele><time>2026-08-22T15:30:46Z</time></trkpt><trkpt lat="59.3498991989" lon="34.6468385775"><ele>153.47</ele><time>2026-08-22T15:31:00Z</time></trkpt><trkpt lat="59.3499760609" lon="34.6467574406"><ele>153.36</ele><time>2026-08-22T15:31:08Z</time></trkpt><trkpt lat="59.3501128536" lon="34.6467504837"><ele>157.37</ele><time>2026-08-22T15:31:19Z</time></trkpt><trkpt lat="59.3502161186" lon="34.6468577720"><ele>157.41</ele><time>2026-08-22T15:31:34Z</time></trkpt><trkpt lat="59.3501675874" lon="34.6467556804"><ele>157.31</ele><time>2026-08-22T15:31:44Z</time></trkpt><trkpt lat="59.3501206487" lon="34.6468004398"><ele>158.78</ele><time>2026-08-22T15:32:00Z</time></trkpt><trkpt lat="59.3501330540" lon="34.6468472108"><ele>158.20</ele><time>2026-08-22T15:32:11Z</time></trkpt><trkpt lat="59.3501249235" lon="34.6467495617"><ele>160.64</ele><time>2026-08-22T15:32:32Z</time></trkpt><trkpt lat="59.3501368258" lon="34.6468034573"><ele>161.90</ele><time>2026-08-22T15:32:47Z</time></trkpt><trkpt lat="59.3501087464" lon="34.6467553452"><ele>162.70</ele><time>2026-08-22T15:32:57Z</time></trkpt><trkpt lat="59.3500547670" lon="34.6468133479"><ele>163.30</ele><time>2026-08-22T15:33:13Z</time></trkpt><trkpt lat="59.3500002008" lon="34.6468280163"><ele>163.29</ele><time>2026-08-22T15:33:24Z</time></trkpt><trkpt lat="59.3499002885" lon="34.6467281040"><ele>164.09</ele><time>2026-08-22T15:33:39Z</time></trkpt><trkpt lat="59.3498934153" lon="34.6466255095"><ele>165.41</ele><time>2026-08-22T15:33:47Z</time></trkpt><trkpt lat="59.3499526754" lon="34.6464670915"><ele>166.29</ele><time>2026-08-22T15:34:01Z</time></trkpt><trkpt lat="59.3500250112" lon="34.6463898104"><ele>166.01</ele><time>2026-08-22T15:34:14Z</time></trkpt><trkpt lat="59.3500980176" lon="34.6463137865"><ele>166.41</ele><time>2026-08-22T15:34:28Z</time></trkpt><trkpt lat="59.3501552660" lon="34.6462784149"><ele>167.34</ele><time>2026-08-22T15:34:43Z</time></trkpt><trkpt lat="59.3500890490" lon="34.6463035606"><ele>167.98</ele><time>2026-08-22T15:34:59Z</time></trkpt><trkpt lat="59.3501171283" lon="34.6464864537"><ele>167.17</ele><time>2026-08-22T15:35:14Z</time></trkpt><trkpt lat="59.3501249235" lon="34.6465676744"><ele>167.56</ele><time>2026-08-22T15:35:21Z</time></trkpt><trkpt lat="59.3501182180" lon="34.6467389166"><ele>168.90</ele><time>2026-08-22T15:35:37Z</time></trkpt><trkpt lat="59.3500991911" lon="34.6467291936"><ele>168.44</ele><time>2026-08-22T15:35:45Z</time></trkpt><trkpt lat="59.3500519171" lon="34.6468162816"><ele>167.37</ele><time>2026-08-22T15:35:58Z</time></trkpt><trkpt lat="59.3499730434" lon="34.6468624659"><ele>167.13</ele><time>2026-08-22T15:36:10Z</time></trkpt><trkpt lat="59.3499153759" lon="34.6468817443"><ele>167.07</ele><time>2026-08-22T15:36:21Z</time></trkpt><trkpt lat="59.3498458061" lon="34.6469800640"><ele>166.64</ele><time>2026-08-22T15:36:37Z</time></trkpt><trkpt lat="59.3498292938" lon="34.6468835045"><ele>166.21</ele><time>2026-08-22T15:36:57Z</time></trkpt><trkpt lat="59.3498684373" lon="34.6468539163"><ele>166.62</ele><time>2026-08-22T15:36:59Z</time></trkpt><trkpt lat="59.3499716185" lon="34.6467146929"><ele>169.04</ele><time>2026-08-22T15:37:16Z</time></trkpt><trkpt lat="59.3500664178" lon="34.6466003638"><ele>170.53</ele><time>2026-08-22T15:37:32Z</time></trkpt><trkpt lat="59.3501203135" lon="34.6466309577"><ele>170.57</ele><time>2026-08-22T15:37:44Z</time></trkpt><trkpt lat="59.3501438666" lon="34.6467494778"><ele>170.01</ele><time>2026-08-22T15:37:50Z</time></trkpt><trkpt lat="59.3501502369" lon="34.6468175389"><ele>168.65</ele><time>2026-08-22T15:37:54Z</time></trkpt><trkpt lat="59.3501522485" lon="34.6469677426"><ele>167.20</ele><time>2026-08-22T15:38:09Z</time></trkpt><trkpt lat="59.3501270190" lon="34.6470220573"><ele>167.04</ele><time>2026-08-22T15:38:14Z</time></trkpt><trkpt lat="59.3500636518" lon="34.6470967401"><ele>167.71</ele><time>2026-08-22T15:38:22Z</time></trkpt><trkpt lat="59.3500152044" lon="34.6471888572"><ele>167.64</ele><time>2026-08-22T15:38:36Z</time></trkpt><trkpt lat="59.3500329740" lon="34.6472626179"><ele>167.58</ele><time>2026-08-22T15:38:58Z</time></trkpt><trkpt lat="59.3501416873" lon="34.6472809743"><ele>167.81</ele><time>2026-08-22T15:39:15Z</time></trkpt><trkpt lat="59.3501783162" lon="34.6472590975"><ele>168.54</ele><time>2026-08-22T15:39:25Z</time></trkpt><trkpt lat="59.3502669968" lon="34.6472627018"><ele>168.80</ele><time>2026-08-22T15:39:39Z</time></trkpt><trkpt lat="59.3503583595" lon="34.6472636238"><ele>168.04</ele><time>2026-08-22T15:39:55Z</time></trkpt><trkpt lat="59.3503686693" lon="34.6472992469"><ele>169.28</ele><time>2026-08-22T15:40:08Z</time></trkpt><trkpt lat="59.3503586948" lon="34.6475437470"><ele>168.57</ele><time>2026-08-22T15:40:21Z</time></trkpt><trkpt lat="59.3503531627" lon="34.6474846546"><ele>168.91</ele><time>2026-08-22T15:40:35Z</time></trkpt><trkpt lat="59.3503234908" lon="34.6472826507"><ele>169.07</ele><time>2026-08-22T15:40:47Z</time></trkpt><trkpt lat="59.3503136002" lon="34.6470634639"><ele>168.03</ele><time>2026-08-22T15:41:00Z</time></trkpt><trkpt lat="59.3502539210" lon="34.6468398347"><ele>167.00</ele><time>2026-08-22T15:41:16Z</time></trkpt><trkpt lat="59.3501418550" lon="34.6467740368"><ele>167.29</ele><time>2026-08-22T15:41:33Z</time></trkpt><trkpt lat="59.3501018733" lon="34.6468057204"><ele>167.02</ele><time>2026-08-22T15:41:42Z</time></trkpt><trkpt lat="59.3501021247" lon="34.6468756255"><ele>167.70</ele><time>2026-08-22T15:41:58Z</time></trkpt><trkpt lat="59.3500569463" lon="34.6468524076"><ele>167.65</ele><time>2026-08-22T15:42:09Z</time></trkpt><trkpt lat="59.3501431122" lon="34.6468536649"><ele>169.29</ele><time>2026-08-22T15:42:24Z</time></trkpt><trkpt lat="59.3502421025" lon="34.6468778886"><ele>166.90</ele><time>2026-08-22T15:42:38Z</time></trkpt><trkpt lat="59.3502576929" lon="34.6467164531"><ele>164.72</ele><time>2026-08-22T15:42:49Z</time></trkpt><trkpt lat="59.3502691761" lon="34.6465333924"><ele>162.65</ele><time>2026-08-22T15:43:00Z</time></trkpt><trkpt lat="59.3502267636" lon="34.6463216655"><ele>160.09</ele><time>2026-08-22T15:43:14Z</time></trkpt><trkpt lat="59.3501473032" lon="34.6462079231"><ele>157.70</ele><time>2026-08-22T15:43:29Z</time></trkpt><trkpt lat="59.3501888774" lon="34.6461172309"><ele>158.65</ele><time>2026-08-22T15:43:45Z</time></trkpt><trkpt lat="59.3502848502" lon="34.6461248584"><ele>158.17</ele><time>2026-08-22T15:43:57Z</time></trkpt><trkpt lat="59.3503541686" lon="34.6460005548"><ele>158.81</ele><time>2026-08-22T15:44:08Z</time></trkpt><trkpt lat="59.3504130933" lon="34.6458554640"><ele>158.04</ele><time>2026-08-22T15:44:23Z</time></trkpt><trkpt lat="59.3504036218" lon="34.6458112076"><ele>158.89</ele><time>2026-08-22T15:44:29Z</time></trkpt><trkpt lat="59.3503793143" lon="34.6458386164"><ele>161.15</ele><time>2026-08-22T15:44:45Z</time></trkpt><trkpt lat="59.3503610417" lon="34.6459044144"><ele>161.20</ele><time>2026-08-22T15:44:52Z</time></trkpt><trkpt lat="59.3502672482" lon="34.6461515967"><ele>161.89</ele><time>2026-08-22T15:45:11Z</time></trkpt><trkpt lat="59.3502591178" lon="34.6462564543"><ele>161.15</ele><time>2026-08-22T15:45:24Z</time></trkpt><trkpt lat="59.3502270151" lon="34.6463596355"><ele>160.96</ele><time>2026-08-22T15:45:31Z</time></trkpt><trkpt lat="59.3502560165" lon="34.6465649921"><ele>160.27</ele><time>2026-08-22T15:45:46Z</time></trkpt><trkpt lat="59.3502815813" lon="34.6467132680"><ele>159.76</ele><time>2026-08-22T15:45:56Z</time></trkpt><trkpt lat="59.3503294419" lon="34.6469802316"><ele>159.29</ele><time>2026-08-22T15:46:11Z</time></trkpt><trkpt lat="59.3503415957" lon="34.6471902821"><ele>159.10</ele><time>2026-08-22T15:46:25Z</time></trkpt><trkpt lat="59.3503597006" lon="34.6473425813"><ele>158.57</ele><time>2026-08-22T15:46:34Z</time></trkpt><trkpt lat="59.3503429368" lon="34.6476714034"><ele>157.30</ele><time>2026-08-22T15:46:50Z</time></trkpt><trkpt lat="59.3504006043" lon="34.6478354372"><ele>156.36</ele><time>2026-08-22T15:47:01Z</time></trkpt><trkpt lat="59.3504144344" lon="34.6478653606"><ele>156.27</ele><time>2026-08-22T15:47:03Z</time></trkpt><trkpt lat="59.3504697550" lon="34.6479877364"><ele>155.96</ele><time>2026-08-22T15:47:13Z</time></trkpt><trkpt lat="59.3505280931" lon="34.6481218468"><ele>154.54</ele><time>2026-08-22T15:47:22Z</time></trkpt><trkpt lat="59.3505842518" lon="34.6482886467"><ele>152.72</ele><time>2026-08-22T15:47:34Z</time></trkpt><trkpt lat="59.3506811466" lon="34.6484966855"><ele>152.62</ele><time>2026-08-22T15:47:50Z</time></trkpt><trkpt lat="59.3507139198" lon="34.6485845279"><ele>152.78</ele><time>2026-08-22T15:48:00Z</time></trkpt><trkpt lat="59.3507320248" lon="34.6488429420"><ele>150.21</ele><time>2026-08-22T15:48:16Z</time></trkpt><trkpt lat="59.3507651333" lon="34.6490954049"><ele>150.04</ele><time>2026-08-22T15:48:30Z</time></trkpt><trkpt lat="59.3508094735" lon="34.6492742747"><ele>150.77</ele><time>2026-08-22T15:48:45Z</time></trkpt><trkpt lat="59.3508979864" lon="34.6495021787"><ele>153.31</ele><time>2026-08-22T15:48:58Z</time></trkpt><trkpt lat="59.3509288318" lon="34.6497010812"><ele>154.34</ele><time>2026-08-22T15:49:17Z</time></trkpt><trkpt lat="59.3509796262" lon="34.6499011572"><ele>158.07</ele><time>2026-08-22T15:49:32Z</time></trkpt><trkpt lat="59.3510595057" lon="34.6501569729"><ele>158.97</ele><time>2026-08-22T15:49:48Z</time></trkpt><trkpt lat="59.3511248846" lon="34.6503267065"><ele>160.33</ele><time>2026-08-22T15:50:01Z</time></trkpt><trkpt lat="59.3511107191" lon="34.6505117789"><ele>160.01</ele><time>2026-08-22T15:50:12Z</time></trkpt><trkpt lat="59.3510963861" lon="34.6507730428"><ele>159.71</ele><time>2026-08-22T15:50:28Z</time></trkpt><trkpt lat="59.3510744255" lon="34.6510118432"><ele>159.53</ele><time>2026-08-22T15:50:42Z</time></trkpt><trkpt lat="59.3510733359" lon="34.6512449440"><ele>160.84</ele><time>2026-08-22T15:50:57Z</time></trkpt><trkpt lat="59.3510807119" lon="34.6513985004"><ele>161.68</ele><time>2026-08-22T15:51:09Z</time></trkpt><trkpt lat="59.3511334341" lon="34.6515544038"><ele>160.78</ele><time>2026-08-22T15:51:21Z</time></trkpt><trkpt lat="59.3511501979" lon="34.6515694074"><ele>160.68</ele><time>2026-08-22T15:51:23Z</time></trkpt><trkpt lat="59.3511909340" lon="34.6517336927"><ele>159.95</ele><time>2026-08-22T15:51:35Z</time></trkpt><trkpt lat="59.3512632698" lon="34.6518495306"><ele>160.29</ele><time>2026-08-22T15:51:47Z</time></trkpt><trkpt lat="59.3513035029" lon="34.6519154962"><ele>160.06</ele><time>2026-08-22T15:51:55Z</time></trkpt><trkpt lat="59.3513625115" lon="34.6521046758"><ele>159.29</ele><time>2026-08-22T15:52:07Z</time></trkpt><trkpt lat="59.3514168262" lon="34.6522885747"><ele>158.31</ele><time>2026-08-22T15:52:20Z</time></trkpt><trkpt lat="59.3514575623" lon="34.6523557138"><ele>157.82</ele><time>2026-08-22T15:52:27Z</time></trkpt><trkpt lat="59.3514515273" lon="34.6523210965"><ele>158.85</ele><time>2026-08-22T15:52:44Z</time></trkpt><trkpt lat="59.3514761701" lon="34.6523807757"><ele>158.65</ele><time>2026-08-22T15:53:01Z</time></trkpt><trkpt lat="59.3515423872" lon="34.6523775905"><ele>158.44</ele><time>2026-08-22T15:53:10Z</time></trkpt><trkpt lat="59.3515957799" lon="34.6524723060"><ele>158.13</ele><time>2026-08-22T15:53:22Z</time></trkpt><trkpt lat="59.3516754918" lon="34.6525003854"><ele>157.36</ele><time>2026-08-22T15:53:32Z</time></trkpt><trkpt lat="59.3517767452" lon="34.6525738109"><ele>158.12</ele><time>2026-08-22T15:53:47Z</time></trkpt><trkpt lat="59.3518064171" lon="34.6526065841"><ele>157.70</ele><time>2026-08-22T15:53:56Z</time></trkpt><trkpt lat="59.3518561218" lon="34.6526156366"><ele>157.12</ele><time>2026-08-22T15:54:09Z</time></trkpt><trkpt lat="59.3518612348" lon="34.6526247729"><ele>157.18</ele><time>2026-08-22T15:54:11Z</time></trkpt><trkpt lat="59.3519419525" lon="34.6526762377"><ele>157.14</ele><time>2026-08-22T15:54:23Z</time></trkpt><trkpt lat="59.3520049844" lon="34.6527118608"><ele>157.25</ele><time>2026-08-22T15:54:35Z</time></trkpt><trkpt lat="59.3520243466" lon="34.6527955122"><ele>158.40</ele><time>2026-08-22T15:54:50Z</time></trkpt><trkpt lat="59.3520808406" lon="34.6529318020"><ele>161.00</ele><time>2026-08-22T15:55:08Z</time></trkpt><trkpt lat="59.3522238359" lon="34.6530306246"><ele>161.87</ele><time>2026-08-22T15:55:20Z</time></trkpt><trkpt lat="59.3522501551" lon="34.6530607156"><ele>162.14</ele><time>2026-08-22T15:55:22Z</time></trkpt><trkpt lat="59.3523483910" lon="34.6532142721"><ele>162.33</ele><time>2026-08-22T15:55:33Z</time></trkpt><trkpt lat="59.3523956649" lon="34.6533151064"><ele>161.92</ele><time>2026-08-22T15:55:40Z</time></trkpt><trkpt lat="59.3524328806" lon="34.6533941478"><ele>161.48</ele><time>2026-08-22T15:55:48Z</time></trkpt><trkpt lat="59.3524406757" lon="34.6534469537"><ele>161.53</ele><time>2026-08-22T15:55:50Z</time></trkpt><trkpt lat="59.3524779752" lon="34.6535971574"><ele>160.43</ele><time>2026-08-22T15:56:03Z</time></trkpt><trkpt lat="59.3525515683" lon="34.6538145840"><ele>159.82</ele><time>2026-08-22T15:56:19Z</time></trkpt><trkpt lat="59.3525851797" lon="34.6539148316"><ele>158.62</ele><time>2026-08-22T15:56:29Z</time></trkpt><trkpt lat="59.3525848445" lon="34.6539421566"><ele>158.42</ele><time>2026-08-22T15:56:30Z</time></trkpt><trkpt lat="59.3526024465" lon="34.6541211940"><ele>157.68</ele><time>2026-08-22T15:56:45Z</time></trkpt><trkpt lat="59.3526552524" lon="34.6543214377"><ele>157.47</ele><time>2026-08-22T15:57:01Z</time></trkpt><trkpt lat="59.3526915461" lon="34.6544475853"><ele>157.47</ele><time>2026-08-22T15:57:09Z</time></trkpt><trkpt lat="59.3527591880" lon="34.6545970347"><ele>157.15</ele><time>2026-08-22T15:57:22Z</time></trkpt><trkpt lat="59.3528151792" lon="34.6547482442"><ele>156.96</ele><time>2026-08-22T15:57:34Z</time></trkpt><trkpt lat="59.3528937176" lon="34.6549023036"><ele>157.18</ele><time>2026-08-22T15:57:47Z</time></trkpt><trkpt lat="59.3529370520" lon="34.6550054010"><ele>158.05</ele><time>2026-08-22T15:57:54Z</time></trkpt><trkpt lat="59.3529557437" lon="34.6551132761"><ele>158.60</ele><time>2026-08-22T15:58:01Z</time></trkpt><trkpt lat="59.3529886845" lon="34.6552043036"><ele>158.56</ele><time>2026-08-22T15:58:08Z</time></trkpt><trkpt lat="59.3530223798" lon="34.6553146094"><ele>158.47</ele><time>2026-08-22T15:58:16Z</time></trkpt><trkpt lat="59.3530788738" lon="34.6554622985"><ele>159.24</ele><time>2026-08-22T15:58:27Z</time></trkpt><trkpt lat="59.3531201128" lon="34.6555954870"><ele>159.76</ele><time>2026-08-22T15:58:37Z</time></trkpt><trkpt lat="59.3531735893" lon="34.6557124145"><ele>161.30</ele><time>2026-08-22T15:58:49Z</time></trkpt><trkpt lat="59.3532315083" lon="34.6558342036"><ele>162.25</ele><time>2026-08-22T15:58:59Z</time></trkpt><trkpt lat="59.3532750942" lon="34.6559648775"><ele>163.03</ele><time>2026-08-22T15:59:11Z</time></trkpt><trkpt lat="59.3533284031" lon="34.6560366265"><ele>163.12</ele><time>2026-08-22T15:59:22Z</time></trkpt><trkpt lat="59.3533869926" lon="34.6561914403"><ele>163.44</ele><time>2026-08-22T15:59:33Z</time></trkpt><trkpt lat="59.3534403015" lon="34.6563429013"><ele>163.08</ele><time>2026-08-22T15:59:45Z</time></trkpt><trkpt lat="59.3535031658" lon="34.6564677078"><ele>163.31</ele><time>2026-08-22T15:59:55Z</time></trkpt><trkpt lat="59.3535678741" lon="34.6566271316"><ele>163.87</ele><time>2026-08-22T16:00:07Z</time></trkpt><trkpt lat="59.3536497653" lon="34.6567806881"><ele>164.78</ele><time>2026-08-22T16:00:23Z</time></trkpt><trkpt lat="59.3537120428" lon="34.6569675207"><ele>163.08</ele><time>2026-08-22T16:00:38Z</time></trkpt><trkpt lat="59.3538008910" lon="34.6571774036"><ele>161.87</ele><time>2026-08-22T16:00:54Z</time></trkpt><trkpt lat="59.3538476620" lon="34.6573300380"><ele>161.94</ele><time>2026-08-22T16:01:07Z</time></trkpt><trkpt lat="59.3538616598" lon="34.6575652342"><ele>160.88</ele><time>2026-08-22T16:01:24Z</time></trkpt><trkpt lat="59.3538008910" lon="34.6579167712"><ele>159.69</ele><time>2026-08-22T16:01:41Z</time></trkpt><trkpt lat="59.3537738174" lon="34.6581360418"><ele>159.92</ele><time>2026-08-22T16:01:53Z</time></trkpt><trkpt lat="59.3537090253" lon="34.6583701484"><ele>159.07</ele><time>2026-08-22T16:02:06Z</time></trkpt><trkpt lat="59.3536925130" lon="34.6584252175"><ele>158.85</ele><time>2026-08-22T16:02:08Z</time></trkpt><trkpt lat="59.3535997253" lon="34.6587737370"><ele>160.64</ele><time>2026-08-22T16:02:27Z</time></trkpt><trkpt lat="59.3535714783" lon="34.6589525230"><ele>162.79</ele><time>2026-08-22T16:02:38Z</time></trkpt><trkpt lat="59.3534419779" lon="34.6591898147"><ele>163.22</ele><time>2026-08-22T16:02:57Z</time></trkpt><trkpt lat="59.3533258047" lon="34.6593560278"><ele>162.66</ele><time>2026-08-22T16:03:12Z</time></trkpt><trkpt lat="59.3532095477" lon="34.6595923137"><ele>160.63</ele><time>2026-08-22T16:03:29Z</time></trkpt><trkpt lat="59.3531274050" lon="34.6597778052"><ele>160.01</ele><time>2026-08-22T16:03:43Z</time></trkpt><trkpt lat="59.3531022593" lon="34.6598402504"><ele>159.72</ele><time>2026-08-22T16:03:47Z</time></trkpt><trkpt lat="59.3530263193" lon="34.6599879395"><ele>159.56</ele><time>2026-08-22T16:03:58Z</time></trkpt><trkpt lat="59.3529699091" lon="34.6601923741"><ele>159.30</ele><time>2026-08-22T16:04:12Z</time></trkpt><trkpt lat="59.3529623654" lon="34.6602255665"><ele>159.37</ele><time>2026-08-22T16:04:14Z</time></trkpt><trkpt lat="59.3529137503" lon="34.6604106389"><ele>158.59</ele><time>2026-08-22T16:04:26Z</time></trkpt><trkpt lat="59.3528578430" lon="34.6606094576"><ele>157.74</ele><time>2026-08-22T16:04:42Z</time></trkpt><trkpt lat="59.3528111558" lon="34.6607309952"><ele>156.94</ele><time>2026-08-22T16:04:54Z</time></trkpt><trkpt lat="59.3527739402" lon="34.6608927660"><ele>157.40</ele><time>2026-08-22T16:05:05Z</time></trkpt><trkpt lat="59.3526612874" lon="34.6610891540"><ele>157.44</ele><time>2026-08-22T16:05:21Z</time></trkpt><trkpt lat="59.3525892869" lon="34.6611912455"><ele>157.20</ele><time>2026-08-22T16:05:29Z</time></trkpt><trkpt lat="59.3525084853" lon="34.6613256913"><ele>158.19</ele><time>2026-08-22T16:05:39Z</time></trkpt><trkpt lat="59.3524141051" lon="34.6614664234"><ele>160.02</ele><time>2026-08-22T16:05:55Z</time></trkpt><trkpt lat="59.3523222394" lon="34.6615447942"><ele>162.05</ele><time>2026-08-22T16:06:06Z</time></trkpt><trkpt lat="59.3522557709" lon="34.6616747137"><ele>162.42</ele><time>2026-08-22T16:06:16Z</time></trkpt><trkpt lat="59.3521590438" lon="34.6618835907"><ele>162.33</ele><time>2026-08-22T16:06:30Z</time></trkpt><trkpt lat="59.3521065731" lon="34.6620202996"><ele>162.51</ele><time>2026-08-22T16:06:41Z</time></trkpt><trkpt lat="59.3519500829" lon="34.6622254886"><ele>161.82</ele><time>2026-08-22T16:06:56Z</time></trkpt><trkpt lat="59.3518513441" lon="34.6624547336"><ele>161.98</ele><time>2026-08-22T16:07:11Z</time></trkpt><trkpt lat="59.3517870549" lon="34.6626253054"><ele>161.69</ele><time>2026-08-22T16:07:23Z</time></trkpt><trkpt lat="59.3517680280" lon="34.6626832243"><ele>161.43</ele><time>2026-08-22T16:07:27Z</time></trkpt><trkpt lat="59.3517166469" lon="34.6628784388"><ele>160.43</ele><time>2026-08-22T16:07:40Z</time></trkpt><trkpt lat="59.3516446464" lon="34.6631561313"><ele>159.42</ele><time>2026-08-22T16:07:58Z</time></trkpt><trkpt lat="59.3515787646" lon="34.6632985398"><ele>159.40</ele><time>2026-08-22T16:08:11Z</time></trkpt><trkpt lat="59.3515272997" lon="34.6634223405"><ele>159.49</ele><time>2026-08-22T16:08:23Z</time></trkpt><trkpt lat="59.3515208457" lon="34.6634338237"><ele>159.37</ele><time>2026-08-22T16:08:24Z</time></trkpt><trkpt lat="59.3514303211" lon="34.6635283716"><ele>159.40</ele><time>2026-08-22T16:08:35Z</time></trkpt><trkpt lat="59.3513781019" lon="34.6635738015"><ele>158.69</ele><time>2026-08-22T16:08:42Z</time></trkpt><trkpt lat="59.3513587397" lon="34.6635802556"><ele>158.46</ele><time>2026-08-22T16:08:44Z</time></trkpt><trkpt lat="59.3512852304" lon="34.6636183094"><ele>157.58</ele><time>2026-08-22T16:08:51Z</time></trkpt><trkpt lat="59.3512249645" lon="34.6636530943"><ele>157.10</ele><time>2026-08-22T16:08:57Z</time></trkpt><trkpt lat="59.3511465937" lon="34.6638203133"><ele>156.76</ele><time>2026-08-22T16:09:08Z</time></trkpt><trkpt lat="59.3510978110" lon="34.6639923938"><ele>156.08</ele><time>2026-08-22T16:09:18Z</time></trkpt><trkpt lat="59.3510082085" lon="34.6642689127"><ele>154.85</ele><time>2026-08-22T16:09:35Z</time></trkpt><trkpt lat="59.3509334419" lon="34.6644451004"><ele>154.30</ele><time>2026-08-22T16:09:46Z</time></trkpt><trkpt lat="59.3508954719" lon="34.6646399796"><ele>153.62</ele><time>2026-08-22T16:09:59Z</time></trkpt><trkpt lat="59.3508739304" lon="34.6648942865"><ele>152.66</ele><time>2026-08-22T16:10:12Z</time></trkpt><trkpt lat="59.3508648779" lon="34.6651304886"><ele>151.53</ele><time>2026-08-22T16:10:26Z</time></trkpt><trkpt lat="59.3508497905" lon="34.6652512718"><ele>151.87</ele><time>2026-08-22T16:10:37Z</time></trkpt><trkpt lat="59.3508324400" lon="34.6651364397"><ele>151.32</ele><time>2026-08-22T16:10:49Z</time></trkpt><trkpt lat="59.3508314341" lon="34.6651383676"><ele>151.33</ele><time>2026-08-22T16:10:52Z</time></trkpt><trkpt lat="59.3508079648" lon="34.6651274711"><ele>151.27</ele><time>2026-08-22T16:10:56Z</time></trkpt><trkpt lat="59.3507106509" lon="34.6651552990"><ele>151.31</ele><time>2026-08-22T16:11:06Z</time></trkpt><trkpt lat="59.3505953997" lon="34.6650765091"><ele>151.08</ele><time>2026-08-22T16:11:21Z</time></trkpt><trkpt lat="59.3505149335" lon="34.6650516987"><ele>151.92</ele><time>2026-08-22T16:11:33Z</time></trkpt><trkpt lat="59.3503928091" lon="34.6650095377"><ele>153.78</ele><time>2026-08-22T16:11:48Z</time></trkpt><trkpt lat="59.3503104988" lon="34.6650156565"><ele>157.26</ele><time>2026-08-22T16:12:03Z</time></trkpt><trkpt lat="59.3502237462" lon="34.6651384514"><ele>158.21</ele><time>2026-08-22T16:12:18Z</time></trkpt><trkpt lat="59.3501742929" lon="34.6653874777"><ele>157.61</ele><time>2026-08-22T16:12:34Z</time></trkpt><trkpt lat="59.3500384223" lon="34.6656162199"><ele>156.59</ele><time>2026-08-22T16:12:52Z</time></trkpt><trkpt lat="59.3500339799" lon="34.6656239312"><ele>156.57</ele><time>2026-08-22T16:12:53Z</time></trkpt><trkpt lat="59.3499915674" lon="34.6658474766"><ele>155.94</ele><time>2026-08-22T16:13:10Z</time></trkpt><trkpt lat="59.3499837723" lon="34.6660649031"><ele>158.12</ele><time>2026-08-22T16:13:25Z</time></trkpt><trkpt lat="59.3499162979" lon="34.6663063858"><ele>158.48</ele><time>2026-08-22T16:13:41Z</time></trkpt><trkpt lat="59.3498856202" lon="34.6664227266"><ele>160.45</ele><time>2026-08-22T16:13:58Z</time></trkpt><trkpt lat="59.3498689402" lon="34.6664299350"><ele>160.91</ele><time>2026-08-22T16:14:07Z</time></trkpt><trkpt lat="59.3498948403" lon="34.6663694177"><ele>160.89</ele><time>2026-08-22T16:14:22Z</time></trkpt><trkpt lat="59.3499838561" lon="34.6661499795"><ele>162.92</ele><time>2026-08-22T16:14:37Z</time></trkpt><trkpt lat="59.3499446288" lon="34.6660336386"><ele>165.63</ele><time>2026-08-22T16:14:53Z</time></trkpt><trkpt lat="59.3499116879" lon="34.6660617180"><ele>166.92</ele><time>2026-08-22T16:15:11Z</time></trkpt><trkpt lat="59.3499125261" lon="34.6663329564"><ele>165.78</ele><time>2026-08-22T16:15:26Z</time></trkpt><trkpt lat="59.3498732988" lon="34.6663970780"><ele>165.34</ele><time>2026-08-22T16:15:40Z</time></trkpt><trkpt lat="59.3498462252" lon="34.6664237324"><ele>165.02</ele><time>2026-08-22T16:15:55Z</time></trkpt><trkpt lat="59.3498546071" lon="34.6663611196"><ele>165.05</ele><time>2026-08-22T16:16:12Z</time></trkpt><trkpt lat="59.3498438783" lon="34.6663511451"><ele>165.42</ele><time>2026-08-22T16:16:33Z</time></trkpt><trkpt lat="59.3497958500" lon="34.6663175337"><ele>166.96</ele><time>2026-08-22T16:17:00Z</time></trkpt><trkpt lat="59.3497962691" lon="34.6663933061"><ele>167.83</ele><time>2026-08-22T16:17:21Z</time></trkpt><trkpt lat="59.3498559482" lon="34.6663701721"><ele>169.12</ele><time>2026-08-22T16:17:43Z</time></trkpt><trkpt lat="59.3498695269" lon="34.6663954854"><ele>169.24</ele><time>2026-08-22T16:17:50Z</time></trkpt><trkpt lat="59.3498831056" lon="34.6664026100"><ele>170.40</ele><time>2026-08-22T16:18:05Z</time></trkpt><trkpt lat="59.3498404417" lon="34.6664617863"><ele>172.18</ele><time>2026-08-22T16:18:31Z</time></trkpt><trkpt lat="59.3498623185" lon="34.6664117463"><ele>172.36</ele><time>2026-08-22T16:19:01Z</time></trkpt><trkpt lat="59.3498585466" lon="34.6664477885"><ele>173.90</ele><time>2026-08-22T16:19:29Z</time></trkpt><trkpt lat="59.3498754781" lon="34.6664909553"><ele>173.57</ele><time>2026-08-22T16:19:52Z</time></trkpt><trkpt lat="59.3498955946" lon="34.6665135864"><ele>173.98</ele><time>2026-08-22T16:20:16Z</time></trkpt><trkpt lat="59.3498815969" lon="34.6666151751"><ele>176.63</ele><time>2026-08-22T16:20:35Z</time></trkpt><trkpt lat="59.3498141225" lon="34.6667530574"><ele>177.58</ele><time>2026-08-22T16:20:52Z</time></trkpt><trkpt lat="59.3497636635" lon="34.6668131556"><ele>178.64</ele><time>2026-08-22T16:21:05Z</time></trkpt><trkpt lat="59.3497564550" lon="34.6668314282"><ele>179.01</ele><time>2026-08-22T16:21:15Z</time></trkpt><trkpt lat="59.3496745639" lon="34.6669413149"><ele>178.90</ele><time>2026-08-22T16:21:27Z</time></trkpt><trkpt lat="59.3496153876" lon="34.6670015808"><ele>178.99</ele><time>2026-08-22T16:21:40Z</time></trkpt><trkpt lat="59.3495914154" lon="34.6669987310"><ele>179.37</ele><time>2026-08-22T16:21:43Z</time></trkpt><trkpt lat="59.3494846299" lon="34.6669870801"><ele>178.94</ele><time>2026-08-22T16:21:58Z</time></trkpt><trkpt lat="59.3494148925" lon="34.6669554804"><ele>178.44</ele><time>2026-08-22T16:22:11Z</time></trkpt><trkpt lat="59.3493749108" lon="34.6669144928"><ele>177.31</ele><time>2026-08-22T16:22:27Z</time></trkpt><trkpt lat="59.3494248670" lon="34.6670915186"><ele>175.07</ele><time>2026-08-22T16:22:42Z</time></trkpt><trkpt lat="59.3494117074" lon="34.6672236174"><ele>174.18</ele><time>2026-08-22T16:22:54Z</time></trkpt><trkpt lat="59.3493858073" lon="34.6673055924"><ele>173.85</ele><time>2026-08-22T16:23:02Z</time></trkpt><trkpt lat="59.3492972944" lon="34.6674640942"><ele>173.24</ele><time>2026-08-22T16:23:20Z</time></trkpt><trkpt lat="59.3493244518" lon="34.6675882302"><ele>173.31</ele><time>2026-08-22T16:23:34Z</time></trkpt><trkpt lat="59.3494237773" lon="34.6676215902"><ele>172.96</ele><time>2026-08-22T16:23:48Z</time></trkpt><trkpt lat="59.3495112844" lon="34.6676534414"><ele>173.06</ele><time>2026-08-22T16:24:02Z</time></trkpt><trkpt lat="59.3495213427" lon="34.6677852049"><ele>172.92</ele><time>2026-08-22T16:24:12Z</time></trkpt><trkpt lat="59.3495358434" lon="34.6678590495"><ele>172.59</ele><time>2026-08-22T16:24:18Z</time></trkpt><trkpt lat="59.3495238572" lon="34.6679894719"><ele>170.98</ele><time>2026-08-22T16:24:29Z</time></trkpt><trkpt lat="59.3495634198" lon="34.6681445371"><ele>170.21</ele><time>2026-08-22T16:24:43Z</time></trkpt><trkpt lat="59.3495805189" lon="34.6682685893"><ele>170.48</ele><time>2026-08-22T16:24:54Z</time></trkpt><trkpt lat="59.3495702930" lon="34.6683864389"><ele>170.51</ele><time>2026-08-22T16:25:07Z</time></trkpt><trkpt lat="59.3495743163" lon="34.6685976628"><ele>169.54</ele><time>2026-08-22T16:25:25Z</time></trkpt><trkpt lat="59.3495666049" lon="34.6688814741"><ele>169.38</ele><time>2026-08-22T16:25:41Z</time></trkpt><trkpt lat="59.3496147171" lon="34.6690282412"><ele>168.27</ele><time>2026-08-22T16:25:55Z</time></trkpt><trkpt lat="59.3497037329" lon="34.6691584960"><ele>167.53</ele><time>2026-08-22T16:26:10Z</time></trkpt><trkpt lat="59.3498227559" lon="34.6692637727"><ele>167.23</ele><time>2026-08-22T16:26:27Z</time></trkpt><trkpt lat="59.3499621470" lon="34.6692450810"><ele>167.44</ele><time>2026-08-22T16:26:43Z</time></trkpt><trkpt lat="59.3499684334" lon="34.6692394651"><ele>167.59</ele><time>2026-08-22T16:26:44Z</time></trkpt><trkpt lat="59.3501045555" lon="34.6691978909"><ele>167.81</ele><time>2026-08-22T16:26:59Z</time></trkpt><trkpt lat="59.3501912244" lon="34.6691895090"><ele>167.77</ele><time>2026-08-22T16:27:12Z</time></trkpt><trkpt lat="59.3502170406" lon="34.6690605953"><ele>167.61</ele><time>2026-08-22T16:27:26Z</time></trkpt><trkpt lat="59.3503151927" lon="34.6690244693"><ele>166.55</ele><time>2026-08-22T16:27:41Z</time></trkpt><trkpt lat="59.3503888696" lon="34.6689718310"><ele>167.22</ele><time>2026-08-22T16:27:57Z</time></trkpt><trkpt lat="59.3505279254" lon="34.6690274868"><ele>168.52</ele><time>2026-08-22T16:28:12Z</time></trkpt><trkpt lat="59.3505524006" lon="34.6692892537"><ele>169.26</ele><time>2026-08-22T16:28:29Z</time></trkpt><trkpt lat="59.3505585194" lon="34.6695718076"><ele>169.07</ele><time>2026-08-22T16:28:44Z</time></trkpt><trkpt lat="59.3505220581" lon="34.6698396932"><ele>169.21</ele><time>2026-08-22T16:29:01Z</time></trkpt><trkpt lat="59.3505430967" lon="34.6701571159"><ele>168.05</ele><time>2026-08-22T16:29:22Z</time></trkpt><trkpt lat="59.3505652249" lon="34.6702361573"><ele>167.84</ele><time>2026-08-22T16:29:27Z</time></trkpt><trkpt lat="59.3505763728" lon="34.6703845169"><ele>167.52</ele><time>2026-08-22T16:29:34Z</time></trkpt><trkpt lat="59.3505876884" lon="34.6705701761"><ele>166.95</ele><time>2026-08-22T16:29:46Z</time></trkpt><trkpt lat="59.3504901230" lon="34.6712065302"><ele>165.25</ele><time>2026-08-22T16:30:18Z</time></trkpt><trkpt lat="59.3506067153" lon="34.6716687921"><ele>166.50</ele><time>2026-08-22T16:30:44Z</time></trkpt><trkpt lat="59.3506424222" lon="34.6717611607"><ele>166.72</ele><time>2026-08-22T16:30:49Z</time></trkpt><trkpt lat="59.3506923784" lon="34.6720108576"><ele>166.93</ele><time>2026-08-22T16:31:03Z</time></trkpt><trkpt lat="59.3506924622" lon="34.6723680943"><ele>166.13</ele><time>2026-08-22T16:31:22Z</time></trkpt><trkpt lat="59.3507024366" lon="34.6726314537"><ele>165.99</ele><time>2026-08-22T16:31:37Z</time></trkpt><trkpt lat="59.3507093098" lon="34.6728562564"><ele>165.38</ele><time>2026-08-22T16:31:51Z</time></trkpt><trkpt lat="59.3507097289" lon="34.6731123235"><ele>164.11</ele><time>2026-08-22T16:32:04Z</time></trkpt><trkpt lat="59.3507201225" lon="34.6733983979"><ele>164.37</ele><time>2026-08-22T16:32:20Z</time></trkpt><trkpt lat="59.3507351261" lon="34.6736756712"><ele>164.72</ele><time>2026-08-22T16:32:35Z</time></trkpt><trkpt lat="59.3507461064" lon="34.6737354342"><ele>164.78</ele><time>2026-08-22T16:32:38Z</time></trkpt><trkpt lat="59.3508009240" lon="34.6740264539"><ele>164.46</ele><time>2026-08-22T16:32:50Z</time></trkpt><trkpt lat="59.3508190289" lon="34.6741669346"><ele>163.95</ele><time>2026-08-22T16:33:01Z</time></trkpt><trkpt lat="59.3508761935" lon="34.6741447225"><ele>162.35</ele><time>2026-08-22T16:33:12Z</time></trkpt><trkpt lat="59.3509437516" lon="34.6740588080"><ele>159.73</ele><time>2026-08-22T16:33:22Z</time></trkpt><trkpt lat="59.3510132376" lon="34.6740632504"><ele>158.46</ele><time>2026-08-22T16:33:33Z</time></trkpt><trkpt lat="59.3509675562" lon="34.6740617417"><ele>158.82</ele><time>2026-08-22T16:33:48Z</time></trkpt><trkpt lat="59.3508933764" lon="34.6741878055"><ele>159.94</ele><time>2026-08-22T16:34:06Z</time></trkpt><trkpt lat="59.3508948013" lon="34.6742089279"><ele>160.01</ele><time>2026-08-22T16:34:07Z</time></trkpt><trkpt lat="59.3508727569" lon="34.6743082535"><ele>160.12</ele><time>2026-08-22T16:34:11Z</time></trkpt><trkpt lat="59.3508195318" lon="34.6745538432"><ele>160.13</ele><time>2026-08-22T16:34:25Z</time></trkpt><trkpt lat="59.3507746048" lon="34.6746885404"><ele>160.26</ele><time>2026-08-22T16:34:35Z</time></trkpt><trkpt lat="59.3507374730" lon="34.6749047097"><ele>159.45</ele><time>2026-08-22T16:34:50Z</time></trkpt><trkpt lat="59.3506190367" lon="34.6751233097"><ele>159.97</ele><time>2026-08-22T16:35:02Z</time></trkpt><trkpt lat="59.3504985049" lon="34.6754009183"><ele>157.55</ele><time>2026-08-22T16:35:17Z</time></trkpt><trkpt lat="59.3504759576" lon="34.6757151559"><ele>157.21</ele><time>2026-08-22T16:35:32Z</time></trkpt><trkpt lat="59.3504769634" lon="34.6758546308"><ele>155.64</ele><time>2026-08-22T16:35:39Z</time></trkpt><trkpt lat="59.3504027836" lon="34.6762130409"><ele>155.29</ele><time>2026-08-22T16:35:58Z</time></trkpt><trkpt lat="59.3503328785" lon="34.6765370853"><ele>154.14</ele><time>2026-08-22T16:36:14Z</time></trkpt><trkpt lat="59.3502870295" lon="34.6768698469"><ele>153.90</ele><time>2026-08-22T16:36:31Z</time></trkpt><trkpt lat="59.3501856923" lon="34.6771286801"><ele>152.61</ele><time>2026-08-22T16:36:47Z</time></trkpt><trkpt lat="59.3500888813" lon="34.6773263253"><ele>152.11</ele><time>2026-08-22T16:37:00Z</time></trkpt><trkpt lat="59.3500343990" lon="34.6776763536"><ele>150.92</ele><time>2026-08-22T16:37:17Z</time></trkpt><trkpt lat="59.3499884661" lon="34.6780523658"><ele>151.35</ele><time>2026-08-22T16:37:35Z</time></trkpt><trkpt lat="59.3499594647" lon="34.6783799306"><ele>150.79</ele><time>2026-08-22T16:37:51Z</time></trkpt><trkpt lat="59.3499401025" lon="34.6787265223"><ele>150.36</ele><time>2026-08-22T16:38:08Z</time></trkpt><trkpt lat="59.3499447126" lon="34.6788796596"><ele>150.54</ele><time>2026-08-22T16:38:15Z</time></trkpt><trkpt lat="59.3499609735" lon="34.6791380737"><ele>149.26</ele><time>2026-08-22T16:38:29Z</time></trkpt><trkpt lat="59.3499627337" lon="34.6793687437"><ele>146.70</ele><time>2026-08-22T16:38:41Z</time></trkpt><trkpt lat="59.3499557767" lon="34.6795331966"><ele>145.15</ele><time>2026-08-22T16:38:49Z</time></trkpt><trkpt lat="59.3499298766" lon="34.6797434147"><ele>146.15</ele><time>2026-08-22T16:39:01Z</time></trkpt><trkpt lat="59.3498705328" lon="34.6800049301"><ele>146.96</ele><time>2026-08-22T16:39:15Z</time></trkpt><trkpt lat="59.3499061558" lon="34.6804624144"><ele>148.24</ele><time>2026-08-22T16:39:34Z</time></trkpt><trkpt lat="59.3499697745" lon="34.6806525998"><ele>149.41</ele><time>2026-08-22T16:39:45Z</time></trkpt><trkpt lat="59.3500308786" lon="34.6807318088"><ele>150.14</ele><time>2026-08-22T16:39:51Z</time></trkpt><trkpt lat="59.3500732072" lon="34.6807892248"><ele>150.39</ele><time>2026-08-22T16:39:55Z</time></trkpt><trkpt lat="59.3502024561" lon="34.6809706092"><ele>152.18</ele><time>2026-08-22T16:40:08Z</time></trkpt><trkpt lat="59.3503160309" lon="34.6811607108"><ele>153.71</ele><time>2026-08-22T16:40:21Z</time></trkpt><trkpt lat="59.3503568508" lon="34.6813537460"><ele>153.94</ele><time>2026-08-22T16:40:32Z</time></trkpt><trkpt lat="59.3503714353" lon="34.6815663949"><ele>155.75</ele><time>2026-08-22T16:40:43Z</time></trkpt><trkpt lat="59.3503419310" lon="34.6817625314"><ele>155.45</ele><time>2026-08-22T16:40:56Z</time></trkpt><trkpt lat="59.3502574414" lon="34.6820273995"><ele>154.59</ele><time>2026-08-22T16:41:13Z</time></trkpt><trkpt lat="59.3501498178" lon="34.6822485980"><ele>153.15</ele><time>2026-08-22T16:41:30Z</time></trkpt><trkpt lat="59.3500119355" lon="34.6822759230"><ele>151.49</ele><time>2026-08-22T16:41:45Z</time></trkpt><trkpt lat="59.3498826865" lon="34.6822030004"><ele>149.09</ele><time>2026-08-22T16:41:58Z</time></trkpt><trkpt lat="59.3497879710" lon="34.6822169982"><ele>147.13</ele><time>2026-08-22T16:42:12Z</time></trkpt><trkpt lat="59.3497303873" lon="34.6824491769"><ele>150.07</ele><time>2026-08-22T16:42:26Z</time></trkpt><trkpt lat="59.3497087620" lon="34.6826342493"><ele>148.49</ele><time>2026-08-22T16:42:36Z</time></trkpt><trkpt lat="59.3496126216" lon="34.6828945074"><ele>148.67</ele><time>2026-08-22T16:42:49Z</time></trkpt><trkpt lat="59.3495353404" lon="34.6832273528"><ele>147.92</ele><time>2026-08-22T16:43:07Z</time></trkpt><trkpt lat="59.3494665250" lon="34.6835244074"><ele>148.34</ele><time>2026-08-22T16:43:22Z</time></trkpt><trkpt lat="59.3494275492" lon="34.6838829014"><ele>149.63</ele><time>2026-08-22T16:43:40Z</time></trkpt><trkpt lat="59.3493936025" lon="34.6841886733"><ele>150.07</ele><time>2026-08-22T16:43:55Z</time></trkpt><trkpt lat="59.3494137190" lon="34.6844429802"><ele>148.00</ele><time>2026-08-22T16:44:11Z</time></trkpt><trkpt lat="59.3494263757" lon="34.6846971195"><ele>147.26</ele><time>2026-08-22T16:44:27Z</time></trkpt><trkpt lat="59.3494474143" lon="34.6846640110"><ele>146.87</ele><time>2026-08-22T16:44:30Z</time></trkpt><trkpt lat="59.3495814409" lon="34.6845799405"><ele>142.61</ele><time>2026-08-22T16:44:46Z</time></trkpt><trkpt lat="59.3496796768" lon="34.6845365223"><ele>141.84</ele><time>2026-08-22T16:44:56Z</time></trkpt><trkpt lat="59.3498475663" lon="34.6844931878"><ele>149.53</ele><time>2026-08-22T16:45:15Z</time></trkpt><trkpt lat="59.3499693554" lon="34.6844997257"><ele>152.93</ele><time>2026-08-22T16:45:30Z</time></trkpt><trkpt lat="59.3500453793" lon="34.6844695508"><ele>154.44</ele><time>2026-08-22T16:45:41Z</time></trkpt><trkpt lat="59.3500898033" lon="34.6844775137"><ele>156.28</ele><time>2026-08-22T16:45:56Z</time></trkpt><trkpt lat="59.3501115125" lon="34.6844361071"><ele>157.53</ele><time>2026-08-22T16:46:08Z</time></trkpt><trkpt lat="59.3500887137" lon="34.6844474226"><ele>159.69</ele><time>2026-08-22T16:46:30Z</time></trkpt><trkpt lat="59.3501079082" lon="34.6845112927"><ele>163.76</ele><time>2026-08-22T16:46:49Z</time></trkpt><trkpt lat="59.3501307070" lon="34.6845014021"><ele>165.53</ele><time>2026-08-22T16:47:04Z</time></trkpt><trkpt lat="59.3500052299" lon="34.6845844667"><ele>166.32</ele><time>2026-08-22T16:47:18Z</time></trkpt><trkpt lat="59.3498572055" lon="34.6846020687"><ele>166.98</ele><time>2026-08-22T16:47:33Z</time></trkpt><trkpt lat="59.3497733027" lon="34.6845339239"><ele>166.25</ele><time>2026-08-22T16:47:42Z</time></trkpt><trkpt lat="59.3496003002" lon="34.6845650207"><ele>165.31</ele><time>2026-08-22T16:47:59Z</time></trkpt><trkpt lat="59.3494442292" lon="34.6847825311"><ele>164.24</ele><time>2026-08-22T16:48:15Z</time></trkpt><trkpt lat="59.3494237773" lon="34.6848880593"><ele>163.98</ele><time>2026-08-22T16:48:19Z</time></trkpt><trkpt lat="59.3493881542" lon="34.6852598805"><ele>164.11</ele><time>2026-08-22T16:48:36Z</time></trkpt><trkpt lat="59.3493532017" lon="34.6855927259"><ele>162.37</ele><time>2026-08-22T16:48:50Z</time></trkpt><trkpt lat="59.3493534531" lon="34.6857175324"><ele>161.51</ele><time>2026-08-22T16:48:55Z</time></trkpt><trkpt lat="59.3493267149" lon="34.6859199554"><ele>159.92</ele><time>2026-08-22T16:49:04Z</time></trkpt><trkpt lat="59.3493017368" lon="34.6858941391"><ele>158.94</ele><time>2026-08-22T16:49:08Z</time></trkpt><trkpt lat="59.3492603302" lon="34.6858463623"><ele>157.98</ele><time>2026-08-22T16:49:19Z</time></trkpt><trkpt lat="59.3492745794" lon="34.6860011760"><ele>157.78</ele><time>2026-08-22T16:49:27Z</time></trkpt><trkpt lat="59.3492733222" lon="34.6862018388"><ele>157.11</ele><time>2026-08-22T16:49:36Z</time></trkpt><trkpt lat="59.3492890801" lon="34.6864426509"><ele>156.30</ele><time>2026-08-22T16:49:45Z</time></trkpt><trkpt lat="59.3492959533" lon="34.6866380330"><ele>156.39</ele><time>2026-08-22T16:49:55Z</time></trkpt><trkpt lat="59.3492799439" lon="34.6866754163"><ele>156.49</ele><time>2026-08-22T16:49:56Z</time></trkpt><trkpt lat="59.3492452428" lon="34.6871023905"><ele>156.84</ele><time>2026-08-22T16:50:13Z</time></trkpt><trkpt lat="59.3492713943" lon="34.6875127684"><ele>157.57</ele><time>2026-08-22T16:50:31Z</time></trkpt><trkpt lat="59.3493073527" lon="34.6878993418"><ele>157.00</ele><time>2026-08-22T16:50:48Z</time></trkpt><trkpt lat="59.3493133876" lon="34.6881554089"><ele>157.25</ele><time>2026-08-22T16:51:00Z</time></trkpt><trkpt lat="59.3493071012" lon="34.6882818919"><ele>156.09</ele><time>2026-08-22T16:51:06Z</time></trkpt><trkpt lat="59.3493085261" lon="34.6884714067"><ele>155.64</ele><time>2026-08-22T16:51:15Z</time></trkpt><trkpt lat="59.3493168242" lon="34.6885342710"><ele>156.07</ele><time>2026-08-22T16:51:18Z</time></trkpt><trkpt lat="59.3493363541" lon="34.6887298208"><ele>157.92</ele><time>2026-08-22T16:51:27Z</time></trkpt><trkpt lat="59.3493729830" lon="34.6890455671"><ele>162.81</ele><time>2026-08-22T16:51:40Z</time></trkpt><trkpt lat="59.3494147249" lon="34.6893710364"><ele>166.63</ele><time>2026-08-22T16:51:54Z</time></trkpt><trkpt lat="59.3494615797" lon="34.6897692606"><ele>165.56</ele><time>2026-08-22T16:52:12Z</time></trkpt><trkpt lat="59.3495291378" lon="34.6900472045"><ele>166.67</ele><time>2026-08-22T16:52:27Z</time></trkpt><trkpt lat="59.3496104423" lon="34.6903075464"><ele>166.92</ele><time>2026-08-22T16:52:41Z</time></trkpt><trkpt lat="59.3496934231" lon="34.6906427387"><ele>167.44</ele><time>2026-08-22T16:52:58Z</time></trkpt><trkpt lat="59.3497325666" lon="34.6909330878"><ele>167.84</ele><time>2026-08-22T16:53:12Z</time></trkpt><trkpt lat="59.3497500848" lon="34.6912493370"><ele>167.81</ele><time>2026-08-22T16:53:27Z</time></trkpt><trkpt lat="59.3497811817" lon="34.6915497445"><ele>166.20</ele><time>2026-08-22T16:53:42Z</time></trkpt><trkpt lat="59.3497999571" lon="34.6918726154"><ele>165.53</ele><time>2026-08-22T16:53:57Z</time></trkpt><trkpt lat="59.3497938383" lon="34.6922000963"><ele>165.83</ele><time>2026-08-22T16:54:11Z</time></trkpt><trkpt lat="59.3497903179" lon="34.6925463527"><ele>165.94</ele><time>2026-08-22T16:54:26Z</time></trkpt><trkpt lat="59.3498081714" lon="34.6928252187"><ele>165.28</ele><time>2026-08-22T16:54:39Z</time></trkpt><trkpt lat="59.3498329818" lon="34.6930269711"><ele>165.64</ele><time>2026-08-22T16:54:51Z</time></trkpt><trkpt lat="59.3498354964" lon="34.6930178348"><ele>165.32</ele><time>2026-08-22T16:55:05Z</time></trkpt><trkpt lat="59.3498216663" lon="34.6930915955"><ele>165.60</ele><time>2026-08-22T16:55:19Z</time></trkpt><trkpt lat="59.3498258572" lon="34.6931536216"><ele>165.75</ele><time>2026-08-22T16:55:22Z</time></trkpt><trkpt lat="59.3498638272" lon="34.6935406141"><ele>165.36</ele><time>2026-08-22T16:55:39Z</time></trkpt><trkpt lat="59.3498828541" lon="34.6936002932"><ele>165.17</ele><time>2026-08-22T16:55:42Z</time></trkpt><trkpt lat="59.3498929963" lon="34.6936872136"><ele>165.03</ele><time>2026-08-22T16:55:46Z</time></trkpt><trkpt lat="59.3499081675" lon="34.6938953362"><ele>164.88</ele><time>2026-08-22T16:55:55Z</time></trkpt><trkpt lat="59.3499438744" lon="34.6941449493"><ele>163.68</ele><time>2026-08-22T16:56:07Z</time></trkpt><trkpt lat="59.3499642424" lon="34.6943891142"><ele>162.62</ele><time>2026-08-22T16:56:18Z</time></trkpt><trkpt lat="59.3499731272" lon="34.6947576664"><ele>161.94</ele><time>2026-08-22T16:56:34Z</time></trkpt><trkpt lat="59.3499995302" lon="34.6950016636"><ele>161.34</ele><time>2026-08-22T16:56:45Z</time></trkpt><trkpt lat="59.3500099238" lon="34.6954148076"><ele>162.81</ele><time>2026-08-22T16:57:02Z</time></trkpt><trkpt lat="59.3500105105" lon="34.6957275365"><ele>163.64</ele><time>2026-08-22T16:57:15Z</time></trkpt><trkpt lat="59.3500238378" lon="34.6960268542"><ele>164.15</ele><time>2026-08-22T16:57:27Z</time></trkpt><trkpt lat="59.3500852771" lon="34.6963697579"><ele>164.68</ele><time>2026-08-22T16:57:42Z</time></trkpt><trkpt lat="59.3501700182" lon="34.6966287587"><ele>165.84</ele><time>2026-08-22T16:57:55Z</time></trkpt><trkpt lat="59.3502211478" lon="34.6967730112"><ele>166.09</ele><time>2026-08-22T16:58:03Z</time></trkpt><trkpt lat="59.3502867781" lon="34.6970653720"><ele>166.15</ele><time>2026-08-22T16:58:17Z</time></trkpt><trkpt lat="59.3503170367" lon="34.6972786076"><ele>166.75</ele><time>2026-08-22T16:58:27Z</time></trkpt><trkpt lat="59.3503455352" lon="34.6974111255"><ele>166.97</ele><time>2026-08-22T16:58:33Z</time></trkpt><trkpt lat="59.3503969163" lon="34.6977290511"><ele>166.23</ele><time>2026-08-22T16:58:47Z</time></trkpt><trkpt lat="59.3504259177" lon="34.6980117727"><ele>165.10</ele><time>2026-08-22T16:58:59Z</time></trkpt><trkpt lat="59.3504405860" lon="34.6981642395"><ele>164.72</ele><time>2026-08-22T16:59:05Z</time></trkpt><trkpt lat="59.3504884467" lon="34.6985002700"><ele>164.98</ele><time>2026-08-22T16:59:19Z</time></trkpt><trkpt lat="59.3505544122" lon="34.6988628712"><ele>164.94</ele><time>2026-08-22T16:59:35Z</time></trkpt><trkpt lat="59.3505820725" lon="34.6989790443"><ele>164.78</ele><time>2026-08-22T16:59:40Z</time></trkpt><trkpt lat="59.3506282568" lon="34.6993243787"><ele>164.80</ele><time>2026-08-22T16:59:55Z</time></trkpt><trkpt lat="59.3506832421" lon="34.6996175777"><ele>164.97</ele><time>2026-08-22T17:00:08Z</time></trkpt><trkpt lat="59.3506995030" lon="34.6996910870"><ele>165.17</ele><time>2026-08-22T17:00:11Z</time></trkpt><trkpt lat="59.3507958949" lon="34.7000512574"><ele>166.08</ele><time>2026-08-22T17:00:27Z</time></trkpt><trkpt lat="59.3508541491" lon="34.7003607173"><ele>166.87</ele><time>2026-08-22T17:00:41Z</time></trkpt><trkpt lat="59.3509249762" lon="34.7007971630"><ele>167.08</ele><time>2026-08-22T17:00:59Z</time></trkpt><trkpt lat="59.3509532232" lon="34.7010098957"><ele>167.32</ele><time>2026-08-22T17:01:13Z</time></trkpt><trkpt lat="59.3509491161" lon="34.7010114882"><ele>167.40</ele><time>2026-08-22T17:01:25Z</time></trkpt><trkpt lat="59.3509447575" lon="34.7009613644"><ele>167.06</ele><time>2026-08-22T17:01:34Z</time></trkpt><trkpt lat="59.3509270716" lon="34.7009372246"><ele>167.01</ele><time>2026-08-22T17:01:46Z</time></trkpt><trkpt lat="59.3509289157" lon="34.7009481210"><ele>166.38</ele><time>2026-08-22T17:01:56Z</time></trkpt><trkpt lat="59.3509305920" lon="34.7009670641"><ele>166.37</ele><time>2026-08-22T17:02:05Z</time></trkpt><trkpt lat="59.3509223778" lon="34.7009507194"><ele>166.87</ele><time>2026-08-22T17:02:25Z</time></trkpt><trkpt lat="59.3509167619" lon="34.7009584308"><ele>167.10</ele><time>2026-08-22T17:02:44Z</time></trkpt><trkpt lat="59.3508872576" lon="34.7009437624"><ele>167.47</ele><time>2026-08-22T17:02:55Z</time></trkpt><trkpt lat="59.3509093020" lon="34.7009440139"><ele>167.48</ele><time>2026-08-22T17:03:06Z</time></trkpt><trkpt lat="59.3509151693" lon="34.7009056248"><ele>167.14</ele><time>2026-08-22T17:03:21Z</time></trkpt><trkpt lat="59.3509130739" lon="34.7009431757"><ele>167.36</ele><time>2026-08-22T17:03:34Z</time></trkpt><trkpt lat="59.3509299215" lon="34.7009507194"><ele>169.73</ele><time>2026-08-22T17:03:49Z</time></trkpt><trkpt lat="59.3509110622" lon="34.7009692434"><ele>168.26</ele><time>2026-08-22T17:04:04Z</time></trkpt><trkpt lat="59.3509170972" lon="34.7009672318"><ele>167.63</ele><time>2026-08-22T17:04:18Z</time></trkpt><trkpt lat="59.3509252276" lon="34.7009515576"><ele>166.96</ele><time>2026-08-22T17:04:33Z</time></trkpt><trkpt lat="59.3509239703" lon="34.7009512223"><ele>167.48</ele><time>2026-08-22T17:04:42Z</time></trkpt><trkpt lat="59.3509209529" lon="34.7009469476"><ele>167.84</ele><time>2026-08-22T17:04:52Z</time></trkpt><trkpt lat="59.3509082962" lon="34.7009601071"><ele>166.88</ele><time>2026-08-22T17:05:04Z</time></trkpt><trkpt lat="59.3509120680" lon="34.7009397391"><ele>165.29</ele><time>2026-08-22T17:05:19Z</time></trkpt><trkpt lat="59.3509157561" lon="34.7009332851"><ele>165.12</ele><time>2026-08-22T17:05:35Z</time></trkpt><trkpt lat="59.3509185221" lon="34.7009399906"><ele>165.27</ele><time>2026-08-22T17:05:39Z</time></trkpt></trkseg></trk></gpx>